Wetterdaten: Mittwoch, 05.04.2017
Datum Zeit Temp. A. Feuchte A. Luftdruck Regen Wind Richtung Richtung Sonnenschein ET UV Solar Taupunkt Windchill Windben Empfang
05.04.2017 00:00 8,2 C 89 % 1021,4 hPa 0,0 l/m 16,2 km/h (3 Bft) SW 227 0 min 0,000 mm 0,0 UV-I 0 W/m 6,5 C 2,4 C 20,9 km/h (4 Bft) 98,00 %
05.04.2017 00:02 8,2 C 89 % 1021,4 hPa 0,0 l/m 13,6 km/h (3 Bft) S-SW 210 0 min 0,000 mm 0,0 UV-I 0 W/m 6,5 C 3,6 C 22,5 km/h (4 Bft) 92,31 %
05.04.2017 00:04 8,2 C 90 % 1021,3 hPa 0,0 l/m 12,5 km/h (3 Bft) SW 217 0 min 0,000 mm 0,0 UV-I 0 W/m 6,7 C 4,2 C 20,9 km/h (4 Bft) 96,23 %
05.04.2017 00:06 8,1 C 90 % 1021,3 hPa 0,0 l/m 15,1 km/h (3 Bft) SW 223 0 min 0,000 mm 0,0 UV-I 0 W/m 6,6 C 2,8 C 19,3 km/h (3 Bft) 94,74 %
05.04.2017 00:08 8,1 C 90 % 1021,3 hPa 0,0 l/m 11,8 km/h (2 Bft) W-SW 238 0 min 0,000 mm 0,0 UV-I 0 W/m 6,6 C 4,4 C 16,1 km/h (3 Bft) 97,87 %
05.04.2017 00:10 8,1 C 90 % 1021,3 hPa 0,0 l/m 12,7 km/h (3 Bft) S-SW 196 0 min 0,000 mm 0,0 UV-I 0 W/m 6,6 C 4,0 C 20,9 km/h (4 Bft) 94,64 %
05.04.2017 00:12 8,0 C 91 % 1021,3 hPa 0,0 l/m 15,2 km/h (3 Bft) SW 229 0 min 0,000 mm 0,0 UV-I 0 W/m 6,6 C 2,6 C 20,9 km/h (4 Bft) 94,87 %
05.04.2017 00:14 8,0 C 91 % 1021,3 hPa 0,0 l/m 16,2 km/h (3 Bft) SW 223 0 min 0,000 mm 0,0 UV-I 0 W/m 6,6 C 2,2 C 20,9 km/h (4 Bft) 95,45 %
05.04.2017 00:16 7,9 C 91 % 1021,3 hPa 0,0 l/m 13,1 km/h (3 Bft) SW 234 0 min 0,000 mm 0,0 UV-I 0 W/m 6,5 C 3,5 C 17,7 km/h (3 Bft) 96,23 %
05.04.2017 00:18 7,9 C 91 % 1021,4 hPa 0,0 l/m 12,6 km/h (3 Bft) SW 229 0 min 0,000 mm 0,0 UV-I 0 W/m 6,5 C 3,8 C 19,3 km/h (3 Bft) 97,37 %
05.04.2017 00:20 7,9 C 91 % 1021,4 hPa 0,0 l/m 13,1 km/h (3 Bft) SW 229 0 min 0,000 mm 0,0 UV-I 0 W/m 6,5 C 3,5 C 19,3 km/h (3 Bft) 92,45 %
05.04.2017 00:22 7,9 C 91 % 1021,4 hPa 0,0 l/m 8,9 km/h (2 Bft) SW 235 0 min 0,000 mm 0,0 UV-I 0 W/m 6,5 C 6,0 C 16,1 km/h (3 Bft) 100,00 %
05.04.2017 00:24 7,9 C 91 % 1021,4 hPa 0,0 l/m 10,0 km/h (2 Bft) W-SW 247 0 min 0,000 mm 0,0 UV-I 0 W/m 6,5 C 5,3 C 16,1 km/h (3 Bft) 98,11 %
05.04.2017 00:26 7,8 C 91 % 1021,4 hPa 0,0 l/m 6,8 km/h (2 Bft) W 262 0 min 0,000 mm 0,0 UV-I 0 W/m 6,4 C 7,5 C 12,9 km/h (3 Bft) 100,00 %
05.04.2017 00:28 7,8 C 91 % 1021,5 hPa 0,0 l/m 6,5 km/h (2 Bft) SW 221 0 min 0,000 mm 0,0 UV-I 0 W/m 6,4 C 7,7 C 11,3 km/h (2 Bft) 93,62 %
05.04.2017 00:30 7,9 C 91 % 1021,5 hPa 0,0 l/m 6,7 km/h (2 Bft) W-SW 241 0 min 0,000 mm 0,0 UV-I 0 W/m 6,5 C 7,7 C 12,9 km/h (3 Bft) 98,00 %
05.04.2017 00:32 7,9 C 92 % 1021,5 hPa 0,0 l/m 4,3 km/h (1 Bft) W-SW 245 0 min 0,000 mm 0,0 UV-I 0 W/m 6,7 C 7,9 C 6,4 km/h (2 Bft) 95,12 %
05.04.2017 00:34 7,9 C 92 % 1021,5 hPa 0,0 l/m 3,4 km/h (1 Bft) W-SW 240 0 min 0,000 mm 0,0 UV-I 0 W/m 6,7 C 7,9 C 6,4 km/h (2 Bft) 97,87 %
05.04.2017 00:36 7,8 C 92 % 1021,5 hPa 0,0 l/m 4,5 km/h (1 Bft) S-SW 213 0 min 0,000 mm 0,0 UV-I 0 W/m 6,6 C 7,8 C 8,0 km/h (2 Bft) 100,00 %
05.04.2017 00:38 7,8 C 92 % 1021,5 hPa 0,0 l/m 5,6 km/h (1 Bft) SW 226 0 min 0,000 mm 0,0 UV-I 0 W/m 6,6 C 7,8 C 8,0 km/h (2 Bft) 97,56 %
05.04.2017 00:40 7,8 C 92 % 1021,4 hPa 0,0 l/m 5,1 km/h (1 Bft) SW 223 0 min 0,000 mm 0,0 UV-I 0 W/m 6,6 C 7,8 C 8,0 km/h (2 Bft) 100,00 %
05.04.2017 00:42 7,8 C 92 % 1021,5 hPa 0,0 l/m 4,9 km/h (1 Bft) S-SW 208 0 min 0,000 mm 0,0 UV-I 0 W/m 6,6 C 7,8 C 8,0 km/h (2 Bft) 98,11 %
05.04.2017 00:44 7,8 C 92 % 1021,5 hPa 0,0 l/m 5,1 km/h (1 Bft) S-SW 207 0 min 0,000 mm 0,0 UV-I 0 W/m 6,6 C 7,8 C 6,4 km/h (2 Bft) 97,14 %
05.04.2017 00:46 7,8 C 92 % 1021,4 hPa 0,0 l/m 6,5 km/h (2 Bft) S-SW 205 0 min 0,000 mm 0,0 UV-I 0 W/m 6,6 C 7,7 C 9,7 km/h (2 Bft) 97,62 %
05.04.2017 00:48 7,8 C 92 % 1021,4 hPa 0,0 l/m 7,9 km/h (2 Bft) S-SW 205 0 min 0,000 mm 0,0 UV-I 0 W/m 6,6 C 6,6 C 9,7 km/h (2 Bft) 98,18 %
05.04.2017 00:50 7,8 C 92 % 1021,4 hPa 0,0 l/m 8,4 km/h (2 Bft) S-SW 201 0 min 0,000 mm 0,0 UV-I 0 W/m 6,6 C 6,2 C 11,3 km/h (2 Bft) 100,00 %
05.04.2017 00:52 7,8 C 92 % 1021,4 hPa 0,0 l/m 9,3 km/h (2 Bft) S-SW 196 0 min 0,000 mm 0,0 UV-I 0 W/m 6,6 C 5,6 C 14,5 km/h (3 Bft) 95,24 %
05.04.2017 00:54 7,8 C 92 % 1021,4 hPa 0,0 l/m 7,1 km/h (2 Bft) S-SW 194 0 min 0,000 mm 0,0 UV-I 0 W/m 6,6 C 7,2 C 9,7 km/h (2 Bft) 97,87 %
05.04.2017 00:56 7,8 C 92 % 1021,4 hPa 0,0 l/m 7,5 km/h (2 Bft) S-SW 213 0 min 0,000 mm 0,0 UV-I 0 W/m 6,6 C 6,9 C 12,9 km/h (3 Bft) 97,73 %
05.04.2017 00:58 7,8 C 92 % 1021,3 hPa 0,0 l/m 5,9 km/h (2 Bft) SW 232 0 min 0,000 mm 0,0 UV-I 0 W/m 6,6 C 7,8 C 8,0 km/h (2 Bft) 100,00 %
05.04.2017 01:00 7,8 C 92 % 1021,3 hPa 0,0 l/m 4,6 km/h (1 Bft) SW 234 0 min 0,000 mm 0,0 UV-I 0 W/m 6,6 C 7,8 C 8,0 km/h (2 Bft) 96,23 %
05.04.2017 01:02 7,8 C 92 % 1021,3 hPa 0,0 l/m 5,1 km/h (1 Bft) SW 236 0 min 0,000 mm 0,0 UV-I 0 W/m 6,6 C 7,8 C 8,0 km/h (2 Bft) 100,00 %
05.04.2017 01:04 7,8 C 92 % 1021,3 hPa 0,0 l/m 4,3 km/h (1 Bft) W-SW 252 0 min 0,000 mm 0,0 UV-I 0 W/m 6,6 C 7,8 C 8,0 km/h (2 Bft) 97,37 %
05.04.2017 01:06 7,8 C 92 % 1021,3 hPa 0,0 l/m 4,2 km/h (1 Bft) W-SW 252 0 min 0,000 mm 0,0 UV-I 0 W/m 6,6 C 7,8 C 8,0 km/h (2 Bft) 96,43 %
05.04.2017 01:08 7,8 C 92 % 1021,3 hPa 0,0 l/m 5,0 km/h (1 Bft) W-SW 238 0 min 0,000 mm 0,0 UV-I 0 W/m 6,6 C 7,8 C 8,0 km/h (2 Bft) 100,00 %
05.04.2017 01:10 7,8 C 92 % 1021,3 hPa 0,0 l/m 5,0 km/h (1 Bft) W-SW 251 0 min 0,000 mm 0,0 UV-I 0 W/m 6,6 C 7,8 C 8,0 km/h (2 Bft) 96,23 %
05.04.2017 01:12 7,8 C 92 % 1021,3 hPa 0,0 l/m 4,9 km/h (1 Bft) W-SW 251 0 min 0,000 mm 0,0 UV-I 0 W/m 6,6 C 7,8 C 9,7 km/h (2 Bft) 97,56 %
05.04.2017 01:14 7,8 C 92 % 1021,3 hPa 0,0 l/m 3,2 km/h (1 Bft) W-SW 244 0 min 0,000 mm 0,0 UV-I 0 W/m 6,6 C 7,8 C 4,8 km/h (1 Bft) 94,74 %
05.04.2017 01:16 7,8 C 92 % 1021,3 hPa 0,0 l/m 4,9 km/h (1 Bft) SW 226 0 min 0,000 mm 0,0 UV-I 0 W/m 6,6 C 7,8 C 11,3 km/h (2 Bft) 98,15 %
05.04.2017 01:18 7,8 C 92 % 1021,3 hPa 0,0 l/m 6,0 km/h (2 Bft) S-SW 209 0 min 0,000 mm 0,0 UV-I 0 W/m 6,6 C 7,8 C 12,9 km/h (3 Bft) 96,23 %
05.04.2017 01:20 7,8 C 92 % 1021,3 hPa 0,0 l/m 6,2 km/h (2 Bft) W-SW 238 0 min 0,000 mm 0,0 UV-I 0 W/m 6,6 C 7,8 C 11,3 km/h (2 Bft) 94,74 %
05.04.2017 01:22 7,8 C 92 % 1021,2 hPa 0,0 l/m 6,9 km/h (2 Bft) W-SW 242 0 min 0,000 mm 0,0 UV-I 0 W/m 6,6 C 7,4 C 11,3 km/h (2 Bft) 98,00 %
05.04.2017 01:24 7,8 C 92 % 1021,2 hPa 0,0 l/m 6,1 km/h (2 Bft) SW 234 0 min 0,000 mm 0,0 UV-I 0 W/m 6,6 C 7,8 C 8,0 km/h (2 Bft) 96,00 %
05.04.2017 01:26 7,8 C 92 % 1021,1 hPa 0,0 l/m 4,5 km/h (1 Bft) SW 225 0 min 0,000 mm 0,0 UV-I 0 W/m 6,6 C 7,8 C 6,4 km/h (2 Bft) 97,37 %
05.04.2017 01:28 7,8 C 92 % 1021,2 hPa 0,0 l/m 4,6 km/h (1 Bft) SW 215 0 min 0,000 mm 0,0 UV-I 0 W/m 6,6 C 7,8 C 6,4 km/h (2 Bft) 94,34 %
05.04.2017 01:30 7,9 C 92 % 1021,1 hPa 0,0 l/m 4,7 km/h (1 Bft) S-SW 208 0 min 0,000 mm 0,0 UV-I 0 W/m 6,7 C 7,9 C 6,4 km/h (2 Bft) 96,23 %
05.04.2017 01:32 7,9 C 91 % 1021,1 hPa 0,0 l/m 5,7 km/h (1 Bft) SW 217 0 min 0,000 mm 0,0 UV-I 0 W/m 6,5 C 7,9 C 9,7 km/h (2 Bft) 97,44 %
05.04.2017 01:34 7,9 C 91 % 1021,2 hPa 0,0 l/m 5,7 km/h (1 Bft) S-SW 197 0 min 0,000 mm 0,0 UV-I 0 W/m 6,5 C 7,9 C 9,7 km/h (2 Bft) 98,08 %
05.04.2017 01:36 7,8 C 91 % 1021,2 hPa 0,0 l/m 5,4 km/h (1 Bft) W-SW 237 0 min 0,000 mm 0,0 UV-I 0 W/m 6,4 C 7,8 C 8,0 km/h (2 Bft) 97,22 %
05.04.2017 01:38 7,8 C 91 % 1021,2 hPa 0,0 l/m 4,6 km/h (1 Bft) SW 234 0 min 0,000 mm 0,0 UV-I 0 W/m 6,4 C 7,8 C 8,0 km/h (2 Bft) 98,21 %
05.04.2017 01:40 7,9 C 91 % 1021,3 hPa 0,0 l/m 4,2 km/h (1 Bft) SW 227 0 min 0,000 mm 0,0 UV-I 0 W/m 6,5 C 7,9 C 8,0 km/h (2 Bft) 98,00 %
05.04.2017 01:42 7,9 C 91 % 1021,2 hPa 0,0 l/m 4,3 km/h (1 Bft) S 171 0 min 0,000 mm 0,0 UV-I 0 W/m 6,5 C 7,9 C 6,4 km/h (2 Bft) 95,74 %
05.04.2017 01:44 7,9 C 91 % 1021,3 hPa 0,0 l/m 4,0 km/h (1 Bft) W-SW 239 0 min 0,000 mm 0,0 UV-I 0 W/m 6,5 C 7,9 C 6,4 km/h (2 Bft) 93,62 %
05.04.2017 01:46 7,9 C 91 % 1021,3 hPa 0,0 l/m 3,4 km/h (1 Bft) SW 223 0 min 0,000 mm 0,0 UV-I 0 W/m 6,5 C 7,9 C 6,4 km/h (2 Bft) 100,00 %
05.04.2017 01:48 7,9 C 91 % 1021,3 hPa 0,0 l/m 3,3 km/h (1 Bft) SW 225 0 min 0,000 mm 0,0 UV-I 0 W/m 6,5 C 7,9 C 6,4 km/h (2 Bft) 97,87 %
05.04.2017 01:50 7,9 C 91 % 1021,3 hPa 0,0 l/m 2,3 km/h (1 Bft) SW 225 0 min 0,000 mm 0,0 UV-I 0 W/m 6,5 C 7,9 C 4,8 km/h (1 Bft) 100,00 %
05.04.2017 01:52 7,9 C 91 % 1021,3 hPa 0,0 l/m 1,4 km/h (1 Bft) SW 225 0 min 0,000 mm 0,0 UV-I 0 W/m 6,5 C 7,9 C 3,2 km/h (1 Bft) 97,87 %
05.04.2017 01:54 7,9 C 91 % 1021,3 hPa 0,0 l/m 3,9 km/h (1 Bft) W-SW 258 0 min 0,000 mm 0,0 UV-I 0 W/m 6,5 C 7,9 C 6,4 km/h (2 Bft) 97,87 %
05.04.2017 01:56 7,9 C 91 % 1021,3 hPa 0,0 l/m 3,9 km/h (1 Bft) W-SW 257 0 min 0,000 mm 0,0 UV-I 0 W/m 6,5 C 7,9 C 6,4 km/h (2 Bft) 97,87 %
05.04.2017 01:58 7,9 C 91 % 1021,2 hPa 0,0 l/m 3,7 km/h (1 Bft) W 261 0 min 0,000 mm 0,0 UV-I 0 W/m 6,5 C 7,9 C 6,4 km/h (2 Bft) 97,87 %
05.04.2017 02:00 7,9 C 91 % 1021,2 hPa 0,0 l/m 4,9 km/h (1 Bft) W 261 0 min 0,000 mm 0,0 UV-I 0 W/m 6,5 C 7,9 C 6,4 km/h (2 Bft) 100,00 %
05.04.2017 02:02 7,9 C 91 % 1021,2 hPa 0,0 l/m 4,4 km/h (1 Bft) W 261 0 min 0,000 mm 0,0 UV-I 0 W/m 6,5 C 7,9 C 6,4 km/h (2 Bft) 94,00 %
05.04.2017 02:04 7,9 C 91 % 1021,3 hPa 0,0 l/m 4,3 km/h (1 Bft) W-SW 254 0 min 0,000 mm 0,0 UV-I 0 W/m 6,5 C 7,9 C 6,4 km/h (2 Bft) 96,00 %
05.04.2017 02:06 7,9 C 91 % 1021,2 hPa 0,0 l/m 3,5 km/h (1 Bft) W-SW 255 0 min 0,000 mm 0,0 UV-I 0 W/m 6,5 C 7,9 C 6,4 km/h (2 Bft) 95,74 %
05.04.2017 02:08 7,9 C 91 % 1021,2 hPa 0,0 l/m 3,6 km/h (1 Bft) W-SW 244 0 min 0,000 mm 0,0 UV-I 0 W/m 6,5 C 7,9 C 6,4 km/h (2 Bft) 97,73 %
05.04.2017 02:10 7,9 C 91 % 1021,2 hPa 0,0 l/m 3,4 km/h (1 Bft) SW 232 0 min 0,000 mm 0,0 UV-I 0 W/m 6,5 C 7,9 C 6,4 km/h (2 Bft) 96,00 %
05.04.2017 02:12 7,9 C 91 % 1021,2 hPa 0,0 l/m 3,3 km/h (1 Bft) SW 232 0 min 0,000 mm 0,0 UV-I 0 W/m 6,5 C 7,9 C 4,8 km/h (1 Bft) 95,56 %
05.04.2017 02:14 7,9 C 91 % 1021,2 hPa 0,0 l/m 3,2 km/h (1 Bft) SW 232 0 min 0,000 mm 0,0 UV-I 0 W/m 6,5 C 7,9 C 4,8 km/h (1 Bft) 98,18 %
05.04.2017 02:16 7,9 C 91 % 1021,2 hPa 0,0 l/m 4,3 km/h (1 Bft) SW 232 0 min 0,000 mm 0,0 UV-I 0 W/m 6,5 C 7,9 C 6,4 km/h (2 Bft) 100,00 %
05.04.2017 02:18 7,9 C 92 % 1021,2 hPa 0,0 l/m 5,5 km/h (1 Bft) SW 229 0 min 0,000 mm 0,0 UV-I 0 W/m 6,7 C 7,9 C 8,0 km/h (2 Bft) 100,00 %
05.04.2017 02:20 7,9 C 92 % 1021,2 hPa 0,0 l/m 7,1 km/h (2 Bft) SW 236 0 min 0,000 mm 0,0 UV-I 0 W/m 6,7 C 7,3 C 11,3 km/h (2 Bft) 100,00 %
05.04.2017 02:22 7,9 C 92 % 1021,2 hPa 0,0 l/m 6,1 km/h (2 Bft) SW 227 0 min 0,000 mm 0,0 UV-I 0 W/m 6,7 C 7,9 C 9,7 km/h (2 Bft) 100,00 %
05.04.2017 02:24 7,9 C 92 % 1021,1 hPa 0,0 l/m 6,0 km/h (2 Bft) W-SW 238 0 min 0,000 mm 0,0 UV-I 0 W/m 6,7 C 7,9 C 9,7 km/h (2 Bft) 100,00 %
05.04.2017 02:26 7,9 C 92 % 1021,1 hPa 0,0 l/m 5,8 km/h (2 Bft) SW 228 0 min 0,000 mm 0,0 UV-I 0 W/m 6,7 C 7,9 C 9,7 km/h (2 Bft) 96,15 %
05.04.2017 02:28 7,8 C 92 % 1021,1 hPa 0,0 l/m 5,1 km/h (1 Bft) SW 234 0 min 0,000 mm 0,0 UV-I 0 W/m 6,6 C 7,8 C 8,0 km/h (2 Bft) 96,43 %
05.04.2017 02:30 7,8 C 92 % 1021,1 hPa 0,0 l/m 4,4 km/h (1 Bft) W 266 0 min 0,000 mm 0,0 UV-I 0 W/m 6,6 C 7,8 C 6,4 km/h (2 Bft) 98,11 %
05.04.2017 02:32 7,8 C 92 % 1021,1 hPa 0,0 l/m 4,7 km/h (1 Bft) W 260 0 min 0,000 mm 0,0 UV-I 0 W/m 6,6 C 7,8 C 6,4 km/h (2 Bft) 97,56 %
05.04.2017 02:34 7,8 C 92 % 1021,1 hPa 0,0 l/m 5,4 km/h (1 Bft) W 263 0 min 0,000 mm 0,0 UV-I 0 W/m 6,6 C 7,8 C 8,0 km/h (2 Bft) 98,00 %
05.04.2017 02:36 7,8 C 92 % 1021,1 hPa 0,0 l/m 3,0 km/h (1 Bft) W 261 0 min 0,000 mm 0,0 UV-I 0 W/m 6,6 C 7,8 C 4,8 km/h (1 Bft) 95,12 %
05.04.2017 02:38 7,8 C 92 % 1021,2 hPa 0,0 l/m 2,0 km/h (1 Bft) W 261 0 min 0,000 mm 0,0 UV-I 0 W/m 6,6 C 7,8 C 4,8 km/h (1 Bft) 94,74 %
05.04.2017 02:40 7,8 C 92 % 1021,2 hPa 0,0 l/m 0,0 km/h (0 Bft) W 261 0 min 0,000 mm 0,0 UV-I 0 W/m 6,6 C 7,8 C 0,0 km/h (0 Bft) 98,46 %
05.04.2017 02:42 7,8 C 92 % 1021,2 hPa 0,0 l/m 0,1 km/h (0 Bft) W 261 0 min 0,000 mm 0,0 UV-I 0 W/m 6,6 C 7,8 C 1,6 km/h (1 Bft) 95,12 %
05.04.2017 02:44 7,8 C 92 % 1021,1 hPa 0,0 l/m 2,6 km/h (1 Bft) W 261 0 min 0,000 mm 0,0 UV-I 0 W/m 6,6 C 7,8 C 4,8 km/h (1 Bft) 94,00 %
05.04.2017 02:46 7,8 C 92 % 1021,1 hPa 0,0 l/m 3,5 km/h (1 Bft) W 277 0 min 0,000 mm 0,0 UV-I 0 W/m 6,6 C 7,8 C 6,4 km/h (2 Bft) 100,00 %
05.04.2017 02:48 7,7 C 92 % 1021,1 hPa 0,0 l/m 5,1 km/h (1 Bft) W-SW 258 0 min 0,000 mm 0,0 UV-I 0 W/m 6,5 C 7,7 C 8,0 km/h (2 Bft) 97,87 %
05.04.2017 02:50 7,7 C 92 % 1021,1 hPa 0,0 l/m 5,7 km/h (1 Bft) W-SW 246 0 min 0,000 mm 0,0 UV-I 0 W/m 6,5 C 7,7 C 9,7 km/h (2 Bft) 100,00 %
05.04.2017 02:52 7,7 C 92 % 1021,1 hPa 0,0 l/m 5,0 km/h (1 Bft) W-SW 247 0 min 0,000 mm 0,0 UV-I 0 W/m 6,5 C 7,7 C 6,4 km/h (2 Bft) 94,23 %
05.04.2017 02:54 7,7 C 92 % 1021,1 hPa 0,0 l/m 4,2 km/h (1 Bft) W-SW 248 0 min 0,000 mm 0,0 UV-I 0 W/m 6,5 C 7,7 C 6,4 km/h (2 Bft) 100,00 %
05.04.2017 02:56 7,8 C 92 % 1021,1 hPa 0,0 l/m 4,5 km/h (1 Bft) W 263 0 min 0,000 mm 0,0 UV-I 0 W/m 6,6 C 7,8 C 6,4 km/h (2 Bft) 98,21 %
05.04.2017 02:58 7,8 C 92 % 1021,0 hPa 0,0 l/m 4,9 km/h (1 Bft) W-SW 256 0 min 0,000 mm 0,0 UV-I 0 W/m 6,6 C 7,8 C 6,4 km/h (2 Bft) 100,00 %
05.04.2017 03:00 7,7 C 92 % 1021,0 hPa 0,0 l/m 4,2 km/h (1 Bft) W-SW 257 0 min 0,000 mm 0,0 UV-I 0 W/m 6,5 C 7,7 C 6,4 km/h (2 Bft) 96,23 %
05.04.2017 03:02 7,8 C 92 % 1021,0 hPa 0,0 l/m 4,6 km/h (1 Bft) W-SW 257 0 min 0,000 mm 0,0 UV-I 0 W/m 6,6 C 7,8 C 6,4 km/h (2 Bft) 98,00 %
05.04.2017 03:04 7,8 C 92 % 1021,0 hPa 0,0 l/m 4,6 km/h (1 Bft) W-SW 257 0 min 0,000 mm 0,0 UV-I 0 W/m 6,6 C 7,8 C 6,4 km/h (2 Bft) 100,00 %
05.04.2017 03:06 7,7 C 92 % 1021,0 hPa 0,0 l/m 4,9 km/h (1 Bft) W-SW 252 0 min 0,000 mm 0,0 UV-I 0 W/m 6,5 C 7,7 C 9,7 km/h (2 Bft) 96,00 %
05.04.2017 03:08 7,7 C 92 % 1021,0 hPa 0,0 l/m 5,2 km/h (1 Bft) SW 234 0 min 0,000 mm 0,0 UV-I 0 W/m 6,5 C 7,7 C 8,0 km/h (2 Bft) 98,11 %
05.04.2017 03:10 7,7 C 92 % 1021,0 hPa 0,0 l/m 3,7 km/h (1 Bft) SW 235 0 min 0,000 mm 0,0 UV-I 0 W/m 6,5 C 7,7 C 6,4 km/h (2 Bft) 95,12 %
05.04.2017 03:12 7,7 C 92 % 1021,0 hPa 0,0 l/m 4,5 km/h (1 Bft) W 278 0 min 0,000 mm 0,0 UV-I 0 W/m 6,5 C 7,7 C 6,4 km/h (2 Bft) 98,11 %
05.04.2017 03:14 7,7 C 92 % 1020,9 hPa 0,0 l/m 4,9 km/h (1 Bft) W-SW 238 0 min 0,000 mm 0,0 UV-I 0 W/m 6,5 C 7,7 C 8,0 km/h (2 Bft) 92,68 %
05.04.2017 03:16 7,7 C 92 % 1020,9 hPa 0,0 l/m 4,2 km/h (1 Bft) W-SW 253 0 min 0,000 mm 0,0 UV-I 0 W/m 6,5 C 7,7 C 8,0 km/h (2 Bft) 94,34 %
05.04.2017 03:18 7,7 C 92 % 1020,8 hPa 0,0 l/m 5,6 km/h (1 Bft) W 261 0 min 0,000 mm 0,0 UV-I 0 W/m 6,5 C 7,7 C 8,0 km/h (2 Bft) 92,68 %
05.04.2017 03:20 7,8 C 92 % 1020,8 hPa 0,0 l/m 5,5 km/h (1 Bft) W-SW 244 0 min 0,000 mm 0,0 UV-I 0 W/m 6,6 C 7,8 C 9,7 km/h (2 Bft) 96,00 %
05.04.2017 03:22 7,7 C 92 % 1020,8 hPa 0,0 l/m 3,8 km/h (1 Bft) W-SW 255 0 min 0,000 mm 0,0 UV-I 0 W/m 6,5 C 7,7 C 6,4 km/h (2 Bft) 90,24 %
05.04.2017 03:24 7,7 C 92 % 1020,8 hPa 0,0 l/m 4,0 km/h (1 Bft) W-SW 254 0 min 0,000 mm 0,0 UV-I 0 W/m 6,5 C 7,7 C 6,4 km/h (2 Bft) 93,62 %
05.04.2017 03:26 7,7 C 92 % 1020,7 hPa 0,0 l/m 4,7 km/h (1 Bft) W-SW 248 0 min 0,000 mm 0,0 UV-I 0 W/m 6,5 C 7,7 C 6,4 km/h (2 Bft) 92,31 %
05.04.2017 03:28 7,7 C 92 % 1020,7 hPa 0,0 l/m 5,1 km/h (1 Bft) W-SW 253 0 min 0,000 mm 0,0 UV-I 0 W/m 6,5 C 7,7 C 6,4 km/h (2 Bft) 92,45 %
05.04.2017 03:30 7,7 C 92 % 1020,7 hPa 0,0 l/m 4,8 km/h (1 Bft) W 261 0 min 0,000 mm 0,0 UV-I 0 W/m 6,5 C 7,7 C 6,4 km/h (2 Bft) 92,00 %
05.04.2017 03:32 7,7 C 92 % 1020,7 hPa 0,0 l/m 6,9 km/h (2 Bft) W-SW 257 0 min 0,000 mm 0,0 UV-I 0 W/m 6,5 C 7,3 C 11,3 km/h (2 Bft) 94,55 %
05.04.2017 03:34 7,7 C 92 % 1020,7 hPa 0,0 l/m 8,5 km/h (2 Bft) W 265 0 min 0,000 mm 0,0 UV-I 0 W/m 6,5 C 6,1 C 11,3 km/h (2 Bft) 94,44 %
05.04.2017 03:36 7,7 C 92 % 1020,7 hPa 0,0 l/m 7,6 km/h (2 Bft) W-SW 256 0 min 0,000 mm 0,0 UV-I 0 W/m 6,5 C 6,7 C 12,9 km/h (3 Bft) 94,34 %
05.04.2017 03:38 7,7 C 92 % 1020,7 hPa 0,0 l/m 6,4 km/h (2 Bft) W-SW 258 0 min 0,000 mm 0,0 UV-I 0 W/m 6,5 C 7,7 C 9,7 km/h (2 Bft) 92,45 %
05.04.2017 03:40 7,7 C 92 % 1020,7 hPa 0,0 l/m 7,9 km/h (2 Bft) W-SW 248 0 min 0,000 mm 0,0 UV-I 0 W/m 6,5 C 6,5 C 11,3 km/h (2 Bft) 89,47 %
05.04.2017 03:42 7,7 C 92 % 1020,7 hPa 0,0 l/m 6,9 km/h (2 Bft) W-SW 247 0 min 0,000 mm 0,0 UV-I 0 W/m 6,5 C 7,3 C 12,9 km/h (3 Bft) 96,23 %
05.04.2017 03:44 7,7 C 92 % 1020,7 hPa 0,0 l/m 4,8 km/h (1 Bft) W 276 0 min 0,000 mm 0,0 UV-I 0 W/m 6,5 C 7,7 C 6,4 km/h (2 Bft) 90,24 %
05.04.2017 03:46 7,7 C 92 % 1020,7 hPa 0,0 l/m 6,8 km/h (2 Bft) W-SW 256 0 min 0,000 mm 0,0 UV-I 0 W/m 6,5 C 7,4 C 11,3 km/h (2 Bft) 92,00 %
05.04.2017 03:48 7,7 C 92 % 1020,7 hPa 0,0 l/m 5,6 km/h (1 Bft) W 273 0 min 0,000 mm 0,0 UV-I 0 W/m 6,5 C 7,7 C 9,7 km/h (2 Bft) 94,00 %
05.04.2017 03:50 7,7 C 92 % 1020,7 hPa 0,0 l/m 5,8 km/h (2 Bft) W-SW 238 0 min 0,000 mm 0,0 UV-I 0 W/m 6,5 C 7,7 C 9,7 km/h (2 Bft) 95,12 %
05.04.2017 03:52 7,7 C 92 % 1020,7 hPa 0,0 l/m 6,0 km/h (2 Bft) W-SW 252 0 min 0,000 mm 0,0 UV-I 0 W/m 6,5 C 7,7 C 9,7 km/h (2 Bft) 98,00 %
05.04.2017 03:54 7,7 C 92 % 1020,6 hPa 0,0 l/m 5,9 km/h (2 Bft) W-SW 240 0 min 0,000 mm 0,0 UV-I 0 W/m 6,5 C 7,7 C 8,0 km/h (2 Bft) 95,24 %
05.04.2017 03:56 7,7 C 92 % 1020,7 hPa 0,0 l/m 5,6 km/h (1 Bft) W-SW 246 0 min 0,000 mm 0,0 UV-I 0 W/m 6,5 C 7,7 C 6,4 km/h (2 Bft) 98,11 %
05.04.2017 03:58 7,7 C 92 % 1020,6 hPa 0,0 l/m 5,2 km/h (1 Bft) W-SW 248 0 min 0,000 mm 0,0 UV-I 0 W/m 6,5 C 7,7 C 8,0 km/h (2 Bft) 96,00 %
05.04.2017 04:00 7,7 C 92 % 1020,6 hPa 0,0 l/m 6,8 km/h (2 Bft) W-SW 257 0 min 0,000 mm 0,0 UV-I 0 W/m 6,5 C 7,4 C 11,3 km/h (2 Bft) 94,74 %
05.04.2017 04:02 7,7 C 92 % 1020,6 hPa 0,0 l/m 6,5 km/h (2 Bft) W-SW 252 0 min 0,000 mm 0,0 UV-I 0 W/m 6,5 C 7,6 C 8,0 km/h (2 Bft) 100,00 %
05.04.2017 04:04 7,7 C 92 % 1020,6 hPa 0,0 l/m 5,5 km/h (1 Bft) W-SW 243 0 min 0,000 mm 0,0 UV-I 0 W/m 6,5 C 7,7 C 8,0 km/h (2 Bft) 95,74 %
05.04.2017 04:06 7,7 C 92 % 1020,5 hPa 0,0 l/m 4,9 km/h (1 Bft) W-SW 252 0 min 0,000 mm 0,0 UV-I 0 W/m 6,5 C 7,7 C 6,4 km/h (2 Bft) 96,00 %
05.04.2017 04:08 7,7 C 92 % 1020,5 hPa 0,0 l/m 5,8 km/h (2 Bft) W-SW 248 0 min 0,000 mm 0,0 UV-I 0 W/m 6,5 C 7,7 C 9,7 km/h (2 Bft) 94,00 %
05.04.2017 04:10 7,7 C 92 % 1020,4 hPa 0,0 l/m 8,4 km/h (2 Bft) W 277 0 min 0,000 mm 0,0 UV-I 0 W/m 6,5 C 6,1 C 11,3 km/h (2 Bft) 97,73 %
05.04.2017 04:12 7,7 C 92 % 1020,4 hPa 0,0 l/m 8,6 km/h (2 Bft) W 262 0 min 0,000 mm 0,0 UV-I 0 W/m 6,5 C 6,0 C 14,5 km/h (3 Bft) 97,44 %
05.04.2017 04:14 7,7 C 92 % 1020,4 hPa 0,0 l/m 7,9 km/h (2 Bft) W-SW 252 0 min 0,000 mm 0,0 UV-I 0 W/m 6,5 C 6,5 C 12,9 km/h (3 Bft) 98,21 %
05.04.2017 04:16 7,6 C 92 % 1020,4 hPa 0,0 l/m 6,4 km/h (2 Bft) W 269 0 min 0,000 mm 0,0 UV-I 0 W/m 6,4 C 7,6 C 12,9 km/h (3 Bft) 100,00 %
05.04.2017 04:18 7,6 C 92 % 1020,5 hPa 0,0 l/m 6,1 km/h (2 Bft) W-SW 256 0 min 0,000 mm 0,0 UV-I 0 W/m 6,4 C 7,6 C 11,3 km/h (2 Bft) 98,00 %
05.04.2017 04:20 7,6 C 92 % 1020,4 hPa 0,0 l/m 6,5 km/h (2 Bft) W 273 0 min 0,000 mm 0,0 UV-I 0 W/m 6,4 C 7,5 C 9,7 km/h (2 Bft) 100,00 %
05.04.2017 04:22 7,6 C 92 % 1020,4 hPa 0,0 l/m 8,8 km/h (2 Bft) SW 228 0 min 0,000 mm 0,0 UV-I 0 W/m 6,4 C 5,7 C 12,9 km/h (3 Bft) 100,00 %
05.04.2017 04:24 7,5 C 92 % 1020,3 hPa 0,0 l/m 10,2 km/h (2 Bft) W 262 0 min 0,000 mm 0,0 UV-I 0 W/m 6,3 C 4,7 C 14,5 km/h (3 Bft) 100,00 %
05.04.2017 04:26 7,5 C 92 % 1020,3 hPa 0,0 l/m 11,5 km/h (2 Bft) W 260 0 min 0,000 mm 0,0 UV-I 0 W/m 6,3 C 3,9 C 14,5 km/h (3 Bft) 100,00 %
05.04.2017 04:28 7,5 C 92 % 1020,3 hPa 0,0 l/m 10,7 km/h (2 Bft) W 261 0 min 0,000 mm 0,0 UV-I 0 W/m 6,3 C 4,4 C 14,5 km/h (3 Bft) 98,00 %
05.04.2017 04:30 7,4 C 92 % 1020,3 hPa 0,0 l/m 10,9 km/h (2 Bft) W-SW 240 0 min 0,000 mm 0,0 UV-I 0 W/m 6,2 C 4,2 C 14,5 km/h (3 Bft) 93,62 %
05.04.2017 04:32 7,4 C 92 % 1020,3 hPa 0,0 l/m 9,0 km/h (2 Bft) SW 227 0 min 0,000 mm 0,0 UV-I 0 W/m 6,2 C 5,4 C 16,1 km/h (3 Bft) 100,00 %
05.04.2017 04:34 7,4 C 92 % 1020,3 hPa 0,0 l/m 8,6 km/h (2 Bft) W-SW 245 0 min 0,000 mm 0,0 UV-I 0 W/m 6,2 C 5,7 C 14,5 km/h (3 Bft) 97,73 %
05.04.2017 04:36 7,4 C 92 % 1020,3 hPa 0,0 l/m 6,8 km/h (2 Bft) W-SW 242 0 min 0,000 mm 0,0 UV-I 0 W/m 6,2 C 7,1 C 11,3 km/h (2 Bft) 98,31 %
05.04.2017 04:38 7,4 C 92 % 1020,3 hPa 0,0 l/m 8,4 km/h (2 Bft) W-SW 248 0 min 0,000 mm 0,0 UV-I 0 W/m 6,2 C 5,8 C 12,9 km/h (3 Bft) 100,00 %
05.04.2017 04:40 7,4 C 92 % 1020,3 hPa 0,0 l/m 7,7 km/h (2 Bft) W-SW 238 0 min 0,000 mm 0,0 UV-I 0 W/m 6,2 C 6,4 C 11,3 km/h (2 Bft) 100,00 %
05.04.2017 04:42 7,4 C 92 % 1020,3 hPa 0,0 l/m 5,5 km/h (1 Bft) SW 223 0 min 0,000 mm 0,0 UV-I 0 W/m 6,2 C 7,4 C 8,0 km/h (2 Bft) 100,00 %
05.04.2017 04:44 7,4 C 92 % 1020,3 hPa 0,0 l/m 6,8 km/h (2 Bft) S-SW 207 0 min 0,000 mm 0,0 UV-I 0 W/m 6,2 C 7,1 C 11,3 km/h (2 Bft) 100,00 %
05.04.2017 04:46 7,4 C 92 % 1020,2 hPa 0,0 l/m 6,5 km/h (2 Bft) SW 236 0 min 0,000 mm 0,0 UV-I 0 W/m 6,2 C 7,3 C 11,3 km/h (2 Bft) 100,00 %
05.04.2017 04:48 7,4 C 92 % 1020,2 hPa 0,0 l/m 5,9 km/h (2 Bft) SW 235 0 min 0,000 mm 0,0 UV-I 0 W/m 6,2 C 7,4 C 8,0 km/h (2 Bft) 100,00 %
05.04.2017 04:50 7,4 C 92 % 1020,3 hPa 0,0 l/m 6,4 km/h (2 Bft) W-SW 252 0 min 0,000 mm 0,0 UV-I 0 W/m 6,2 C 7,4 C 9,7 km/h (2 Bft) 98,08 %
05.04.2017 04:52 7,4 C 92 % 1020,3 hPa 0,0 l/m 4,7 km/h (1 Bft) W-SW 252 0 min 0,000 mm 0,0 UV-I 0 W/m 6,2 C 7,4 C 9,7 km/h (2 Bft) 97,92 %
05.04.2017 04:54 7,4 C 92 % 1020,4 hPa 0,0 l/m 4,3 km/h (1 Bft) SW 229 0 min 0,000 mm 0,0 UV-I 0 W/m 6,2 C 7,4 C 6,4 km/h (2 Bft) 100,00 %
05.04.2017 04:56 7,4 C 92 % 1020,4 hPa 0,0 l/m 5,2 km/h (1 Bft) SW 229 0 min 0,000 mm 0,0 UV-I 0 W/m 6,2 C 7,4 C 8,0 km/h (2 Bft) 100,00 %
05.04.2017 04:58 7,4 C 92 % 1020,4 hPa 0,0 l/m 4,1 km/h (1 Bft) W-SW 252 0 min 0,000 mm 0,0 UV-I 0 W/m 6,2 C 7,4 C 9,7 km/h (2 Bft) 98,00 %
05.04.2017 05:00 7,4 C 92 % 1020,4 hPa 0,0 l/m 4,0 km/h (1 Bft) W-SW 252 0 min 0,000 mm 0,0 UV-I 0 W/m 6,2 C 7,4 C 6,4 km/h (2 Bft) 97,37 %
05.04.2017 05:02 7,4 C 92 % 1020,4 hPa 0,0 l/m 2,8 km/h (1 Bft) W-SW 252 0 min 0,000 mm 0,0 UV-I 0 W/m 6,2 C 7,4 C 4,8 km/h (1 Bft) 100,00 %
05.04.2017 05:04 7,4 C 92 % 1020,3 hPa 0,0 l/m 3,7 km/h (1 Bft) W-SW 254 0 min 0,000 mm 0,0 UV-I 0 W/m 6,2 C 7,4 C 4,8 km/h (1 Bft) 96,23 %
05.04.2017 05:06 7,4 C 92 % 1020,2 hPa 0,0 l/m 4,8 km/h (1 Bft) W-SW 247 0 min 0,000 mm 0,0 UV-I 0 W/m 6,2 C 7,4 C 6,4 km/h (2 Bft) 100,00 %
05.04.2017 05:08 7,4 C 92 % 1020,2 hPa 0,0 l/m 5,6 km/h (1 Bft) SW 234 0 min 0,000 mm 0,0 UV-I 0 W/m 6,2 C 7,4 C 8,0 km/h (2 Bft) 94,64 %
05.04.2017 05:10 7,4 C 92 % 1020,2 hPa 0,0 l/m 5,9 km/h (2 Bft) W-SW 257 0 min 0,000 mm 0,0 UV-I 0 W/m 6,2 C 7,4 C 8,0 km/h (2 Bft) 97,56 %
05.04.2017 05:12 7,4 C 92 % 1020,2 hPa 0,0 l/m 4,6 km/h (1 Bft) W-SW 245 0 min 0,000 mm 0,0 UV-I 0 W/m 6,2 C 7,4 C 8,0 km/h (2 Bft) 100,00 %
05.04.2017 05:14 7,4 C 92 % 1020,2 hPa 0,0 l/m 5,2 km/h (1 Bft) W 262 0 min 0,000 mm 0,0 UV-I 0 W/m 6,2 C 7,4 C 8,0 km/h (2 Bft) 97,56 %
05.04.2017 05:16 7,4 C 92 % 1020,3 hPa 0,0 l/m 4,9 km/h (1 Bft) SW 219 0 min 0,000 mm 0,0 UV-I 0 W/m 6,2 C 7,4 C 6,4 km/h (2 Bft) 95,16 %
05.04.2017 05:18 7,4 C 92 % 1020,3 hPa 0,0 l/m 5,7 km/h (1 Bft) SW 227 0 min 0,000 mm 0,0 UV-I 0 W/m 6,2 C 7,4 C 8,0 km/h (2 Bft) 94,74 %
05.04.2017 05:20 7,4 C 92 % 1020,3 hPa 0,0 l/m 5,3 km/h (1 Bft) S-SW 209 0 min 0,000 mm 0,0 UV-I 0 W/m 6,2 C 7,4 C 8,0 km/h (2 Bft) 96,23 %
05.04.2017 05:22 7,4 C 92 % 1020,3 hPa 0,0 l/m 5,3 km/h (1 Bft) SW 229 0 min 0,000 mm 0,0 UV-I 0 W/m 6,2 C 7,4 C 6,4 km/h (2 Bft) 97,87 %
05.04.2017 05:24 7,4 C 92 % 1020,3 hPa 0,0 l/m 5,3 km/h (1 Bft) SW 229 0 min 0,000 mm 0,0 UV-I 0 W/m 6,2 C 7,4 C 8,0 km/h (2 Bft) 95,12 %
05.04.2017 05:26 7,4 C 92 % 1020,4 hPa 0,0 l/m 5,4 km/h (1 Bft) SW 236 0 min 0,000 mm 0,0 UV-I 0 W/m 6,2 C 7,4 C 6,4 km/h (2 Bft) 94,34 %
05.04.2017 05:28 7,4 C 92 % 1020,3 hPa 0,0 l/m 5,4 km/h (1 Bft) W-SW 240 0 min 0,000 mm 0,0 UV-I 0 W/m 6,2 C 7,4 C 8,0 km/h (2 Bft) 97,44 %
05.04.2017 05:30 7,4 C 91 % 1020,4 hPa 0,0 l/m 4,7 km/h (1 Bft) W-SW 242 0 min 0,000 mm 0,0 UV-I 0 W/m 6,0 C 7,4 C 6,4 km/h (2 Bft) 96,36 %
05.04.2017 05:32 7,4 C 91 % 1020,4 hPa 0,0 l/m 4,6 km/h (1 Bft) W-SW 254 0 min 0,000 mm 0,0 UV-I 0 W/m 6,0 C 7,4 C 6,4 km/h (2 Bft) 100,00 %
05.04.2017 05:34 7,4 C 91 % 1020,4 hPa 0,0 l/m 5,1 km/h (1 Bft) SW 235 0 min 0,000 mm 0,0 UV-I 0 W/m 6,0 C 7,4 C 8,0 km/h (2 Bft) 96,00 %
05.04.2017 05:36 7,4 C 91 % 1020,4 hPa 0,0 l/m 4,5 km/h (1 Bft) W-SW 245 0 min 0,000 mm 0,0 UV-I 0 W/m 6,0 C 7,4 C 8,0 km/h (2 Bft) 98,21 %
05.04.2017 05:38 7,4 C 92 % 1020,4 hPa 0,0 l/m 5,1 km/h (1 Bft) W-SW 248 0 min 0,000 mm 0,0 UV-I 0 W/m 6,2 C 7,4 C 6,4 km/h (2 Bft) 90,24 %
05.04.2017 05:40 7,4 C 92 % 1020,3 hPa 0,0 l/m 4,6 km/h (1 Bft) W-SW 248 0 min 0,000 mm 0,0 UV-I 0 W/m 6,2 C 7,4 C 6,4 km/h (2 Bft) 93,18 %
05.04.2017 05:42 7,4 C 92 % 1020,3 hPa 0,0 l/m 4,0 km/h (1 Bft) W-SW 248 0 min 0,000 mm 0,0 UV-I 0 W/m 6,2 C 7,4 C 4,8 km/h (1 Bft) 96,43 %
05.04.2017 05:44 7,4 C 92 % 1020,3 hPa 0,0 l/m 4,7 km/h (1 Bft) W-SW 248 0 min 0,000 mm 0,0 UV-I 0 W/m 6,2 C 7,4 C 6,4 km/h (2 Bft) 97,14 %
05.04.2017 05:46 7,4 C 92 % 1020,3 hPa 0,0 l/m 5,1 km/h (1 Bft) W-SW 241 0 min 0,000 mm 0,0 UV-I 0 W/m 6,2 C 7,4 C 8,0 km/h (2 Bft) 95,74 %
05.04.2017 05:48 7,4 C 92 % 1020,3 hPa 0,0 l/m 5,1 km/h (1 Bft) W 262 0 min 0,000 mm 0,0 UV-I 0 W/m 6,2 C 7,4 C 8,0 km/h (2 Bft) 95,74 %
05.04.2017 05:50 7,4 C 92 % 1020,2 hPa 0,0 l/m 5,7 km/h (1 Bft) W-SW 249 0 min 0,000 mm 0,0 UV-I 0 W/m 6,2 C 7,4 C 9,7 km/h (2 Bft) 87,23 %
05.04.2017 05:52 7,4 C 92 % 1020,1 hPa 0,0 l/m 4,6 km/h (1 Bft) SW 234 0 min 0,000 mm 0,0 UV-I 0 W/m 6,2 C 7,4 C 6,4 km/h (2 Bft) 97,87 %
05.04.2017 05:54 7,4 C 92 % 1020,2 hPa 0,0 l/m 5,4 km/h (1 Bft) W-SW 246 0 min 0,000 mm 0,0 UV-I 0 W/m 6,2 C 7,4 C 8,0 km/h (2 Bft) 96,23 %
05.04.2017 05:56 7,3 C 92 % 1020,1 hPa 0,0 l/m 5,7 km/h (1 Bft) SW 229 0 min 0,000 mm 0,0 UV-I 0 W/m 6,1 C 7,3 C 9,7 km/h (2 Bft) 100,00 %
05.04.2017 05:58 7,3 C 92 % 1020,1 hPa 0,0 l/m 6,5 km/h (2 Bft) W-SW 238 0 min 0,000 mm 0,0 UV-I 0 W/m 6,1 C 7,2 C 9,7 km/h (2 Bft) 100,00 %
05.04.2017 06:00 7,3 C 92 % 1020,0 hPa 0,0 l/m 6,1 km/h (2 Bft) W-SW 247 0 min 0,000 mm 0,0 UV-I 0 W/m 6,1 C 7,3 C 11,3 km/h (2 Bft) 97,37 %
05.04.2017 06:02 7,3 C 92 % 1020,0 hPa 0,0 l/m 6,1 km/h (2 Bft) SW 219 0 min 0,000 mm 0,0 UV-I 0 W/m 6,1 C 7,3 C 11,3 km/h (2 Bft) 96,00 %
05.04.2017 06:04 7,2 C 92 % 1020,0 hPa 0,0 l/m 6,1 km/h (2 Bft) S-SW 212 0 min 0,000 mm 0,0 UV-I 0 W/m 6,0 C 7,2 C 8,0 km/h (2 Bft) 96,00 %
05.04.2017 06:06 7,2 C 92 % 1020,0 hPa 0,0 l/m 8,0 km/h (2 Bft) SW 230 0 min 0,000 mm 0,0 UV-I 0 W/m 6,0 C 5,9 C 11,3 km/h (2 Bft) 98,00 %
05.04.2017 06:08 7,2 C 91 % 1020,0 hPa 0,0 l/m 6,5 km/h (2 Bft) SW 232 0 min 0,000 mm 0,0 UV-I 0 W/m 5,8 C 7,1 C 9,7 km/h (2 Bft) 92,68 %
05.04.2017 06:10 7,2 C 91 % 1019,9 hPa 0,0 l/m 7,9 km/h (2 Bft) W-SW 246 0 min 0,000 mm 0,0 UV-I 0 W/m 5,8 C 6,0 C 11,3 km/h (2 Bft) 96,00 %
05.04.2017 06:12 7,1 C 92 % 1019,9 hPa 0,0 l/m 7,7 km/h (2 Bft) W-SW 250 0 min 0,000 mm 0,0 UV-I 0 W/m 5,9 C 6,0 C 14,5 km/h (3 Bft) 97,44 %
05.04.2017 06:14 7,1 C 92 % 1019,9 hPa 0,0 l/m 9,0 km/h (2 Bft) W-SW 248 0 min 0,000 mm 0,0 UV-I 0 W/m 5,9 C 5,1 C 14,5 km/h (3 Bft) 96,43 %
05.04.2017 06:16 7,1 C 92 % 1019,8 hPa 0,0 l/m 9,0 km/h (2 Bft) W-SW 242 0 min 0,000 mm 0,0 UV-I 0 W/m 5,9 C 5,1 C 12,9 km/h (3 Bft) 100,00 %
05.04.2017 06:18 7,1 C 92 % 1019,8 hPa 0,0 l/m 9,0 km/h (2 Bft) W 271 0 min 0,000 mm 0,0 UV-I 0 W/m 5,9 C 5,1 C 12,9 km/h (3 Bft) 97,73 %
05.04.2017 06:20 7,0 C 92 % 1019,8 hPa 0,0 l/m 8,8 km/h (2 Bft) SW 232 0 min 0,000 mm 0,0 UV-I 0 W/m 5,8 C 5,1 C 14,5 km/h (3 Bft) 100,00 %
05.04.2017 06:22 7,0 C 92 % 1019,8 hPa 0,0 l/m 9,6 km/h (2 Bft) SW 221 0 min 0,000 mm 0,0 UV-I 0 W/m 5,8 C 4,5 C 14,5 km/h (3 Bft) 100,00 %
05.04.2017 06:24 7,0 C 92 % 1019,9 hPa 0,0 l/m 6,7 km/h (2 Bft) W-SW 248 0 min 0,000 mm 0,0 UV-I 0 W/m 5,8 C 6,8 C 9,7 km/h (2 Bft) 100,00 %
05.04.2017 06:26 6,9 C 92 % 1019,9 hPa 0,0 l/m 6,0 km/h (2 Bft) SW 233 0 min 0,000 mm 0,0 UV-I 1 W/m 5,7 C 6,9 C 9,7 km/h (2 Bft) 95,45 %
05.04.2017 06:28 6,9 C 92 % 1019,9 hPa 0,0 l/m 9,0 km/h (2 Bft) W-SW 253 0 min 0,000 mm 0,0 UV-I 5 W/m 5,7 C 4,9 C 12,9 km/h (3 Bft) 98,11 %
05.04.2017 06:30 6,9 C 92 % 1020,0 hPa 0,0 l/m 7,6 km/h (2 Bft) SW 217 0 min 0,000 mm 0,0 UV-I 5 W/m 5,7 C 5,9 C 11,3 km/h (2 Bft) 92,11 %
05.04.2017 06:32 6,9 C 93 % 1020,0 hPa 0,0 l/m 7,0 km/h (2 Bft) SW 223 0 min 0,000 mm 0,0 UV-I 5 W/m 5,8 C 6,4 C 11,3 km/h (2 Bft) 98,00 %
05.04.2017 06:34 6,9 C 93 % 1020,1 hPa 0,0 l/m 6,8 km/h (2 Bft) W-SW 242 0 min 0,000 mm 0,0 UV-I 6 W/m 5,8 C 6,6 C 12,9 km/h (3 Bft) 90,24 %
05.04.2017 06:36 6,9 C 93 % 1020,1 hPa 0,0 l/m 6,7 km/h (2 Bft) W 271 0 min 0,000 mm 0,0 UV-I 7 W/m 5,8 C 6,7 C 11,3 km/h (2 Bft) 96,43 %
05.04.2017 06:38 7,0 C 93 % 1020,1 hPa 0,0 l/m 5,5 km/h (1 Bft) W-SW 244 0 min 0,000 mm 0,0 UV-I 7 W/m 5,9 C 7,0 C 8,0 km/h (2 Bft) 100,00 %
05.04.2017 06:40 7,0 C 93 % 1020,1 hPa 0,0 l/m 6,2 km/h (2 Bft) W-SW 240 0 min 0,000 mm 0,0 UV-I 8 W/m 5,9 C 7,0 C 8,0 km/h (2 Bft) 95,71 %
05.04.2017 06:42 7,0 C 93 % 1020,3 hPa 0,0 l/m 5,6 km/h (1 Bft) SW 232 0 min 0,000 mm 0,0 UV-I 10 W/m 5,9 C 7,0 C 8,0 km/h (2 Bft) 94,74 %
05.04.2017 06:44 7,0 C 93 % 1020,2 hPa 0,0 l/m 4,7 km/h (1 Bft) W-SW 242 2 min 0,000 mm 0,0 UV-I 11 W/m 5,9 C 7,0 C 6,4 km/h (2 Bft) 97,92 %
05.04.2017 06:46 7,0 C 93 % 1020,3 hPa 0,0 l/m 4,1 km/h (1 Bft) W-SW 248 0 min 0,000 mm 0,0 UV-I 11 W/m 5,9 C 7,0 C 6,4 km/h (2 Bft) 95,92 %
05.04.2017 06:48 7,0 C 93 % 1020,3 hPa 0,0 l/m 4,5 km/h (1 Bft) W-SW 244 0 min 0,000 mm 0,0 UV-I 11 W/m 5,9 C 7,0 C 6,4 km/h (2 Bft) 97,92 %
05.04.2017 06:50 6,9 C 93 % 1020,3 hPa 0,0 l/m 5,1 km/h (1 Bft) W-SW 255 0 min 0,000 mm 0,0 UV-I 12 W/m 5,8 C 6,9 C 8,0 km/h (2 Bft) 96,15 %
05.04.2017 06:52 7,0 C 93 % 1020,3 hPa 0,0 l/m 4,8 km/h (1 Bft) W-SW 252 0 min 0,000 mm 0,0 UV-I 12 W/m 5,9 C 7,0 C 6,4 km/h (2 Bft) 90,48 %
05.04.2017 06:54 7,0 C 93 % 1020,3 hPa 0,0 l/m 4,5 km/h (1 Bft) W-SW 252 0 min 0,000 mm 0,0 UV-I 14 W/m 5,9 C 7,0 C 6,4 km/h (2 Bft) 94,34 %
05.04.2017 06:56 7,0 C 93 % 1020,3 hPa 0,0 l/m 5,1 km/h (1 Bft) W-SW 254 0 min 0,000 mm 0,0 UV-I 14 W/m 5,9 C 7,0 C 8,0 km/h (2 Bft) 97,56 %
05.04.2017 06:58 7,1 C 93 % 1020,3 hPa 0,0 l/m 5,5 km/h (1 Bft) W-SW 254 0 min 0,000 mm 0,0 UV-I 16 W/m 6,0 C 7,1 C 8,0 km/h (2 Bft) 94,00 %
05.04.2017 07:00 7,1 C 93 % 1020,3 hPa 0,0 l/m 5,8 km/h (2 Bft) W-SW 254 0 min 0,000 mm 0,0 UV-I 16 W/m 6,0 C 7,1 C 8,0 km/h (2 Bft) 97,56 %
05.04.2017 07:02 7,1 C 93 % 1020,4 hPa 0,0 l/m 6,4 km/h (2 Bft) W 280 0 min 0,000 mm 0,0 UV-I 18 W/m 6,0 C 7,1 C 12,9 km/h (3 Bft) 89,36 %
05.04.2017 07:04 7,1 C 93 % 1020,4 hPa 0,0 l/m 6,5 km/h (2 Bft) W-SW 250 0 min 0,000 mm 0,0 UV-I 19 W/m 6,0 C 7,0 C 11,3 km/h (2 Bft) 89,29 %
05.04.2017 07:06 7,1 C 93 % 1020,4 hPa 0,0 l/m 5,5 km/h (1 Bft) W 263 0 min 0,000 mm 0,0 UV-I 21 W/m 6,0 C 7,1 C 8,0 km/h (2 Bft) 91,43 %
05.04.2017 07:08 7,1 C 93 % 1020,4 hPa 0,0 l/m 4,9 km/h (1 Bft) W-SW 251 0 min 0,000 mm 0,0 UV-I 22 W/m 6,0 C 7,1 C 8,0 km/h (2 Bft) 96,43 %
05.04.2017 07:10 7,2 C 93 % 1020,5 hPa 0,0 l/m 2,6 km/h (1 Bft) W-SW 251 0 min 0,000 mm 0,0 UV-I 24 W/m 6,1 C 7,2 C 4,8 km/h (1 Bft) 95,12 %
05.04.2017 07:12 7,1 C 93 % 1020,5 hPa 0,0 l/m 4,0 km/h (1 Bft) W-SW 251 0 min 0,000 mm 0,0 UV-I 26 W/m 6,0 C 7,1 C 6,4 km/h (2 Bft) 90,00 %
05.04.2017 07:14 7,2 C 93 % 1020,5 hPa 0,0 l/m 3,9 km/h (1 Bft) W-SW 251 0 min 0,000 mm 0,0 UV-I 28 W/m 6,1 C 7,2 C 4,8 km/h (1 Bft) 96,00 %
05.04.2017 07:16 7,2 C 93 % 1020,5 hPa 0,0 l/m 4,6 km/h (1 Bft) W-SW 255 0 min 0,000 mm 0,0 UV-I 32 W/m 6,1 C 7,2 C 6,4 km/h (2 Bft) 93,62 %
05.04.2017 07:18 7,2 C 93 % 1020,5 hPa 0,0 l/m 5,9 km/h (2 Bft) W-SW 246 0 min 0,000 mm 0,0 UV-I 34 W/m 6,1 C 7,2 C 8,0 km/h (2 Bft) 93,18 %
05.04.2017 07:20 7,2 C 93 % 1020,5 hPa 0,0 l/m 6,0 km/h (2 Bft) W-SW 247 0 min 0,000 mm 0,0 UV-I 37 W/m 6,1 C 7,2 C 11,3 km/h (2 Bft) 92,00 %
05.04.2017 07:22 7,2 C 93 % 1020,6 hPa 0,0 l/m 6,4 km/h (2 Bft) W-SW 254 0 min 0,000 mm 0,0 UV-I 37 W/m 6,1 C 7,2 C 9,7 km/h (2 Bft) 92,11 %
05.04.2017 07:24 7,3 C 93 % 1020,6 hPa 0,0 l/m 5,0 km/h (1 Bft) W 273 0 min 0,000 mm 0,0 UV-I 37 W/m 6,2 C 7,3 C 6,4 km/h (2 Bft) 90,57 %
05.04.2017 07:26 7,3 C 93 % 1020,6 hPa 0,0 l/m 3,9 km/h (1 Bft) W 264 0 min 0,000 mm 0,0 UV-I 37 W/m 6,2 C 7,3 C 6,4 km/h (2 Bft) 92,59 %
05.04.2017 07:28 7,3 C 93 % 1020,6 hPa 0,0 l/m 3,0 km/h (1 Bft) W 264 0 min 0,000 mm 0,0 UV-I 38 W/m 6,2 C 7,3 C 4,8 km/h (1 Bft) 88,71 %
05.04.2017 07:30 7,3 C 93 % 1020,6 hPa 0,0 l/m 3,9 km/h (1 Bft) W 266 0 min 0,000 mm 0,0 UV-I 39 W/m 6,2 C 7,3 C 6,4 km/h (2 Bft) 94,00 %
05.04.2017 07:32 7,3 C 93 % 1020,7 hPa 0,0 l/m 4,8 km/h (1 Bft) W 268 0 min 0,000 mm 0,0 UV-I 39 W/m 6,2 C 7,3 C 9,7 km/h (2 Bft) 92,31 %
05.04.2017 07:34 7,3 C 93 % 1020,7 hPa 0,0 l/m 3,8 km/h (1 Bft) W 268 0 min 0,000 mm 0,0 UV-I 40 W/m 6,2 C 7,3 C 4,8 km/h (1 Bft) 88,89 %
05.04.2017 07:36 7,3 C 93 % 1020,7 hPa 0,0 l/m 3,3 km/h (1 Bft) W-SW 254 0 min 0,000 mm 0,0 UV-I 44 W/m 6,2 C 7,3 C 4,8 km/h (1 Bft) 93,62 %
05.04.2017 07:38 7,3 C 93 % 1020,7 hPa 0,0 l/m 4,1 km/h (1 Bft) W-SW 257 0 min 0,000 mm 0,0 UV-I 51 W/m 6,2 C 7,3 C 6,4 km/h (2 Bft) 92,00 %
05.04.2017 07:40 7,3 C 93 % 1020,7 hPa 0,0 l/m 4,1 km/h (1 Bft) W 261 0 min 0,000 mm 0,0 UV-I 56 W/m 6,2 C 7,3 C 9,7 km/h (2 Bft) 94,34 %
05.04.2017 07:42 7,4 C 93 % 1020,7 hPa 0,0 l/m 5,8 km/h (2 Bft) W 274 0 min 0,000 mm 0,0 UV-I 59 W/m 6,3 C 7,4 C 9,7 km/h (2 Bft) 92,68 %
05.04.2017 07:44 7,4 C 93 % 1020,8 hPa 0,0 l/m 5,3 km/h (1 Bft) W-SW 245 0 min 0,000 mm 0,0 UV-I 62 W/m 6,3 C 7,4 C 8,0 km/h (2 Bft) 92,00 %
05.04.2017 07:46 7,4 C 93 % 1020,8 hPa 0,0 l/m 5,4 km/h (1 Bft) W-SW 252 0 min 0,000 mm 0,0 UV-I 65 W/m 6,3 C 7,4 C 11,3 km/h (2 Bft) 94,00 %
05.04.2017 07:48 7,5 C 93 % 1020,8 hPa 0,0 l/m 6,3 km/h (2 Bft) W-SW 257 0 min 0,000 mm 0,0 UV-I 71 W/m 6,4 C 7,5 C 8,0 km/h (2 Bft) 94,74 %
05.04.2017 07:50 7,5 C 93 % 1020,8 hPa 0,0 l/m 5,6 km/h (1 Bft) W-SW 246 0 min 0,000 mm 0,0 UV-I 76 W/m 6,4 C 7,5 C 8,0 km/h (2 Bft) 90,57 %
05.04.2017 07:52 7,6 C 93 % 1020,8 hPa 0,0 l/m 4,4 km/h (1 Bft) W-SW 255 0 min 0,000 mm 0,0 UV-I 77 W/m 6,5 C 7,6 C 8,0 km/h (2 Bft) 93,62 %
05.04.2017 07:54 7,6 C 93 % 1020,9 hPa 0,0 l/m 4,7 km/h (1 Bft) W-SW 249 0 min 0,000 mm 0,0 UV-I 75 W/m 6,5 C 7,6 C 6,4 km/h (2 Bft) 100,00 %
05.04.2017 07:56 7,7 C 93 % 1020,9 hPa 0,0 l/m 5,3 km/h (1 Bft) W-SW 246 0 min 0,000 mm 0,0 UV-I 71 W/m 6,6 C 7,7 C 6,4 km/h (2 Bft) 97,87 %
05.04.2017 07:58 7,7 C 93 % 1020,8 hPa 0,0 l/m 4,9 km/h (1 Bft) W-SW 248 0 min 0,000 mm 0,0 UV-I 70 W/m 6,6 C 7,7 C 6,4 km/h (2 Bft) 97,87 %
05.04.2017 08:00 7,7 C 93 % 1020,9 hPa 0,0 l/m 5,3 km/h (1 Bft) W-SW 250 0 min 0,025 mm 0,0 UV-I 70 W/m 6,6 C 7,7 C 9,7 km/h (2 Bft) 97,73 %
05.04.2017 08:02 7,7 C 93 % 1020,9 hPa 0,0 l/m 4,5 km/h (1 Bft) W-SW 252 0 min 0,000 mm 0,0 UV-I 69 W/m 6,6 C 7,7 C 6,4 km/h (2 Bft) 97,22 %
05.04.2017 08:04 7,7 C 92 % 1020,9 hPa 0,0 l/m 5,4 km/h (1 Bft) W-SW 253 0 min 0,000 mm 0,0 UV-I 69 W/m 6,5 C 7,7 C 6,4 km/h (2 Bft) 98,11 %
05.04.2017 08:06 7,7 C 93 % 1020,9 hPa 0,0 l/m 5,1 km/h (1 Bft) W-SW 244 0 min 0,000 mm 0,0 UV-I 70 W/m 6,6 C 7,7 C 9,7 km/h (2 Bft) 96,00 %
05.04.2017 08:08 7,7 C 93 % 1020,9 hPa 0,0 l/m 5,8 km/h (2 Bft) W-SW 238 0 min 0,000 mm 0,0 UV-I 73 W/m 6,6 C 7,7 C 8,0 km/h (2 Bft) 100,00 %
05.04.2017 08:10 7,8 C 93 % 1020,9 hPa 0,0 l/m 5,7 km/h (1 Bft) W-SW 240 0 min 0,000 mm 0,0 UV-I 79 W/m 6,7 C 7,8 C 8,0 km/h (2 Bft) 97,44 %
05.04.2017 08:12 7,8 C 93 % 1020,9 hPa 0,0 l/m 4,3 km/h (1 Bft) W-SW 257 0 min 0,000 mm 0,0 UV-I 86 W/m 6,7 C 7,8 C 8,0 km/h (2 Bft) 97,92 %
05.04.2017 08:14 7,8 C 93 % 1020,9 hPa 0,0 l/m 6,4 km/h (2 Bft) W-SW 256 0 min 0,000 mm 0,0 UV-I 93 W/m 6,7 C 7,8 C 9,7 km/h (2 Bft) 98,00 %
05.04.2017 08:16 7,9 C 93 % 1020,9 hPa 0,0 l/m 6,0 km/h (2 Bft) W-SW 241 0 min 0,000 mm 0,0 UV-I 97 W/m 6,8 C 7,9 C 8,0 km/h (2 Bft) 96,00 %
05.04.2017 08:18 7,9 C 93 % 1020,9 hPa 0,0 l/m 5,6 km/h (1 Bft) SW 232 0 min 0,000 mm 0,0 UV-I 97 W/m 6,8 C 7,9 C 8,0 km/h (2 Bft) 92,50 %
05.04.2017 08:20 7,9 C 92 % 1021,0 hPa 0,0 l/m 5,7 km/h (1 Bft) SW 231 0 min 0,000 mm 0,0 UV-I 97 W/m 6,7 C 7,9 C 9,7 km/h (2 Bft) 96,00 %
05.04.2017 08:22 7,9 C 93 % 1020,9 hPa 0,0 l/m 4,3 km/h (1 Bft) SW 219 0 min 0,000 mm 0,0 UV-I 103 W/m 6,8 C 7,9 C 6,4 km/h (2 Bft) 98,00 %
05.04.2017 08:24 8,1 C 93 % 1020,9 hPa 0,0 l/m 4,8 km/h (1 Bft) SW 232 0 min 0,000 mm 0,0 UV-I 111 W/m 7,0 C 8,1 C 8,0 km/h (2 Bft) 95,74 %
05.04.2017 08:26 8,1 C 93 % 1020,9 hPa 0,0 l/m 5,3 km/h (1 Bft) SW 232 0 min 0,000 mm 0,0 UV-I 115 W/m 7,0 C 8,1 C 9,7 km/h (2 Bft) 98,00 %
05.04.2017 08:28 8,1 C 93 % 1021,0 hPa 0,0 l/m 5,9 km/h (2 Bft) W-SW 250 0 min 0,000 mm 0,0 UV-I 113 W/m 7,0 C 8,1 C 11,3 km/h (2 Bft) 100,00 %
05.04.2017 08:30 8,2 C 92 % 1021,0 hPa 0,0 l/m 5,1 km/h (1 Bft) SW 228 0 min 0,000 mm 0,0 UV-I 106 W/m 7,0 C 8,2 C 11,3 km/h (2 Bft) 100,00 %
05.04.2017 08:32 8,2 C 92 % 1021,0 hPa 0,0 l/m 5,0 km/h (1 Bft) W-SW 240 0 min 0,000 mm 0,0 UV-I 103 W/m 7,0 C 8,2 C 8,0 km/h (2 Bft) 96,23 %
05.04.2017 08:34 8,2 C 92 % 1021,0 hPa 0,0 l/m 5,6 km/h (1 Bft) W 273 0 min 0,000 mm 0,0 UV-I 101 W/m 7,0 C 8,2 C 9,7 km/h (2 Bft) 100,00 %
05.04.2017 08:36 8,2 C 92 % 1021,0 hPa 0,0 l/m 4,2 km/h (1 Bft) W-SW 251 0 min 0,000 mm 0,0 UV-I 102 W/m 7,0 C 8,2 C 6,4 km/h (2 Bft) 95,12 %
05.04.2017 08:38 8,3 C 92 % 1021,0 hPa 0,0 l/m 6,2 km/h (2 Bft) W-SW 240 0 min 0,000 mm 0,0 UV-I 101 W/m 7,1 C 8,3 C 9,7 km/h (2 Bft) 100,00 %
05.04.2017 08:40 8,3 C 91 % 1021,0 hPa 0,0 l/m 6,1 km/h (2 Bft) W-SW 251 0 min 0,000 mm 0,0 UV-I 98 W/m 6,9 C 8,3 C 9,7 km/h (2 Bft) 97,56 %
05.04.2017 08:42 8,3 C 91 % 1021,0 hPa 0,0 l/m 4,7 km/h (1 Bft) W-SW 255 0 min 0,000 mm 0,0 UV-I 92 W/m 6,9 C 8,3 C 8,0 km/h (2 Bft) 96,23 %
05.04.2017 08:44 8,3 C 91 % 1021,1 hPa 0,0 l/m 5,3 km/h (1 Bft) W-SW 242 0 min 0,000 mm 0,0 UV-I 90 W/m 6,9 C 8,3 C 11,3 km/h (2 Bft) 100,00 %
05.04.2017 08:46 8,3 C 91 % 1021,1 hPa 0,0 l/m 6,4 km/h (2 Bft) S-SW 209 0 min 0,000 mm 0,0 UV-I 93 W/m 6,9 C 8,3 C 11,3 km/h (2 Bft) 97,62 %
05.04.2017 08:48 8,3 C 90 % 1021,1 hPa 0,0 l/m 7,5 km/h (2 Bft) W 259 0 min 0,000 mm 0,0 UV-I 101 W/m 6,8 C 7,4 C 11,3 km/h (2 Bft) 98,08 %
05.04.2017 08:50 8,3 C 90 % 1021,0 hPa 0,0 l/m 5,7 km/h (1 Bft) W-SW 254 0 min 0,000 mm 0,0 UV-I 112 W/m 6,8 C 8,3 C 11,3 km/h (2 Bft) 97,78 %
05.04.2017 08:52 8,3 C 90 % 1021,1 hPa 0,0 l/m 3,8 km/h (1 Bft) W-SW 241 0 min 0,000 mm 0,0 UV-I 121 W/m 6,8 C 8,3 C 6,4 km/h (2 Bft) 97,56 %
05.04.2017 08:54 8,4 C 90 % 1021,0 hPa 0,0 l/m 5,5 km/h (1 Bft) W-SW 241 0 min 0,000 mm 0,0 UV-I 126 W/m 6,9 C 8,4 C 8,0 km/h (2 Bft) 98,11 %
05.04.2017 08:56 8,4 C 90 % 1021,1 hPa 0,0 l/m 7,8 km/h (2 Bft) W-SW 254 0 min 0,000 mm 0,0 UV-I 122 W/m 6,9 C 7,3 C 12,9 km/h (3 Bft) 95,83 %
05.04.2017 08:58 8,4 C 90 % 1021,1 hPa 0,0 l/m 6,3 km/h (2 Bft) SW 228 0 min 0,000 mm 0,0 UV-I 116 W/m 6,9 C 8,4 C 11,3 km/h (2 Bft) 100,00 %
05.04.2017 09:00 8,4 C 90 % 1021,1 hPa 0,0 l/m 6,6 km/h (2 Bft) W-SW 254 0 min 0,000 mm 0,0 UV-I 109 W/m 6,9 C 8,3 C 11,3 km/h (2 Bft) 97,56 %
05.04.2017 09:02 8,4 C 90 % 1021,2 hPa 0,0 l/m 7,3 km/h (2 Bft) W 262 0 min 0,051 mm 0,0 UV-I 106 W/m 6,9 C 7,7 C 11,3 km/h (2 Bft) 96,23 %
05.04.2017 09:04 8,5 C 90 % 1021,2 hPa 0,0 l/m 5,1 km/h (1 Bft) W 271 0 min 0,000 mm 0,0 UV-I 104 W/m 7,0 C 8,5 C 6,4 km/h (2 Bft) 97,56 %
05.04.2017 09:06 8,5 C 90 % 1021,3 hPa 0,0 l/m 6,1 km/h (2 Bft) W 274 0 min 0,000 mm 0,0 UV-I 103 W/m 7,0 C 8,5 C 11,3 km/h (2 Bft) 100,00 %
05.04.2017 09:08 8,6 C 90 % 1021,2 hPa 0,0 l/m 4,9 km/h (1 Bft) W-SW 250 0 min 0,000 mm 0,0 UV-I 105 W/m 7,1 C 8,6 C 11,3 km/h (2 Bft) 97,56 %
05.04.2017 09:10 8,5 C 90 % 1021,3 hPa 0,0 l/m 3,4 km/h (1 Bft) W-NW 285 0 min 0,000 mm 0,0 UV-I 107 W/m 7,0 C 8,5 C 6,4 km/h (2 Bft) 100,00 %
05.04.2017 09:12 8,5 C 90 % 1021,3 hPa 0,0 l/m 4,3 km/h (1 Bft) W 278 0 min 0,000 mm 0,0 UV-I 109 W/m 7,0 C 8,5 C 6,4 km/h (2 Bft) 100,00 %
05.04.2017 09:14 8,5 C 89 % 1021,3 hPa 0,0 l/m 3,4 km/h (1 Bft) W 268 0 min 0,000 mm 0,0 UV-I 111 W/m 6,8 C 8,5 C 6,4 km/h (2 Bft) 97,87 %
05.04.2017 09:16 8,5 C 89 % 1021,4 hPa 0,0 l/m 4,3 km/h (1 Bft) W-SW 250 0 min 0,000 mm 0,0 UV-I 107 W/m 6,8 C 8,5 C 8,0 km/h (2 Bft) 98,15 %
05.04.2017 09:18 8,6 C 90 % 1021,4 hPa 0,0 l/m 3,6 km/h (1 Bft) W-SW 250 0 min 0,000 mm 0,0 UV-I 99 W/m 7,1 C 8,6 C 4,8 km/h (1 Bft) 96,00 %
05.04.2017 09:20 8,6 C 90 % 1021,5 hPa 0,0 l/m 4,8 km/h (1 Bft) W 262 0 min 0,000 mm 0,0 UV-I 95 W/m 7,1 C 8,6 C 9,7 km/h (2 Bft) 97,56 %
05.04.2017 09:22 8,6 C 89 % 1021,5 hPa 0,0 l/m 7,3 km/h (2 Bft) W 278 0 min 0,000 mm 0,0 UV-I 92 W/m 6,9 C 7,9 C 11,3 km/h (2 Bft) 96,00 %
05.04.2017 09:24 8,5 C 89 % 1021,5 hPa 0,0 l/m 3,6 km/h (1 Bft) W 275 0 min 0,000 mm 0,0 UV-I 91 W/m 6,8 C 8,5 C 4,8 km/h (1 Bft) 94,44 %
05.04.2017 09:26 8,6 C 89 % 1021,5 hPa 0,0 l/m 3,7 km/h (1 Bft) W 275 0 min 0,000 mm 0,0 UV-I 98 W/m 6,9 C 8,6 C 8,0 km/h (2 Bft) 98,36 %
05.04.2017 09:28 8,6 C 89 % 1021,6 hPa 0,0 l/m 6,6 km/h (2 Bft) W-SW 247 0 min 0,000 mm 0,0 UV-I 107 W/m 6,9 C 8,5 C 9,7 km/h (2 Bft) 94,87 %
05.04.2017 09:30 8,6 C 89 % 1021,5 hPa 0,0 l/m 9,0 km/h (2 Bft) W-SW 244 0 min 0,000 mm 0,0 UV-I 114 W/m 6,9 C 6,7 C 12,9 km/h (3 Bft) 97,73 %
05.04.2017 09:32 8,6 C 89 % 1021,5 hPa 0,0 l/m 7,0 km/h (2 Bft) W 261 0 min 0,000 mm 0,0 UV-I 114 W/m 6,9 C 8,1 C 11,3 km/h (2 Bft) 94,34 %
05.04.2017 09:34 8,6 C 89 % 1021,5 hPa 0,0 l/m 6,1 km/h (2 Bft) W 273 0 min 0,000 mm 0,0 UV-I 114 W/m 6,9 C 8,6 C 9,7 km/h (2 Bft) 100,00 %
05.04.2017 09:36 8,6 C 89 % 1021,5 hPa 0,0 l/m 2,5 km/h (1 Bft) W 267 0 min 0,000 mm 0,0 UV-I 118 W/m 6,9 C 8,6 C 6,4 km/h (2 Bft) 97,06 %
05.04.2017 09:38 8,6 C 89 % 1021,5 hPa 0,0 l/m 3,8 km/h (1 Bft) W 267 0 min 0,000 mm 0,0 UV-I 123 W/m 6,9 C 8,6 C 6,4 km/h (2 Bft) 95,74 %
05.04.2017 09:40 8,6 C 88 % 1021,5 hPa 0,0 l/m 3,2 km/h (1 Bft) W 263 0 min 0,000 mm 0,0 UV-I 129 W/m 6,7 C 8,6 C 6,4 km/h (2 Bft) 96,77 %
05.04.2017 09:42 8,6 C 89 % 1021,5 hPa 0,0 l/m 4,2 km/h (1 Bft) SW 234 0 min 0,000 mm 0,5 UV-I 130 W/m 6,9 C 8,6 C 6,4 km/h (2 Bft) 95,74 %
05.04.2017 09:44 8,6 C 89 % 1021,5 hPa 0,0 l/m 1,6 km/h (1 Bft) SW 234 0 min 0,000 mm 0,4 UV-I 128 W/m 6,9 C 8,6 C 4,8 km/h (1 Bft) 97,37 %
05.04.2017 09:46 8,7 C 89 % 1021,6 hPa 0,0 l/m 3,6 km/h (1 Bft) W 262 0 min 0,000 mm 0,0 UV-I 125 W/m 7,0 C 8,7 C 6,4 km/h (2 Bft) 94,92 %
05.04.2017 09:48 8,7 C 88 % 1021,5 hPa 0,0 l/m 4,1 km/h (1 Bft) W 271 0 min 0,000 mm 0,0 UV-I 124 W/m 6,8 C 8,7 C 6,4 km/h (2 Bft) 97,56 %
05.04.2017 09:50 8,7 C 88 % 1021,5 hPa 0,0 l/m 2,4 km/h (1 Bft) W-NW 284 0 min 0,000 mm 0,4 UV-I 130 W/m 6,8 C 8,7 C 4,8 km/h (1 Bft) 94,00 %
05.04.2017 09:52 8,7 C 89 % 1021,6 hPa 0,0 l/m 3,0 km/h (1 Bft) W-NW 290 0 min 0,000 mm 0,5 UV-I 137 W/m 7,0 C 8,7 C 4,8 km/h (1 Bft) 98,00 %
05.04.2017 09:54 8,8 C 89 % 1021,5 hPa 0,0 l/m 2,5 km/h (1 Bft) W 279 0 min 0,000 mm 0,5 UV-I 137 W/m 7,1 C 8,8 C 6,4 km/h (2 Bft) 97,14 %
05.04.2017 09:56 8,8 C 89 % 1021,5 hPa 0,0 l/m 5,6 km/h (1 Bft) SW 234 0 min 0,000 mm 0,3 UV-I 129 W/m 7,1 C 8,8 C 9,7 km/h (2 Bft) 98,00 %
05.04.2017 09:58 8,8 C 88 % 1021,5 hPa 0,0 l/m 3,4 km/h (1 Bft) W-NW 289 0 min 0,000 mm 0,0 UV-I 121 W/m 6,9 C 8,8 C 4,8 km/h (1 Bft) 98,00 %
05.04.2017 10:00 8,8 C 88 % 1021,5 hPa 0,0 l/m 3,1 km/h (1 Bft) W 279 0 min 0,051 mm 0,0 UV-I 114 W/m 6,9 C 8,8 C 4,8 km/h (1 Bft) 97,87 %
05.04.2017 10:02 8,8 C 88 % 1021,5 hPa 0,0 l/m 4,8 km/h (1 Bft) W 267 0 min 0,000 mm 0,0 UV-I 111 W/m 6,9 C 8,8 C 9,7 km/h (2 Bft) 100,00 %
05.04.2017 10:04 8,8 C 88 % 1021,5 hPa 0,0 l/m 3,3 km/h (1 Bft) W 269 0 min 0,000 mm 0,0 UV-I 109 W/m 6,9 C 8,8 C 6,4 km/h (2 Bft) 97,62 %
05.04.2017 10:06 8,8 C 88 % 1021,5 hPa 0,0 l/m 3,9 km/h (1 Bft) W 270 0 min 0,000 mm 0,0 UV-I 106 W/m 6,9 C 8,8 C 6,4 km/h (2 Bft) 94,34 %
05.04.2017 10:08 8,8 C 88 % 1021,5 hPa 0,0 l/m 4,6 km/h (1 Bft) W 266 0 min 0,000 mm 0,0 UV-I 105 W/m 6,9 C 8,8 C 9,7 km/h (2 Bft) 100,00 %
05.04.2017 10:10 8,8 C 88 % 1021,5 hPa 0,0 l/m 5,7 km/h (1 Bft) SW 224 0 min 0,000 mm 0,0 UV-I 107 W/m 6,9 C 8,8 C 9,7 km/h (2 Bft) 97,92 %
05.04.2017 10:12 8,8 C 88 % 1021,5 hPa 0,0 l/m 8,1 km/h (2 Bft) W-SW 253 0 min 0,000 mm 0,0 UV-I 111 W/m 6,9 C 7,5 C 14,5 km/h (3 Bft) 100,00 %
05.04.2017 10:14 8,8 C 87 % 1021,4 hPa 0,0 l/m 8,6 km/h (2 Bft) W 263 0 min 0,000 mm 0,0 UV-I 117 W/m 6,8 C 7,2 C 12,9 km/h (3 Bft) 95,45 %
05.04.2017 10:16 8,8 C 87 % 1021,5 hPa 0,0 l/m 6,2 km/h (2 Bft) W 259 0 min 0,000 mm 0,3 UV-I 121 W/m 6,8 C 8,8 C 12,9 km/h (3 Bft) 100,00 %
05.04.2017 10:18 8,8 C 88 % 1021,5 hPa 0,0 l/m 6,7 km/h (2 Bft) SW 232 0 min 0,000 mm 0,5 UV-I 125 W/m 6,9 C 8,6 C 11,3 km/h (2 Bft) 96,23 %
05.04.2017 10:20 8,9 C 88 % 1021,5 hPa 0,0 l/m 5,8 km/h (2 Bft) SW 226 0 min 0,000 mm 0,5 UV-I 129 W/m 7,0 C 8,9 C 11,3 km/h (2 Bft) 95,74 %
05.04.2017 10:22 8,9 C 87 % 1021,5 hPa 0,0 l/m 7,0 km/h (2 Bft) SW 228 0 min 0,000 mm 0,5 UV-I 137 W/m 6,9 C 8,4 C 11,3 km/h (2 Bft) 100,00 %
05.04.2017 10:24 8,9 C 87 % 1021,5 hPa 0,0 l/m 4,6 km/h (1 Bft) W-SW 242 0 min 0,000 mm 0,6 UV-I 148 W/m 6,9 C 8,9 C 6,4 km/h (2 Bft) 96,00 %
05.04.2017 10:26 9,0 C 87 % 1021,5 hPa 0,0 l/m 6,7 km/h (2 Bft) SW 229 0 min 0,000 mm 0,6 UV-I 158 W/m 7,0 C 8,8 C 9,7 km/h (2 Bft) 97,37 %
05.04.2017 10:28 9,1 C 87 % 1021,5 hPa 0,0 l/m 5,1 km/h (1 Bft) W 263 0 min 0,000 mm 0,7 UV-I 166 W/m 7,1 C 9,1 C 9,7 km/h (2 Bft) 96,00 %
05.04.2017 10:30 9,1 C 87 % 1021,5 hPa 0,0 l/m 6,2 km/h (2 Bft) W 262 0 min 0,000 mm 0,7 UV-I 171 W/m 7,1 C 9,1 C 9,7 km/h (2 Bft) 100,00 %
05.04.2017 10:32 9,1 C 87 % 1021,5 hPa 0,0 l/m 5,1 km/h (1 Bft) SW 233 0 min 0,000 mm 0,7 UV-I 172 W/m 7,1 C 9,1 C 8,0 km/h (2 Bft) 94,74 %
05.04.2017 10:34 9,2 C 87 % 1021,5 hPa 0,0 l/m 4,6 km/h (1 Bft) W-SW 252 0 min 0,000 mm 0,7 UV-I 169 W/m 7,2 C 9,2 C 9,7 km/h (2 Bft) 96,43 %
05.04.2017 10:36 9,2 C 87 % 1021,5 hPa 0,0 l/m 8,0 km/h (2 Bft) W-SW 250 0 min 0,000 mm 0,7 UV-I 166 W/m 7,2 C 8,0 C 12,9 km/h (3 Bft) 100,00 %
05.04.2017 10:38 9,2 C 87 % 1021,5 hPa 0,0 l/m 5,9 km/h (2 Bft) S-SW 209 0 min 0,000 mm 0,7 UV-I 165 W/m 7,2 C 9,2 C 11,3 km/h (2 Bft) 95,74 %
05.04.2017 10:40 9,2 C 86 % 1021,4 hPa 0,0 l/m 8,2 km/h (2 Bft) W-SW 237 0 min 0,000 mm 0,7 UV-I 165 W/m 7,0 C 7,9 C 12,9 km/h (3 Bft) 93,94 %
05.04.2017 10:42 9,2 C 86 % 1021,4 hPa 0,0 l/m 6,6 km/h (2 Bft) W-SW 239 0 min 0,000 mm 0,7 UV-I 167 W/m 7,0 C 9,1 C 11,3 km/h (2 Bft) 94,64 %
05.04.2017 10:44 9,2 C 86 % 1021,4 hPa 0,0 l/m 6,2 km/h (2 Bft) S-SW 198 0 min 0,000 mm 0,7 UV-I 171 W/m 7,0 C 9,2 C 11,3 km/h (2 Bft) 96,36 %
05.04.2017 10:46 9,2 C 86 % 1021,3 hPa 0,0 l/m 9,2 km/h (2 Bft) S-SW 208 0 min 0,000 mm 0,7 UV-I 171 W/m 7,0 C 7,2 C 14,5 km/h (3 Bft) 100,00 %
05.04.2017 10:48 9,3 C 86 % 1021,4 hPa 0,0 l/m 7,2 km/h (2 Bft) W-SW 242 0 min 0,000 mm 0,7 UV-I 166 W/m 7,1 C 8,7 C 11,3 km/h (2 Bft) 100,00 %
05.04.2017 10:50 9,3 C 87 % 1021,3 hPa 0,0 l/m 7,4 km/h (2 Bft) SW 232 0 min 0,000 mm 0,7 UV-I 160 W/m 7,2 C 8,6 C 12,9 km/h (3 Bft) 100,00 %
05.04.2017 10:52 9,3 C 85 % 1021,3 hPa 0,0 l/m 6,4 km/h (2 Bft) SW 234 0 min 0,000 mm 0,6 UV-I 153 W/m 6,9 C 9,3 C 9,7 km/h (2 Bft) 88,68 %
05.04.2017 10:54 9,3 C 85 % 1021,3 hPa 0,0 l/m 11,3 km/h (2 Bft) W-SW 239 0 min 0,000 mm 0,6 UV-I 147 W/m 6,9 C 6,1 C 16,1 km/h (3 Bft) 95,12 %
05.04.2017 10:56 9,2 C 85 % 1021,3 hPa 0,0 l/m 10,8 km/h (2 Bft) SW 233 0 min 0,000 mm 0,6 UV-I 140 W/m 6,8 C 6,2 C 17,7 km/h (3 Bft) 92,00 %
05.04.2017 10:58 9,2 C 85 % 1021,3 hPa 0,0 l/m 8,3 km/h (2 Bft) W 264 0 min 0,000 mm 0,6 UV-I 134 W/m 6,8 C 7,8 C 14,5 km/h (3 Bft) 97,73 %
05.04.2017 11:00 9,2 C 86 % 1021,3 hPa 0,0 l/m 8,2 km/h (2 Bft) SW 226 0 min 0,076 mm 0,5 UV-I 128 W/m 7,0 C 7,9 C 12,9 km/h (3 Bft) 95,45 %
05.04.2017 11:02 9,2 C 86 % 1021,3 hPa 0,0 l/m 5,3 km/h (1 Bft) W 265 0 min 0,000 mm 0,5 UV-I 125 W/m 7,0 C 9,2 C 8,0 km/h (2 Bft) 98,00 %
05.04.2017 11:04 9,2 C 86 % 1021,2 hPa 0,0 l/m 4,7 km/h (1 Bft) W-SW 251 0 min 0,000 mm 0,5 UV-I 122 W/m 7,0 C 9,2 C 8,0 km/h (2 Bft) 91,49 %
05.04.2017 11:06 9,3 C 86 % 1021,2 hPa 0,0 l/m 5,0 km/h (1 Bft) SW 217 0 min 0,000 mm 0,5 UV-I 121 W/m 7,1 C 9,3 C 8,0 km/h (2 Bft) 97,37 %
05.04.2017 11:08 9,3 C 86 % 1021,2 hPa 0,0 l/m 8,6 km/h (2 Bft) SW 224 0 min 0,000 mm 0,5 UV-I 120 W/m 7,1 C 7,7 C 11,3 km/h (2 Bft) 96,43 %
05.04.2017 11:10 9,3 C 86 % 1021,2 hPa 0,0 l/m 8,9 km/h (2 Bft) SW 217 0 min 0,000 mm 0,5 UV-I 121 W/m 7,1 C 7,5 C 12,9 km/h (3 Bft) 100,00 %
05.04.2017 11:12 9,3 C 85 % 1021,2 hPa 0,0 l/m 6,9 km/h (2 Bft) W-SW 246 0 min 0,000 mm 0,5 UV-I 126 W/m 6,9 C 8,9 C 11,3 km/h (2 Bft) 96,61 %
05.04.2017 11:14 9,4 C 85 % 1021,2 hPa 0,0 l/m 7,3 km/h (2 Bft) S-SW 200 0 min 0,000 mm 0,6 UV-I 134 W/m 7,0 C 8,7 C 12,9 km/h (3 Bft) 96,30 %
05.04.2017 11:16 9,4 C 85 % 1021,2 hPa 0,0 l/m 8,0 km/h (2 Bft) W-SW 252 0 min 0,000 mm 0,6 UV-I 148 W/m 7,0 C 8,2 C 14,5 km/h (3 Bft) 94,55 %
05.04.2017 11:18 9,4 C 85 % 1021,2 hPa 0,0 l/m 9,6 km/h (2 Bft) SW 219 0 min 0,000 mm 0,7 UV-I 166 W/m 7,0 C 7,2 C 14,5 km/h (3 Bft) 92,86 %
05.04.2017 11:20 9,5 C 85 % 1021,2 hPa 0,0 l/m 5,8 km/h (2 Bft) W-SW 258 0 min 0,000 mm 0,8 UV-I 186 W/m 7,1 C 9,5 C 9,7 km/h (2 Bft) 95,12 %
05.04.2017 11:22 9,6 C 86 % 1021,3 hPa 0,0 l/m 5,8 km/h (2 Bft) W-SW 237 0 min 0,000 mm 0,9 UV-I 200 W/m 7,4 C 9,6 C 12,9 km/h (3 Bft) 96,00 %
05.04.2017 11:24 9,7 C 85 % 1021,3 hPa 0,0 l/m 5,1 km/h (1 Bft) W-SW 241 0 min 0,000 mm 0,9 UV-I 210 W/m 7,3 C 9,7 C 12,9 km/h (3 Bft) 91,67 %
05.04.2017 11:26 9,7 C 84 % 1021,2 hPa 0,0 l/m 9,1 km/h (2 Bft) SW 234 0 min 0,000 mm 1,0 UV-I 225 W/m 7,1 C 7,8 C 16,1 km/h (3 Bft) 95,00 %
05.04.2017 11:28 9,7 C 84 % 1021,2 hPa 0,0 l/m 11,3 km/h (2 Bft) W-SW 250 0 min 0,000 mm 1,1 UV-I 240 W/m 7,1 C 6,5 C 16,1 km/h (3 Bft) 92,68 %
05.04.2017 11:30 9,8 C 84 % 1021,2 hPa 0,0 l/m 8,8 km/h (2 Bft) W-SW 243 0 min 0,000 mm 1,2 UV-I 268 W/m 7,2 C 8,1 C 12,9 km/h (3 Bft) 94,64 %
05.04.2017 11:32 9,9 C 84 % 1021,2 hPa 0,0 l/m 8,4 km/h (2 Bft) SW 223 0 min 0,000 mm 1,3 UV-I 292 W/m 7,3 C 8,5 C 12,9 km/h (3 Bft) 89,80 %
05.04.2017 11:34 10,0 C 84 % 1021,2 hPa 0,0 l/m 9,8 km/h (2 Bft) W-SW 242 0 min 0,000 mm 1,4 UV-I 311 W/m 7,4 C 7,7 C 14,5 km/h (3 Bft) 97,37 %
05.04.2017 11:36 10,1 C 84 % 1021,3 hPa 0,0 l/m 9,0 km/h (2 Bft) W-SW 238 0 min 0,000 mm 1,5 UV-I 327 W/m 7,5 C 8,3 C 14,5 km/h (3 Bft) 91,49 %
05.04.2017 11:38 10,2 C 84 % 1021,2 hPa 0,0 l/m 6,4 km/h (2 Bft) W-SW 253 0 min 0,000 mm 1,5 UV-I 324 W/m 7,6 C 10,2 C 12,9 km/h (3 Bft) 96,00 %
05.04.2017 11:40 10,3 C 83 % 1021,2 hPa 0,0 l/m 7,3 km/h (2 Bft) W 263 0 min 0,000 mm 1,6 UV-I 335 W/m 7,5 C 9,7 C 14,5 km/h (3 Bft) 91,49 %
05.04.2017 11:42 10,3 C 82 % 1021,2 hPa 0,0 l/m 8,7 km/h (2 Bft) SW 233 0 min 0,000 mm 1,7 UV-I 352 W/m 7,4 C 8,7 C 12,9 km/h (3 Bft) 90,91 %
05.04.2017 11:44 10,3 C 82 % 1021,2 hPa 0,0 l/m 7,8 km/h (2 Bft) SW 225 0 min 0,000 mm 1,7 UV-I 365 W/m 7,4 C 9,3 C 14,5 km/h (3 Bft) 92,86 %
05.04.2017 11:46 10,3 C 82 % 1021,2 hPa 0,0 l/m 9,8 km/h (2 Bft) W-SW 244 0 min 0,000 mm 1,8 UV-I 369 W/m 7,4 C 8,0 C 14,5 km/h (3 Bft) 95,45 %
05.04.2017 11:48 10,4 C 82 % 1021,2 hPa 0,0 l/m 7,6 km/h (2 Bft) W-SW 257 2 min 0,000 mm 1,9 UV-I 392 W/m 7,5 C 9,5 C 14,5 km/h (3 Bft) 95,74 %
05.04.2017 11:50 10,4 C 82 % 1021,2 hPa 0,0 l/m 10,4 km/h (2 Bft) W-SW 239 2 min 0,000 mm 1,9 UV-I 394 W/m 7,5 C 7,8 C 16,1 km/h (3 Bft) 97,87 %
05.04.2017 11:52 10,4 C 81 % 1021,1 hPa 0,0 l/m 8,9 km/h (2 Bft) W-SW 247 0 min 0,000 mm 1,9 UV-I 368 W/m 7,3 C 8,7 C 16,1 km/h (3 Bft) 97,37 %
05.04.2017 11:54 10,4 C 82 % 1021,1 hPa 0,0 l/m 6,9 km/h (2 Bft) W 267 0 min 0,000 mm 1,9 UV-I 369 W/m 7,5 C 10,0 C 14,5 km/h (3 Bft) 94,00 %
05.04.2017 11:56 10,5 C 81 % 1021,1 hPa 0,0 l/m 5,4 km/h (1 Bft) W 261 2 min 0,000 mm 2,0 UV-I 395 W/m 7,4 C 10,5 C 9,7 km/h (2 Bft) 92,45 %
05.04.2017 11:58 10,7 C 82 % 1021,0 hPa 0,0 l/m 4,8 km/h (1 Bft) S 186 2 min 0,000 mm 2,2 UV-I 441 W/m 7,8 C 10,7 C 9,7 km/h (2 Bft) 97,73 %
05.04.2017 12:00 10,9 C 81 % 1021,1 hPa 0,0 l/m 9,6 km/h (2 Bft) W-SW 243 2 min 0,127 mm 2,3 UV-I 668 W/m 7,8 C 8,8 C 16,1 km/h (3 Bft) 90,48 %
05.04.2017 12:02 11,2 C 81 % 1021,0 hPa 0,0 l/m 9,3 km/h (2 Bft) SW 227 2 min 0,000 mm 2,5 UV-I 711 W/m 8,1 C 9,3 C 14,5 km/h (3 Bft) 96,00 %
05.04.2017 12:04 11,4 C 80 % 1021,1 hPa 0,0 l/m 10,6 km/h (2 Bft) SW 234 2 min 0,000 mm 2,6 UV-I 868 W/m 8,1 C 8,8 C 14,5 km/h (3 Bft) 87,76 %
05.04.2017 12:06 11,7 C 79 % 1021,0 hPa 0,0 l/m 12,9 km/h (3 Bft) S-SW 211 2 min 0,000 mm 2,4 UV-I 909 W/m 8,2 C 8,1 C 17,7 km/h (3 Bft) 98,00 %
05.04.2017 12:08 11,7 C 79 % 1021,0 hPa 0,0 l/m 8,6 km/h (2 Bft) W-SW 239 2 min 0,000 mm 2,0 UV-I 593 W/m 8,2 C 10,3 C 14,5 km/h (3 Bft) 97,44 %
05.04.2017 12:10 11,6 C 78 % 1021,0 hPa 0,0 l/m 12,7 km/h (3 Bft) SW 225 2 min 0,000 mm 1,8 UV-I 430 W/m 7,9 C 8,0 C 19,3 km/h (3 Bft) 97,87 %
05.04.2017 12:12 11,3 C 78 % 1021,0 hPa 0,0 l/m 8,3 km/h (2 Bft) S 191 0 min 0,000 mm 1,6 UV-I 350 W/m 7,6 C 10,0 C 16,1 km/h (3 Bft) 96,43 %
05.04.2017 12:14 11,3 C 79 % 1021,0 hPa 0,0 l/m 11,7 km/h (2 Bft) W-SW 245 0 min 0,000 mm 1,7 UV-I 349 W/m 7,8 C 8,2 C 19,3 km/h (3 Bft) 94,74 %
05.04.2017 12:16 11,2 C 79 % 1021,1 hPa 0,0 l/m 10,4 km/h (2 Bft) SW 226 0 min 0,000 mm 1,7 UV-I 383 W/m 7,7 C 8,7 C 16,1 km/h (3 Bft) 97,56 %
05.04.2017 12:18 11,1 C 79 % 1021,0 hPa 0,0 l/m 10,5 km/h (2 Bft) SW 225 0 min 0,000 mm 1,7 UV-I 372 W/m 7,6 C 8,5 C 16,1 km/h (3 Bft) 94,34 %
05.04.2017 12:20 11,2 C 79 % 1021,0 hPa 0,0 l/m 4,2 km/h (1 Bft) S-SW 210 0 min 0,000 mm 1,6 UV-I 356 W/m 7,7 C 11,2 C 9,7 km/h (2 Bft) 100,00 %
05.04.2017 12:22 11,1 C 79 % 1020,9 hPa 0,0 l/m 10,0 km/h (2 Bft) W 261 0 min 0,000 mm 1,7 UV-I 383 W/m 7,6 C 8,8 C 17,7 km/h (3 Bft) 100,00 %
05.04.2017 12:24 11,2 C 80 % 1020,9 hPa 0,0 l/m 7,6 km/h (2 Bft) W-SW 238 0 min 0,000 mm 1,6 UV-I 335 W/m 7,9 C 10,4 C 11,3 km/h (2 Bft) 95,12 %
05.04.2017 12:26 11,2 C 79 % 1020,9 hPa 0,0 l/m 10,4 km/h (2 Bft) W-SW 246 0 min 0,000 mm 1,4 UV-I 307 W/m 7,7 C 8,7 C 14,5 km/h (3 Bft) 96,23 %
05.04.2017 12:28 11,1 C 79 % 1020,8 hPa 0,0 l/m 10,8 km/h (2 Bft) W-SW 240 0 min 0,000 mm 1,7 UV-I 353 W/m 7,6 C 8,4 C 16,1 km/h (3 Bft) 95,45 %
05.04.2017 12:30 11,2 C 80 % 1020,8 hPa 0,0 l/m 6,6 km/h (2 Bft) W-SW 254 0 min 0,000 mm 1,7 UV-I 365 W/m 7,9 C 11,1 C 9,7 km/h (2 Bft) 98,11 %
05.04.2017 12:32 11,3 C 80 % 1020,8 hPa 0,0 l/m 4,2 km/h (1 Bft) W 273 0 min 0,000 mm 1,5 UV-I 336 W/m 8,0 C 11,3 C 11,3 km/h (2 Bft) 97,14 %
05.04.2017 12:34 11,4 C 80 % 1020,8 hPa 0,0 l/m 10,0 km/h (2 Bft) W 260 0 min 0,000 mm 1,5 UV-I 333 W/m 8,1 C 9,1 C 20,9 km/h (4 Bft) 96,23 %
05.04.2017 12:36 11,5 C 79 % 1020,8 hPa 0,0 l/m 14,8 km/h (3 Bft) W 262 0 min 0,000 mm 1,5 UV-I 338 W/m 8,0 C 7,0 C 20,9 km/h (4 Bft) 100,00 %
05.04.2017 12:38 11,4 C 78 % 1020,8 hPa 0,0 l/m 12,4 km/h (3 Bft) SW 221 0 min 0,000 mm 1,5 UV-I 347 W/m 7,7 C 7,9 C 20,9 km/h (4 Bft) 100,00 %
05.04.2017 12:40 11,4 C 77 % 1020,7 hPa 0,0 l/m 9,7 km/h (2 Bft) W 259 0 min 0,000 mm 1,5 UV-I 338 W/m 7,5 C 9,3 C 14,5 km/h (3 Bft) 98,21 %
05.04.2017 12:42 11,4 C 78 % 1020,7 hPa 0,0 l/m 9,6 km/h (2 Bft) W 265 0 min 0,000 mm 1,5 UV-I 320 W/m 7,7 C 9,4 C 14,5 km/h (3 Bft) 97,44 %
05.04.2017 12:44 11,4 C 78 % 1020,7 hPa 0,0 l/m 12,6 km/h (3 Bft) SW 230 0 min 0,000 mm 1,5 UV-I 316 W/m 7,7 C 7,8 C 19,3 km/h (3 Bft) 95,12 %
05.04.2017 12:46 11,5 C 78 % 1020,7 hPa 0,0 l/m 10,3 km/h (2 Bft) W-SW 240 0 min 0,000 mm 1,6 UV-I 325 W/m 7,8 C 9,1 C 17,7 km/h (3 Bft) 100,00 %
05.04.2017 12:48 11,6 C 78 % 1020,7 hPa 0,0 l/m 11,3 km/h (2 Bft) W-SW 238 0 min 0,000 mm 1,8 UV-I 353 W/m 7,9 C 8,7 C 16,1 km/h (3 Bft) 97,37 %
05.04.2017 12:50 11,5 C 77 % 1020,6 hPa 0,0 l/m 11,9 km/h (2 Bft) W-SW 240 2 min 0,000 mm 2,2 UV-I 440 W/m 7,6 C 8,3 C 17,7 km/h (3 Bft) 97,92 %
05.04.2017 12:52 11,6 C 77 % 1020,6 hPa 0,0 l/m 10,3 km/h (2 Bft) SW 217 2 min 0,000 mm 2,4 UV-I 592 W/m 7,7 C 9,2 C 16,1 km/h (3 Bft) 96,23 %
05.04.2017 12:54 11,7 C 77 % 1020,6 hPa 0,0 l/m 10,1 km/h (2 Bft) S-SW 200 2 min 0,000 mm 2,5 UV-I 603 W/m 7,8 C 9,4 C 16,1 km/h (3 Bft) 97,56 %
05.04.2017 12:56 11,8 C 78 % 1020,5 hPa 0,0 l/m 13,8 km/h (3 Bft) W 263 2 min 0,000 mm 2,2 UV-I 500 W/m 8,1 C 7,8 C 20,9 km/h (4 Bft) 100,00 %
05.04.2017 12:58 11,9 C 76 % 1020,5 hPa 0,0 l/m 14,3 km/h (3 Bft) W-SW 250 2 min 0,000 mm 2,2 UV-I 557 W/m 7,8 C 7,7 C 17,7 km/h (3 Bft) 97,73 %
05.04.2017 13:00 11,9 C 76 % 1020,5 hPa 0,0 l/m 8,1 km/h (2 Bft) SW 236 2 min 0,229 mm 2,1 UV-I 443 W/m 7,8 C 10,8 C 12,9 km/h (3 Bft) 95,74 %
05.04.2017 13:02 11,9 C 77 % 1020,5 hPa 0,0 l/m 11,1 km/h (2 Bft) S-SW 200 2 min 0,000 mm 2,1 UV-I 450 W/m 8,0 C 9,1 C 17,7 km/h (3 Bft) 96,00 %
05.04.2017 13:04 11,9 C 77 % 1020,5 hPa 0,0 l/m 12,8 km/h (3 Bft) SW 229 2 min 0,000 mm 2,1 UV-I 441 W/m 8,0 C 8,3 C 20,9 km/h (4 Bft) 93,62 %
05.04.2017 13:06 11,9 C 77 % 1020,5 hPa 0,0 l/m 11,5 km/h (2 Bft) W 259 2 min 0,000 mm 2,0 UV-I 421 W/m 8,0 C 8,9 C 19,3 km/h (3 Bft) 96,00 %
05.04.2017 13:08 11,9 C 77 % 1020,5 hPa 0,0 l/m 10,5 km/h (2 Bft) SW 229 0 min 0,000 mm 1,9 UV-I 386 W/m 8,0 C 9,4 C 14,5 km/h (3 Bft) 94,74 %
05.04.2017 13:10 11,9 C 78 % 1020,5 hPa 0,0 l/m 10,5 km/h (2 Bft) W-SW 246 2 min 0,000 mm 2,0 UV-I 444 W/m 8,2 C 9,4 C 14,5 km/h (3 Bft) 95,12 %
05.04.2017 13:12 12,0 C 76 % 1020,5 hPa 0,0 l/m 11,8 km/h (2 Bft) W 264 2 min 0,000 mm 2,2 UV-I 495 W/m 7,9 C 8,9 C 17,7 km/h (3 Bft) 96,77 %
05.04.2017 13:14 12,0 C 76 % 1020,5 hPa 0,0 l/m 13,7 km/h (3 Bft) SW 224 2 min 0,000 mm 2,2 UV-I 544 W/m 7,9 C 8,1 C 19,3 km/h (3 Bft) 92,59 %
05.04.2017 13:16 12,2 C 77 % 1020,5 hPa 0,0 l/m 10,8 km/h (2 Bft) W-SW 253 2 min 0,000 mm 2,0 UV-I 449 W/m 8,3 C 9,6 C 14,5 km/h (3 Bft) 96,36 %
05.04.2017 13:18 12,2 C 77 % 1020,5 hPa 0,0 l/m 10,8 km/h (2 Bft) W 271 2 min 0,000 mm 1,9 UV-I 410 W/m 8,3 C 9,6 C 16,1 km/h (3 Bft) 95,83 %
05.04.2017 13:20 12,3 C 77 % 1020,5 hPa 0,0 l/m 6,6 km/h (2 Bft) SW 233 0 min 0,000 mm 1,8 UV-I 399 W/m 8,4 C 12,2 C 11,3 km/h (2 Bft) 93,18 %
05.04.2017 13:22 12,3 C 77 % 1020,4 hPa 0,0 l/m 10,0 km/h (2 Bft) SW 221 0 min 0,000 mm 1,8 UV-I 391 W/m 8,4 C 10,1 C 16,1 km/h (3 Bft) 93,10 %
05.04.2017 13:24 12,3 C 76 % 1020,4 hPa 0,0 l/m 9,3 km/h (2 Bft) W-SW 237 0 min 0,000 mm 1,7 UV-I 369 W/m 8,2 C 10,5 C 16,1 km/h (3 Bft) 92,31 %
05.04.2017 13:26 12,3 C 76 % 1020,4 hPa 0,0 l/m 11,7 km/h (2 Bft) SW 234 0 min 0,000 mm 1,6 UV-I 345 W/m 8,2 C 9,3 C 19,3 km/h (3 Bft) 96,00 %
05.04.2017 13:28 12,3 C 76 % 1020,3 hPa 0,0 l/m 12,9 km/h (3 Bft) W-SW 258 0 min 0,000 mm 1,5 UV-I 327 W/m 8,2 C 8,8 C 20,9 km/h (4 Bft) 95,45 %
05.04.2017 13:30 12,2 C 74 % 1020,4 hPa 0,0 l/m 9,5 km/h (2 Bft) W 262 0 min 0,000 mm 1,5 UV-I 309 W/m 7,7 C 10,3 C 16,1 km/h (3 Bft) 92,45 %
05.04.2017 13:32 12,2 C 75 % 1020,3 hPa 0,0 l/m 11,3 km/h (2 Bft) W 281 0 min 0,000 mm 1,5 UV-I 303 W/m 7,9 C 9,4 C 16,1 km/h (3 Bft) 96,00 %
05.04.2017 13:34 12,1 C 74 % 1020,3 hPa 0,0 l/m 11,8 km/h (2 Bft) SW 215 0 min 0,000 mm 1,4 UV-I 301 W/m 7,6 C 9,0 C 20,9 km/h (4 Bft) 100,00 %
05.04.2017 13:36 12,1 C 75 % 1020,3 hPa 0,0 l/m 12,4 km/h (3 Bft) W-SW 240 0 min 0,000 mm 1,4 UV-I 307 W/m 7,8 C 8,8 C 17,7 km/h (3 Bft) 95,12 %
05.04.2017 13:38 12,1 C 74 % 1020,3 hPa 0,0 l/m 12,0 km/h (2 Bft) W 266 0 min 0,000 mm 1,4 UV-I 312 W/m 7,6 C 8,9 C 19,3 km/h (3 Bft) 98,00 %
05.04.2017 13:40 12,1 C 75 % 1020,2 hPa 0,0 l/m 11,1 km/h (2 Bft) SW 215 0 min 0,000 mm 1,5 UV-I 336 W/m 7,8 C 9,4 C 16,1 km/h (3 Bft) 100,00 %
05.04.2017 13:42 12,2 C 75 % 1020,2 hPa 0,0 l/m 8,5 km/h (2 Bft) W-NW 287 0 min 0,000 mm 1,6 UV-I 334 W/m 7,9 C 10,9 C 14,5 km/h (3 Bft) 98,21 %
05.04.2017 13:44 12,3 C 74 % 1020,2 hPa 0,0 l/m 8,8 km/h (2 Bft) W-SW 246 0 min 0,000 mm 1,5 UV-I 316 W/m 7,8 C 10,8 C 16,1 km/h (3 Bft) 94,74 %
05.04.2017 13:46 12,3 C 73 % 1020,1 hPa 0,0 l/m 12,5 km/h (3 Bft) W-SW 245 0 min 0,000 mm 1,3 UV-I 273 W/m 7,6 C 8,9 C 22,5 km/h (4 Bft) 96,61 %
05.04.2017 13:48 12,3 C 74 % 1020,1 hPa 0,0 l/m 11,0 km/h (2 Bft) W-SW 258 0 min 0,000 mm 1,2 UV-I 253 W/m 7,8 C 9,6 C 17,7 km/h (3 Bft) 100,00 %
05.04.2017 13:50 12,2 C 73 % 1020,1 hPa 0,0 l/m 9,2 km/h (2 Bft) W 277 0 min 0,000 mm 1,3 UV-I 270 W/m 7,5 C 10,5 C 16,1 km/h (3 Bft) 96,36 %
05.04.2017 13:52 12,2 C 73 % 1020,1 hPa 0,0 l/m 10,8 km/h (2 Bft) SW 228 0 min 0,000 mm 1,3 UV-I 264 W/m 7,5 C 9,6 C 14,5 km/h (3 Bft) 98,11 %
05.04.2017 13:54 12,2 C 74 % 1020,0 hPa 0,0 l/m 12,3 km/h (3 Bft) S 186 0 min 0,000 mm 1,1 UV-I 239 W/m 7,7 C 8,9 C 17,7 km/h (3 Bft) 97,44 %
05.04.2017 13:56 12,1 C 74 % 1020,0 hPa 0,0 l/m 12,1 km/h (2 Bft) S 185 0 min 0,000 mm 1,0 UV-I 217 W/m 7,6 C 8,9 C 17,7 km/h (3 Bft) 98,36 %
05.04.2017 13:58 12,1 C 74 % 1020,0 hPa 0,0 l/m 11,3 km/h (2 Bft) SW 223 0 min 0,000 mm 1,0 UV-I 219 W/m 7,6 C 9,3 C 19,3 km/h (3 Bft) 100,00 %
05.04.2017 14:00 12,0 C 74 % 1020,0 hPa 0,0 l/m 8,8 km/h (2 Bft) W-SW 250 0 min 0,000 mm 1,0 UV-I 228 W/m 7,5 C 10,5 C 16,1 km/h (3 Bft) 97,78 %
05.04.2017 14:02 12,0 C 75 % 1020,0 hPa 0,0 l/m 12,0 km/h (2 Bft) S-SW 205 0 min 0,203 mm 1,1 UV-I 242 W/m 7,7 C 8,8 C 20,9 km/h (4 Bft) 94,00 %
05.04.2017 14:04 12,1 C 72 % 1019,9 hPa 0,0 l/m 12,0 km/h (2 Bft) SW 218 0 min 0,000 mm 1,3 UV-I 281 W/m 7,2 C 8,9 C 17,7 km/h (3 Bft) 94,34 %
05.04.2017 14:06 12,1 C 72 % 1019,8 hPa 0,0 l/m 14,0 km/h (3 Bft) W-SW 242 0 min 0,000 mm 1,4 UV-I 314 W/m 7,2 C 8,1 C 20,9 km/h (4 Bft) 100,00 %
05.04.2017 14:08 12,2 C 72 % 1019,8 hPa 0,0 l/m 11,7 km/h (2 Bft) W 262 0 min 0,000 mm 1,5 UV-I 329 W/m 7,3 C 9,2 C 16,1 km/h (3 Bft) 96,00 %
05.04.2017 14:10 12,3 C 73 % 1019,8 hPa 0,0 l/m 10,2 km/h (2 Bft) W 271 0 min 0,000 mm 1,4 UV-I 328 W/m 7,6 C 10,0 C 14,5 km/h (3 Bft) 97,87 %
05.04.2017 14:12 12,4 C 72 % 1019,8 hPa 0,0 l/m 15,8 km/h (3 Bft) W-SW 240 0 min 0,000 mm 1,4 UV-I 316 W/m 7,5 C 7,7 C 22,5 km/h (4 Bft) 96,00 %
05.04.2017 14:14 12,5 C 70 % 1019,8 hPa 0,0 l/m 11,2 km/h (2 Bft) W-SW 255 0 min 0,000 mm 1,4 UV-I 307 W/m 7,2 C 9,8 C 14,5 km/h (3 Bft) 100,00 %
05.04.2017 14:16 12,6 C 65 % 1019,8 hPa 0,0 l/m 12,2 km/h (2 Bft) W 272 0 min 0,000 mm 1,4 UV-I 305 W/m 6,2 C 9,4 C 17,7 km/h (3 Bft) 100,00 %
05.04.2017 14:18 12,6 C 63 % 1019,8 hPa 0,0 l/m 8,5 km/h (2 Bft) W-SW 238 0 min 0,000 mm 1,5 UV-I 320 W/m 5,7 C 11,3 C 16,1 km/h (3 Bft) 97,56 %
05.04.2017 14:20 12,6 C 62 % 1019,8 hPa 0,0 l/m 10,7 km/h (2 Bft) W 272 0 min 0,000 mm 1,5 UV-I 346 W/m 5,5 C 10,1 C 14,5 km/h (3 Bft) 95,45 %
05.04.2017 14:22 12,7 C 63 % 1019,8 hPa 0,0 l/m 12,3 km/h (3 Bft) SW 224 0 min 0,000 mm 1,6 UV-I 366 W/m 5,8 C 9,5 C 20,9 km/h (4 Bft) 96,43 %
05.04.2017 14:24 12,7 C 62 % 1019,7 hPa 0,2 l/m 14,8 km/h (3 Bft) W 269 2 min 0,000 mm 1,7 UV-I 421 W/m 5,6 C 8,5 C 22,5 km/h (4 Bft) 97,56 %
05.04.2017 14:26 12,8 C 61 % 1019,7 hPa 0,0 l/m 10,7 km/h (2 Bft) W-SW 243 2 min 0,000 mm 1,7 UV-I 407 W/m 5,5 C 10,3 C 19,3 km/h (3 Bft) 96,23 %
05.04.2017 14:28 12,8 C 62 % 1019,7 hPa 0,0 l/m 8,8 km/h (2 Bft) W-SW 255 0 min 0,000 mm 1,7 UV-I 385 W/m 5,7 C 11,3 C 16,1 km/h (3 Bft) 100,00 %
05.04.2017 14:30 12,9 C 65 % 1019,7 hPa 0,0 l/m 9,1 km/h (2 Bft) W-SW 250 0 min 0,000 mm 1,6 UV-I 370 W/m 6,5 C 11,3 C 12,9 km/h (3 Bft) 98,18 %
05.04.2017 14:32 13,0 C 65 % 1019,7 hPa 0,0 l/m 8,5 km/h (2 Bft) W-SW 249 0 min 0,000 mm 1,7 UV-I 379 W/m 6,6 C 11,7 C 16,1 km/h (3 Bft) 92,86 %
05.04.2017 14:34 13,1 C 66 % 1019,6 hPa 0,0 l/m 5,1 km/h (1 Bft) W 261 2 min 0,000 mm 1,7 UV-I 397 W/m 6,9 C 13,1 C 8,0 km/h (2 Bft) 100,00 %
05.04.2017 14:36 13,3 C 61 % 1019,6 hPa 0,0 l/m 6,3 km/h (2 Bft) SW 232 2 min 0,000 mm 1,8 UV-I 477 W/m 5,9 C 13,3 C 14,5 km/h (3 Bft) 100,00 %
05.04.2017 14:38 13,3 C 57 % 1019,5 hPa 0,0 l/m 9,7 km/h (2 Bft) W-SW 254 2 min 0,000 mm 1,9 UV-I 448 W/m 5,0 C 11,4 C 14,5 km/h (3 Bft) 96,00 %
05.04.2017 14:40 13,4 C 57 % 1019,5 hPa 0,0 l/m 7,4 km/h (2 Bft) W-SW 245 2 min 0,000 mm 1,9 UV-I 440 W/m 5,1 C 12,8 C 12,9 km/h (3 Bft) 97,56 %
05.04.2017 14:42 13,4 C 55 % 1019,4 hPa 0,0 l/m 11,7 km/h (2 Bft) W-SW 242 2 min 0,000 mm 1,8 UV-I 429 W/m 4,5 C 10,6 C 22,5 km/h (4 Bft) 96,23 %
05.04.2017 14:44 13,3 C 56 % 1019,5 hPa 0,0 l/m 7,8 km/h (2 Bft) W 268 2 min 0,000 mm 1,8 UV-I 407 W/m 4,7 C 12,4 C 12,9 km/h (3 Bft) 92,68 %
05.04.2017 14:46 13,3 C 56 % 1019,5 hPa 0,0 l/m 8,0 km/h (2 Bft) W-NW 287 2 min 0,000 mm 1,7 UV-I 383 W/m 4,7 C 12,3 C 14,5 km/h (3 Bft) 94,29 %
05.04.2017 14:48 13,3 C 54 % 1019,5 hPa 0,0 l/m 10,8 km/h (2 Bft) W 261 0 min 0,000 mm 1,6 UV-I 374 W/m 4,2 C 10,9 C 17,7 km/h (3 Bft) 98,21 %
05.04.2017 14:50 13,2 C 53 % 1019,4 hPa 0,0 l/m 11,4 km/h (2 Bft) W-SW 238 0 min 0,000 mm 1,6 UV-I 368 W/m 3,8 C 10,5 C 16,1 km/h (3 Bft) 96,00 %
05.04.2017 14:52 13,3 C 56 % 1019,5 hPa 0,0 l/m 7,6 km/h (2 Bft) W 269 0 min 0,000 mm 1,6 UV-I 371 W/m 4,7 C 12,6 C 16,1 km/h (3 Bft) 97,56 %
05.04.2017 14:54 13,3 C 57 % 1019,4 hPa 0,0 l/m 12,4 km/h (3 Bft) W 281 2 min 0,000 mm 1,6 UV-I 377 W/m 5,0 C 10,1 C 20,9 km/h (4 Bft) 89,47 %
05.04.2017 14:56 13,3 C 55 % 1019,4 hPa 0,0 l/m 7,8 km/h (2 Bft) W 264 2 min 0,000 mm 1,6 UV-I 371 W/m 4,5 C 12,4 C 12,9 km/h (3 Bft) 88,89 %
05.04.2017 14:58 13,4 C 59 % 1019,3 hPa 0,0 l/m 4,4 km/h (1 Bft) W 259 0 min 0,000 mm 1,6 UV-I 361 W/m 5,6 C 13,4 C 11,3 km/h (2 Bft) 95,45 %
05.04.2017 15:00 13,5 C 56 % 1019,3 hPa 0,0 l/m 9,4 km/h (2 Bft) W-SW 254 0 min 0,000 mm 1,5 UV-I 344 W/m 4,9 C 11,8 C 16,1 km/h (3 Bft) 95,08 %
05.04.2017 15:02 13,5 C 51 % 1019,3 hPa 0,0 l/m 14,8 km/h (3 Bft) W-SW 254 0 min 0,229 mm 1,5 UV-I 336 W/m 3,6 C 9,4 C 24,1 km/h (4 Bft) 100,00 %
05.04.2017 15:04 13,4 C 51 % 1019,3 hPa 0,0 l/m 15,3 km/h (3 Bft) W-SW 257 0 min 0,000 mm 1,4 UV-I 327 W/m 3,5 C 9,1 C 22,5 km/h (4 Bft) 95,12 %
05.04.2017 15:06 13,3 C 53 % 1019,3 hPa 0,0 l/m 16,1 km/h (3 Bft) W-SW 252 0 min 0,000 mm 1,4 UV-I 322 W/m 3,9 C 8,7 C 22,5 km/h (4 Bft) 96,23 %
05.04.2017 15:08 13,3 C 53 % 1019,3 hPa 0,0 l/m 13,4 km/h (3 Bft) W 265 0 min 0,000 mm 1,4 UV-I 333 W/m 3,9 C 9,7 C 19,3 km/h (3 Bft) 96,43 %
05.04.2017 15:10 13,3 C 56 % 1019,2 hPa 0,0 l/m 6,9 km/h (2 Bft) W 271 0 min 0,000 mm 1,4 UV-I 334 W/m 4,7 C 13,0 C 14,5 km/h (3 Bft) 92,68 %
05.04.2017 15:12 13,3 C 56 % 1019,2 hPa 0,0 l/m 7,7 km/h (2 Bft) W-SW 244 0 min 0,000 mm 1,3 UV-I 312 W/m 4,7 C 12,5 C 14,5 km/h (3 Bft) 94,34 %
05.04.2017 15:14 13,3 C 56 % 1019,2 hPa 0,0 l/m 13,1 km/h (3 Bft) SW 233 0 min 0,000 mm 1,3 UV-I 296 W/m 4,7 C 9,9 C 20,9 km/h (4 Bft) 92,68 %
05.04.2017 15:16 13,3 C 57 % 1019,2 hPa 0,0 l/m 16,7 km/h (3 Bft) W 263 0 min 0,000 mm 1,2 UV-I 288 W/m 5,0 C 8,5 C 22,5 km/h (4 Bft) 97,73 %
05.04.2017 15:18 13,2 C 58 % 1019,2 hPa 0,0 l/m 12,2 km/h (2 Bft) SW 234 0 min 0,000 mm 1,2 UV-I 281 W/m 5,1 C 10,1 C 19,3 km/h (3 Bft) 96,23 %
05.04.2017 15:20 13,3 C 58 % 1019,2 hPa 0,0 l/m 12,7 km/h (3 Bft) W-SW 245 0 min 0,000 mm 1,1 UV-I 278 W/m 5,2 C 10,0 C 19,3 km/h (3 Bft) 100,00 %
05.04.2017 15:22 13,2 C 58 % 1019,2 hPa 0,0 l/m 11,1 km/h (2 Bft) W 262 0 min 0,000 mm 1,1 UV-I 279 W/m 5,1 C 10,6 C 17,7 km/h (3 Bft) 97,62 %
05.04.2017 15:24 13,2 C 60 % 1019,2 hPa 0,0 l/m 18,0 km/h (3 Bft) W-SW 250 0 min 0,000 mm 1,1 UV-I 283 W/m 5,6 C 8,0 C 29,0 km/h (5 Bft) 98,21 %
05.04.2017 15:26 13,2 C 60 % 1019,1 hPa 0,0 l/m 19,1 km/h (3 Bft) SW 221 0 min 0,000 mm 1,1 UV-I 283 W/m 5,6 C 7,7 C 25,7 km/h (4 Bft) 97,87 %
05.04.2017 15:28 13,2 C 60 % 1019,1 hPa 0,0 l/m 18,9 km/h (3 Bft) W 267 0 min 0,000 mm 1,2 UV-I 293 W/m 5,6 C 7,7 C 24,1 km/h (4 Bft) 89,74 %
05.04.2017 15:30 13,1 C 61 % 1019,1 hPa 0,0 l/m 10,6 km/h (2 Bft) W-SW 244 0 min 0,000 mm 1,2 UV-I 310 W/m 5,8 C 10,7 C 16,1 km/h (3 Bft) 96,00 %
05.04.2017 15:32 13,2 C 63 % 1019,0 hPa 0,0 l/m 14,6 km/h (3 Bft) SW 228 0 min 0,000 mm 1,2 UV-I 314 W/m 6,3 C 9,2 C 19,3 km/h (3 Bft) 94,00 %
05.04.2017 15:34 13,2 C 62 % 1019,0 hPa 0,0 l/m 13,6 km/h (3 Bft) W 275 0 min 0,000 mm 1,2 UV-I 306 W/m 6,1 C 9,5 C 22,5 km/h (4 Bft) 95,12 %
05.04.2017 15:36 13,3 C 62 % 1019,0 hPa 0,0 l/m 12,3 km/h (3 Bft) W-SW 250 0 min 0,000 mm 1,1 UV-I 284 W/m 6,2 C 10,2 C 20,9 km/h (4 Bft) 98,00 %
05.04.2017 15:38 13,3 C 64 % 1019,0 hPa 0,0 l/m 10,0 km/h (2 Bft) W 259 0 min 0,000 mm 1,0 UV-I 259 W/m 6,6 C 11,2 C 16,1 km/h (3 Bft) 92,00 %
05.04.2017 15:40 13,3 C 63 % 1018,9 hPa 0,0 l/m 10,9 km/h (2 Bft) W-SW 250 0 min 0,000 mm 0,9 UV-I 252 W/m 6,4 C 10,8 C 17,7 km/h (3 Bft) 95,74 %
05.04.2017 15:42 13,3 C 64 % 1018,9 hPa 0,0 l/m 10,4 km/h (2 Bft) W-SW 237 0 min 0,000 mm 1,0 UV-I 257 W/m 6,6 C 11,0 C 19,3 km/h (3 Bft) 89,47 %
05.04.2017 15:44 13,3 C 66 % 1018,9 hPa 0,0 l/m 8,0 km/h (2 Bft) SW 234 0 min 0,000 mm 1,0 UV-I 257 W/m 7,1 C 12,3 C 12,9 km/h (3 Bft) 96,00 %
05.04.2017 15:46 13,4 C 66 % 1018,9 hPa 0,0 l/m 9,9 km/h (2 Bft) W 262 0 min 0,000 mm 1,0 UV-I 258 W/m 7,2 C 11,4 C 16,1 km/h (3 Bft) 94,00 %
05.04.2017 15:48 13,3 C 65 % 1018,9 hPa 0,0 l/m 10,8 km/h (2 Bft) SW 222 0 min 0,000 mm 1,0 UV-I 261 W/m 6,9 C 10,9 C 17,7 km/h (3 Bft) 97,37 %
05.04.2017 15:50 13,3 C 66 % 1018,9 hPa 0,0 l/m 11,5 km/h (2 Bft) SW 235 0 min 0,000 mm 1,0 UV-I 259 W/m 7,1 C 10,5 C 14,5 km/h (3 Bft) 94,92 %
05.04.2017 15:52 13,2 C 65 % 1018,8 hPa 0,0 l/m 16,5 km/h (3 Bft) SW 227 0 min 0,000 mm 1,1 UV-I 265 W/m 6,8 C 8,5 C 24,1 km/h (4 Bft) 90,91 %
05.04.2017 15:54 13,2 C 65 % 1018,7 hPa 0,0 l/m 15,6 km/h (3 Bft) SW 215 0 min 0,000 mm 1,1 UV-I 282 W/m 6,8 C 8,8 C 22,5 km/h (4 Bft) 97,73 %
05.04.2017 15:56 13,1 C 65 % 1018,7 hPa 0,0 l/m 14,6 km/h (3 Bft) W 279 0 min 0,000 mm 1,1 UV-I 274 W/m 6,7 C 9,0 C 22,5 km/h (4 Bft) 96,23 %
05.04.2017 15:58 13,1 C 66 % 1018,6 hPa 0,0 l/m 10,7 km/h (2 Bft) S-SW 205 0 min 0,000 mm 1,1 UV-I 257 W/m 6,9 C 10,7 C 16,1 km/h (3 Bft) 91,49 %
05.04.2017 16:00 13,1 C 66 % 1018,6 hPa 0,0 l/m 12,8 km/h (3 Bft) SW 219 0 min 0,000 mm 1,1 UV-I 247 W/m 6,9 C 9,7 C 22,5 km/h (4 Bft) 92,11 %
05.04.2017 16:02 13,1 C 66 % 1018,6 hPa 0,0 l/m 13,8 km/h (3 Bft) SW 221 0 min 0,203 mm 1,1 UV-I 248 W/m 6,9 C 9,3 C 24,1 km/h (4 Bft) 92,45 %
05.04.2017 16:04 13,1 C 66 % 1018,6 hPa 0,0 l/m 15,9 km/h (3 Bft) S-SW 196 0 min 0,000 mm 1,1 UV-I 254 W/m 6,9 C 8,6 C 24,1 km/h (4 Bft) 92,86 %
05.04.2017 16:06 13,0 C 66 % 1018,6 hPa 0,0 l/m 16,7 km/h (3 Bft) W-SW 240 0 min 0,000 mm 1,1 UV-I 256 W/m 6,8 C 8,2 C 24,1 km/h (4 Bft) 94,00 %
05.04.2017 16:08 12,9 C 66 % 1018,6 hPa 0,0 l/m 16,9 km/h (3 Bft) S-SW 209 0 min 0,000 mm 1,1 UV-I 263 W/m 6,7 C 8,0 C 25,7 km/h (4 Bft) 95,12 %
05.04.2017 16:10 13,0 C 68 % 1018,6 hPa 0,0 l/m 13,7 km/h (3 Bft) SW 231 0 min 0,000 mm 1,0 UV-I 260 W/m 7,2 C 9,3 C 22,5 km/h (4 Bft) 97,87 %
05.04.2017 16:12 13,1 C 68 % 1018,6 hPa 0,0 l/m 13,3 km/h (3 Bft) S-SW 195 0 min 0,000 mm 1,0 UV-I 255 W/m 7,3 C 9,5 C 22,5 km/h (4 Bft) 92,45 %
05.04.2017 16:14 13,1 C 69 % 1018,6 hPa 0,0 l/m 14,1 km/h (3 Bft) SW 229 0 min 0,000 mm 1,0 UV-I 250 W/m 7,5 C 9,2 C 20,9 km/h (4 Bft) 94,00 %
05.04.2017 16:16 13,1 C 68 % 1018,6 hPa 0,0 l/m 14,8 km/h (3 Bft) S-SW 200 0 min 0,000 mm 0,9 UV-I 237 W/m 7,3 C 9,0 C 25,7 km/h (4 Bft) 89,47 %
05.04.2017 16:18 13,1 C 68 % 1018,6 hPa 0,0 l/m 15,5 km/h (3 Bft) SW 235 0 min 0,000 mm 0,8 UV-I 203 W/m 7,3 C 8,7 C 22,5 km/h (4 Bft) 87,23 %
05.04.2017 16:20 13,1 C 67 % 1018,6 hPa 0,0 l/m 15,0 km/h (3 Bft) W-SW 237 0 min 0,000 mm 0,7 UV-I 176 W/m 7,1 C 8,9 C 24,1 km/h (4 Bft) 96,43 %
05.04.2017 16:22 13,0 C 68 % 1018,7 hPa 0,0 l/m 13,7 km/h (3 Bft) SW 236 0 min 0,000 mm 0,6 UV-I 168 W/m 7,2 C 9,3 C 19,3 km/h (3 Bft) 93,62 %
05.04.2017 16:24 13,0 C 68 % 1018,6 hPa 0,0 l/m 20,6 km/h (4 Bft) SW 236 0 min 0,000 mm 0,6 UV-I 164 W/m 7,2 C 7,0 C 29,0 km/h (5 Bft) 92,68 %
05.04.2017 16:26 12,9 C 68 % 1018,5 hPa 0,0 l/m 19,7 km/h (3 Bft) W-SW 238 0 min 0,000 mm 0,7 UV-I 166 W/m 7,1 C 7,1 C 27,4 km/h (4 Bft) 100,00 %
05.04.2017 16:28 12,9 C 69 % 1018,4 hPa 0,0 l/m 14,6 km/h (3 Bft) SW 232 0 min 0,000 mm 0,7 UV-I 175 W/m 7,4 C 8,8 C 20,9 km/h (4 Bft) 96,00 %
05.04.2017 16:30 12,9 C 69 % 1018,5 hPa 0,0 l/m 15,3 km/h (3 Bft) SW 229 0 min 0,000 mm 0,7 UV-I 184 W/m 7,4 C 8,5 C 20,9 km/h (4 Bft) 90,57 %
05.04.2017 16:32 12,9 C 70 % 1018,4 hPa 0,0 l/m 11,4 km/h (2 Bft) W-SW 242 0 min 0,000 mm 0,7 UV-I 190 W/m 7,6 C 10,1 C 17,7 km/h (3 Bft) 96,00 %
05.04.2017 16:34 12,9 C 69 % 1018,4 hPa 0,0 l/m 16,5 km/h (3 Bft) W-SW 239 0 min 0,000 mm 0,7 UV-I 179 W/m 7,4 C 8,1 C 27,4 km/h (4 Bft) 97,56 %
05.04.2017 16:36 12,9 C 69 % 1018,4 hPa 0,0 l/m 15,6 km/h (3 Bft) SW 223 0 min 0,000 mm 0,7 UV-I 167 W/m 7,4 C 8,4 C 24,1 km/h (4 Bft) 93,18 %
05.04.2017 16:38 12,9 C 68 % 1018,4 hPa 0,0 l/m 16,4 km/h (3 Bft) SW 232 0 min 0,000 mm 0,7 UV-I 188 W/m 7,1 C 8,2 C 24,1 km/h (4 Bft) 90,00 %
05.04.2017 16:40 12,9 C 68 % 1018,3 hPa 0,0 l/m 20,4 km/h (4 Bft) W-SW 247 0 min 0,000 mm 0,8 UV-I 219 W/m 7,1 C 6,9 C 30,6 km/h (5 Bft) 94,00 %
05.04.2017 16:42 12,9 C 68 % 1018,3 hPa 0,0 l/m 17,6 km/h (3 Bft) W-SW 246 0 min 0,000 mm 0,8 UV-I 213 W/m 7,1 C 7,8 C 22,5 km/h (4 Bft) 95,00 %
05.04.2017 16:44 12,9 C 69 % 1018,3 hPa 0,0 l/m 16,0 km/h (3 Bft) W-SW 239 0 min 0,000 mm 0,8 UV-I 222 W/m 7,4 C 8,3 C 20,9 km/h (4 Bft) 92,86 %
05.04.2017 16:46 12,9 C 69 % 1018,3 hPa 0,0 l/m 16,1 km/h (3 Bft) W 266 0 min 0,000 mm 0,8 UV-I 246 W/m 7,4 C 8,3 C 25,7 km/h (4 Bft) 90,91 %
05.04.2017 16:48 13,1 C 69 % 1018,3 hPa 0,0 l/m 15,0 km/h (3 Bft) W-SW 248 2 min 0,000 mm 0,8 UV-I 366 W/m 7,5 C 8,9 C 22,5 km/h (4 Bft) 94,00 %
05.04.2017 16:50 13,1 C 68 % 1018,3 hPa 0,0 l/m 15,9 km/h (3 Bft) W-NW 284 0 min 0,000 mm 0,7 UV-I 235 W/m 7,3 C 8,6 C 25,7 km/h (4 Bft) 100,00 %
05.04.2017 16:52 13,1 C 68 % 1018,3 hPa 0,0 l/m 15,4 km/h (3 Bft) W-SW 240 2 min 0,000 mm 0,8 UV-I 318 W/m 7,3 C 8,7 C 27,4 km/h (4 Bft) 93,62 %
05.04.2017 16:54 13,2 C 69 % 1018,3 hPa 0,0 l/m 15,5 km/h (3 Bft) W-SW 257 2 min 0,000 mm 0,8 UV-I 422 W/m 7,6 C 8,8 C 24,1 km/h (4 Bft) 96,00 %
05.04.2017 16:56 13,3 C 69 % 1018,2 hPa 0,0 l/m 20,1 km/h (4 Bft) S-SW 205 2 min 0,000 mm 0,8 UV-I 394 W/m 7,7 C 7,5 C 27,4 km/h (4 Bft) 97,37 %
05.04.2017 16:58 13,3 C 67 % 1018,3 hPa 0,0 l/m 16,1 km/h (3 Bft) SW 224 2 min 0,000 mm 0,7 UV-I 360 W/m 7,3 C 8,7 C 24,1 km/h (4 Bft) 94,64 %
05.04.2017 17:00 13,3 C 67 % 1018,3 hPa 0,0 l/m 14,2 km/h (3 Bft) W-SW 250 2 min 0,178 mm 0,7 UV-I 253 W/m 7,3 C 9,4 C 20,9 km/h (4 Bft) 93,62 %
05.04.2017 17:02 13,2 C 67 % 1018,2 hPa 0,0 l/m 15,0 km/h (3 Bft) W-SW 245 0 min 0,000 mm 0,7 UV-I 211 W/m 7,2 C 9,0 C 24,1 km/h (4 Bft) 93,62 %
05.04.2017 17:04 13,2 C 67 % 1018,1 hPa 0,0 l/m 12,2 km/h (2 Bft) S 187 0 min 0,000 mm 0,7 UV-I 228 W/m 7,2 C 10,1 C 19,3 km/h (3 Bft) 95,74 %
05.04.2017 17:06 13,1 C 66 % 1018,2 hPa 0,0 l/m 16,3 km/h (3 Bft) SW 232 2 min 0,000 mm 0,7 UV-I 267 W/m 6,9 C 8,4 C 24,1 km/h (4 Bft) 94,74 %
05.04.2017 17:08 13,1 C 67 % 1018,2 hPa 0,0 l/m 14,7 km/h (3 Bft) SW 215 0 min 0,000 mm 0,6 UV-I 183 W/m 7,1 C 9,0 C 20,9 km/h (4 Bft) 98,00 %
05.04.2017 17:10 13,0 C 67 % 1018,1 hPa 0,0 l/m 19,3 km/h (3 Bft) W 261 0 min 0,000 mm 0,6 UV-I 180 W/m 7,0 C 7,4 C 25,7 km/h (4 Bft) 96,23 %
05.04.2017 17:12 12,9 C 67 % 1018,0 hPa 0,0 l/m 19,9 km/h (4 Bft) W-SW 242 0 min 0,000 mm 0,6 UV-I 192 W/m 6,9 C 7,1 C 27,4 km/h (4 Bft) 97,56 %
05.04.2017 17:14 12,8 C 67 % 1018,1 hPa 0,0 l/m 16,8 km/h (3 Bft) W-SW 252 0 min 0,000 mm 0,6 UV-I 197 W/m 6,8 C 7,9 C 20,9 km/h (4 Bft) 98,08 %
05.04.2017 17:16 12,8 C 68 % 1018,0 hPa 0,0 l/m 14,0 km/h (3 Bft) SW 234 0 min 0,000 mm 0,6 UV-I 170 W/m 7,0 C 8,9 C 20,9 km/h (4 Bft) 98,00 %
05.04.2017 17:18 12,8 C 69 % 1018,0 hPa 0,0 l/m 17,3 km/h (3 Bft) SW 230 0 min 0,000 mm 0,6 UV-I 169 W/m 7,3 C 7,7 C 25,7 km/h (4 Bft) 86,11 %
05.04.2017 17:20 12,8 C 70 % 1018,0 hPa 0,0 l/m 17,2 km/h (3 Bft) W-SW 244 0 min 0,000 mm 0,5 UV-I 170 W/m 7,5 C 7,8 C 25,7 km/h (4 Bft) 98,00 %
05.04.2017 17:22 12,8 C 70 % 1018,0 hPa 0,0 l/m 13,5 km/h (3 Bft) W 275 0 min 0,000 mm 0,5 UV-I 167 W/m 7,5 C 9,1 C 22,5 km/h (4 Bft) 97,73 %
05.04.2017 17:24 12,8 C 69 % 1018,0 hPa 0,0 l/m 20,2 km/h (4 Bft) SW 231 0 min 0,000 mm 0,5 UV-I 178 W/m 7,3 C 6,8 C 29,0 km/h (5 Bft) 94,64 %
05.04.2017 17:26 12,8 C 69 % 1018,0 hPa 0,0 l/m 18,5 km/h (3 Bft) W-SW 238 2 min 0,000 mm 0,5 UV-I 240 W/m 7,3 C 7,3 C 25,7 km/h (4 Bft) 95,45 %
05.04.2017 17:28 12,8 C 69 % 1018,0 hPa 0,0 l/m 18,2 km/h (3 Bft) S 171 2 min 0,000 mm 0,5 UV-I 243 W/m 7,3 C 7,4 C 27,4 km/h (4 Bft) 96,15 %
05.04.2017 17:30 12,8 C 69 % 1018,0 hPa 0,0 l/m 17,2 km/h (3 Bft) W-SW 251 2 min 0,000 mm 0,2 UV-I 201 W/m 7,3 C 7,8 C 25,7 km/h (4 Bft) 95,77 %
05.04.2017 17:32 12,8 C 69 % 1017,9 hPa 0,0 l/m 16,8 km/h (3 Bft) W-SW 254 0 min 0,000 mm 0,0 UV-I 174 W/m 7,3 C 7,9 C 25,7 km/h (4 Bft) 97,37 %
05.04.2017 17:34 12,8 C 68 % 1017,8 hPa 0,0 l/m 15,9 km/h (3 Bft) W-SW 246 0 min 0,000 mm 0,0 UV-I 126 W/m 7,0 C 8,2 C 29,0 km/h (5 Bft) 98,11 %
05.04.2017 17:36 12,8 C 68 % 1017,9 hPa 0,0 l/m 14,9 km/h (3 Bft) W-SW 237 0 min 0,000 mm 0,0 UV-I 120 W/m 7,0 C 8,6 C 24,1 km/h (4 Bft) 97,73 %
05.04.2017 17:38 12,7 C 69 % 1017,8 hPa 0,0 l/m 16,4 km/h (3 Bft) W-SW 248 0 min 0,000 mm 0,0 UV-I 133 W/m 7,2 C 7,9 C 27,4 km/h (4 Bft) 88,68 %
05.04.2017 17:40 12,7 C 70 % 1017,9 hPa 0,0 l/m 17,9 km/h (3 Bft) W-SW 238 0 min 0,000 mm 0,0 UV-I 154 W/m 7,4 C 7,4 C 29,0 km/h (5 Bft) 97,56 %
05.04.2017 17:42 12,6 C 70 % 1017,8 hPa 0,0 l/m 20,0 km/h (4 Bft) SW 226 2 min 0,000 mm 0,0 UV-I 198 W/m 7,3 C 6,6 C 25,7 km/h (4 Bft) 97,73 %
05.04.2017 17:44 12,7 C 70 % 1017,9 hPa 0,0 l/m 18,3 km/h (3 Bft) W 271 2 min 0,000 mm 0,0 UV-I 239 W/m 7,4 C 7,3 C 29,0 km/h (5 Bft) 95,74 %
05.04.2017 17:46 12,8 C 70 % 1017,8 hPa 0,0 l/m 14,2 km/h (3 Bft) W-SW 242 2 min 0,000 mm 0,0 UV-I 210 W/m 7,5 C 8,8 C 30,6 km/h (5 Bft) 100,00 %
05.04.2017 17:48 12,8 C 69 % 1017,8 hPa 0,0 l/m 21,3 km/h (4 Bft) W 261 2 min 0,000 mm 0,0 UV-I 225 W/m 7,3 C 6,5 C 32,2 km/h (5 Bft) 95,12 %
05.04.2017 17:50 12,8 C 68 % 1017,9 hPa 0,0 l/m 20,6 km/h (4 Bft) S-SW 198 2 min 0,000 mm 0,0 UV-I 241 W/m 7,0 C 6,7 C 29,0 km/h (5 Bft) 93,62 %
05.04.2017 17:52 12,8 C 69 % 1017,8 hPa 0,0 l/m 16,9 km/h (3 Bft) SW 233 2 min 0,000 mm 0,0 UV-I 243 W/m 7,3 C 7,9 C 30,6 km/h (5 Bft) 96,43 %
05.04.2017 17:54 12,8 C 69 % 1017,8 hPa 0,0 l/m 17,3 km/h (3 Bft) SW 236 2 min 0,000 mm 0,0 UV-I 182 W/m 7,3 C 7,7 C 29,0 km/h (5 Bft) 100,00 %
05.04.2017 17:56 12,8 C 68 % 1017,8 hPa 0,0 l/m 18,4 km/h (3 Bft) W-SW 244 2 min 0,000 mm 0,0 UV-I 158 W/m 7,0 C 7,4 C 25,7 km/h (4 Bft) 98,11 %
05.04.2017 17:58 12,7 C 69 % 1017,8 hPa 0,0 l/m 22,2 km/h (4 Bft) W-SW 244 2 min 0,000 mm 0,0 UV-I 169 W/m 7,2 C 6,2 C 29,0 km/h (5 Bft) 93,33 %
05.04.2017 18:00 12,6 C 69 % 1017,8 hPa 0,0 l/m 20,7 km/h (4 Bft) SW 228 2 min 0,152 mm 0,0 UV-I 170 W/m 7,1 C 6,4 C 32,2 km/h (5 Bft) 96,00 %
05.04.2017 18:02 12,6 C 69 % 1017,8 hPa 0,0 l/m 22,3 km/h (4 Bft) W-SW 238 2 min 0,000 mm 0,0 UV-I 199 W/m 7,1 C 6,0 C 29,0 km/h (5 Bft) 97,14 %
05.04.2017 18:04 12,6 C 69 % 1017,8 hPa 0,0 l/m 21,4 km/h (4 Bft) W-SW 246 2 min 0,000 mm 0,0 UV-I 191 W/m 7,1 C 6,3 C 32,2 km/h (5 Bft) 97,30 %
05.04.2017 18:06 12,6 C 69 % 1017,8 hPa 0,0 l/m 18,7 km/h (3 Bft) W-SW 242 2 min 0,000 mm 0,0 UV-I 166 W/m 7,1 C 7,0 C 24,1 km/h (4 Bft) 100,00 %
05.04.2017 18:08 12,6 C 69 % 1017,7 hPa 0,0 l/m 16,8 km/h (3 Bft) SW 217 2 min 0,000 mm 0,0 UV-I 158 W/m 7,1 C 7,6 C 27,4 km/h (4 Bft) 97,37 %
05.04.2017 18:10 12,5 C 69 % 1017,7 hPa 0,0 l/m 20,2 km/h (4 Bft) W-SW 240 2 min 0,000 mm 0,0 UV-I 144 W/m 7,0 C 6,5 C 29,0 km/h (5 Bft) 98,11 %
05.04.2017 18:12 12,5 C 70 % 1017,7 hPa 0,0 l/m 14,6 km/h (3 Bft) W-SW 243 2 min 0,000 mm 0,0 UV-I 132 W/m 7,2 C 8,3 C 25,7 km/h (4 Bft) 95,45 %
05.04.2017 18:14 12,4 C 70 % 1017,6 hPa 0,0 l/m 19,5 km/h (3 Bft) W 261 2 min 0,000 mm 0,0 UV-I 130 W/m 7,1 C 6,5 C 27,4 km/h (4 Bft) 90,24 %
05.04.2017 18:16 12,4 C 70 % 1017,7 hPa 0,0 l/m 19,5 km/h (3 Bft) SW 236 0 min 0,000 mm 0,0 UV-I 108 W/m 7,1 C 6,5 C 30,6 km/h (5 Bft) 96,00 %
05.04.2017 18:18 12,3 C 71 % 1017,7 hPa 0,0 l/m 16,0 km/h (3 Bft) SW 227 0 min 0,000 mm 0,0 UV-I 84 W/m 7,2 C 7,6 C 22,5 km/h (4 Bft) 91,49 %
05.04.2017 18:20 12,2 C 70 % 1017,7 hPa 0,0 l/m 23,6 km/h (4 Bft) SW 227 0 min 0,000 mm 0,0 UV-I 79 W/m 6,9 C 5,2 C 33,8 km/h (5 Bft) 95,92 %
05.04.2017 18:22 12,2 C 71 % 1017,7 hPa 0,0 l/m 22,5 km/h (4 Bft) SW 223 0 min 0,000 mm 0,0 UV-I 90 W/m 7,1 C 5,4 C 30,6 km/h (5 Bft) 100,00 %
05.04.2017 18:24 12,1 C 71 % 1017,7 hPa 0,0 l/m 16,9 km/h (3 Bft) W 263 0 min 0,000 mm 0,0 UV-I 92 W/m 7,0 C 7,0 C 29,0 km/h (5 Bft) 97,56 %
05.04.2017 18:26 12,1 C 72 % 1017,6 hPa 0,0 l/m 15,7 km/h (3 Bft) W-SW 244 0 min 0,000 mm 0,0 UV-I 89 W/m 7,2 C 7,4 C 22,5 km/h (4 Bft) 100,00 %
05.04.2017 18:28 12,1 C 72 % 1017,7 hPa 0,0 l/m 17,7 km/h (3 Bft) SW 226 0 min 0,000 mm 0,0 UV-I 85 W/m 7,2 C 6,7 C 27,4 km/h (4 Bft) 91,07 %
05.04.2017 18:30 12,1 C 72 % 1017,7 hPa 0,0 l/m 15,7 km/h (3 Bft) S-SW 207 0 min 0,000 mm 0,0 UV-I 82 W/m 7,2 C 7,4 C 22,5 km/h (4 Bft) 90,00 %
05.04.2017 18:32 12,0 C 72 % 1017,7 hPa 0,0 l/m 17,0 km/h (3 Bft) SW 224 0 min 0,000 mm 0,0 UV-I 78 W/m 7,1 C 6,8 C 32,2 km/h (5 Bft) 97,73 %
05.04.2017 18:34 12,0 C 72 % 1017,7 hPa 0,0 l/m 18,9 km/h (3 Bft) SW 232 0 min 0,000 mm 0,0 UV-I 72 W/m 7,1 C 6,2 C 29,0 km/h (5 Bft) 97,87 %
05.04.2017 18:36 11,9 C 72 % 1017,7 hPa 0,0 l/m 21,1 km/h (4 Bft) SW 232 0 min 0,000 mm 0,0 UV-I 62 W/m 7,0 C 5,4 C 25,7 km/h (4 Bft) 97,62 %
05.04.2017 18:38 11,9 C 73 % 1017,8 hPa 0,0 l/m 15,7 km/h (3 Bft) W-SW 237 0 min 0,000 mm 0,0 UV-I 54 W/m 7,2 C 7,2 C 24,1 km/h (4 Bft) 89,47 %
05.04.2017 18:40 11,8 C 73 % 1017,7 hPa 0,0 l/m 17,0 km/h (3 Bft) W-SW 240 0 min 0,000 mm 0,0 UV-I 49 W/m 7,1 C 6,6 C 22,5 km/h (4 Bft) 96,77 %
05.04.2017 18:42 11,8 C 73 % 1017,7 hPa 0,0 l/m 19,4 km/h (3 Bft) W-SW 246 0 min 0,000 mm 0,0 UV-I 47 W/m 7,1 C 5,8 C 29,0 km/h (5 Bft) 95,12 %
05.04.2017 18:44 11,8 C 73 % 1017,8 hPa 0,0 l/m 15,5 km/h (3 Bft) S-SW 213 0 min 0,000 mm 0,0 UV-I 43 W/m 7,1 C 7,1 C 22,5 km/h (4 Bft) 96,00 %
05.04.2017 18:46 11,7 C 73 % 1017,8 hPa 0,0 l/m 14,4 km/h (3 Bft) W-SW 242 0 min 0,000 mm 0,0 UV-I 40 W/m 7,0 C 7,4 C 24,1 km/h (4 Bft) 94,00 %
05.04.2017 18:48 11,6 C 74 % 1017,8 hPa 0,0 l/m 15,9 km/h (3 Bft) SW 224 0 min 0,000 mm 0,0 UV-I 37 W/m 7,1 C 6,7 C 24,1 km/h (4 Bft) 95,74 %
05.04.2017 18:50 11,6 C 74 % 1017,9 hPa 0,0 l/m 16,3 km/h (3 Bft) SW 219 0 min 0,000 mm 0,0 UV-I 34 W/m 7,1 C 6,6 C 25,7 km/h (4 Bft) 97,73 %
05.04.2017 18:52 11,5 C 74 % 1017,9 hPa 0,0 l/m 13,7 km/h (3 Bft) W-SW 246 0 min 0,000 mm 0,0 UV-I 32 W/m 7,0 C 7,5 C 24,1 km/h (4 Bft) 97,37 %
05.04.2017 18:54 11,5 C 74 % 1017,8 hPa 0,0 l/m 15,5 km/h (3 Bft) SW 225 0 min 0,000 mm 0,0 UV-I 32 W/m 7,0 C 6,8 C 22,5 km/h (4 Bft) 94,34 %
05.04.2017 18:56 11,4 C 74 % 1017,8 hPa 0,0 l/m 14,6 km/h (3 Bft) W-SW 241 0 min 0,000 mm 0,0 UV-I 30 W/m 6,9 C 7,0 C 22,5 km/h (4 Bft) 98,11 %
05.04.2017 18:58 11,4 C 74 % 1017,9 hPa 0,0 l/m 16,1 km/h (3 Bft) W-SW 257 0 min 0,000 mm 0,0 UV-I 31 W/m 6,9 C 6,4 C 24,1 km/h (4 Bft) 97,14 %
05.04.2017 19:00 11,4 C 74 % 1017,8 hPa 0,0 l/m 14,4 km/h (3 Bft) S-SW 196 0 min 0,000 mm 0,0 UV-I 32 W/m 6,9 C 7,1 C 19,3 km/h (3 Bft) 91,07 %
05.04.2017 19:02 11,4 C 75 % 1017,8 hPa 0,0 l/m 13,0 km/h (3 Bft) SW 224 0 min 0,102 mm 0,0 UV-I 33 W/m 7,1 C 7,7 C 20,9 km/h (4 Bft) 92,11 %
05.04.2017 19:04 11,4 C 75 % 1017,8 hPa 0,0 l/m 14,0 km/h (3 Bft) W-SW 243 0 min 0,000 mm 0,0 UV-I 32 W/m 7,1 C 7,2 C 22,5 km/h (4 Bft) 96,43 %
05.04.2017 19:06 11,4 C 75 % 1017,8 hPa 0,0 l/m 15,6 km/h (3 Bft) SW 234 0 min 0,000 mm 0,0 UV-I 29 W/m 7,1 C 6,6 C 24,1 km/h (4 Bft) 97,50 %
05.04.2017 19:08 11,4 C 74 % 1017,8 hPa 0,0 l/m 14,0 km/h (3 Bft) W-SW 242 0 min 0,000 mm 0,0 UV-I 26 W/m 6,9 C 7,2 C 20,9 km/h (4 Bft) 91,07 %
05.04.2017 19:10 11,4 C 75 % 1017,8 hPa 0,0 l/m 13,2 km/h (3 Bft) W 268 0 min 0,000 mm 0,0 UV-I 25 W/m 7,1 C 7,6 C 19,3 km/h (3 Bft) 100,00 %
05.04.2017 19:13 11,3 C 75 % 1017,8 hPa 0,0 l/m 15,4 km/h (3 Bft) SW 234 0 min 0,000 mm 0,0 UV-I 22 W/m 7,0 C 6,6 C 24,1 km/h (4 Bft) 98,75 %
05.04.2017 19:14 11,3 C 75 % 1017,8 hPa 0,0 l/m 12,3 km/h (3 Bft) SW 218 0 min 0,000 mm 0,0 UV-I 21 W/m 7,0 C 7,9 C 17,7 km/h (3 Bft) 100,00 %
05.04.2017 19:16 11,3 C 75 % 1017,9 hPa 0,0 l/m 13,4 km/h (3 Bft) W-SW 256 0 min 0,000 mm 0,0 UV-I 19 W/m 7,0 C 7,4 C 20,9 km/h (4 Bft) 90,00 %
05.04.2017 19:18 11,3 C 75 % 1017,9 hPa 0,0 l/m 16,1 km/h (3 Bft) W-SW 241 0 min 0,000 mm 0,0 UV-I 18 W/m 7,0 C 6,3 C 20,9 km/h (4 Bft) 98,00 %
05.04.2017 19:20 11,3 C 75 % 1017,9 hPa 0,0 l/m 15,7 km/h (3 Bft) W-SW 238 0 min 0,000 mm 0,0 UV-I 16 W/m 7,0 C 6,4 C 20,9 km/h (4 Bft) 95,45 %
05.04.2017 19:22 11,3 C 75 % 1017,9 hPa 0,0 l/m 15,5 km/h (3 Bft) W-SW 253 0 min 0,000 mm 0,0 UV-I 14 W/m 7,0 C 6,5 C 25,7 km/h (4 Bft) 98,11 %
05.04.2017 19:24 11,3 C 75 % 1017,8 hPa 0,0 l/m 15,0 km/h (3 Bft) SW 225 0 min 0,000 mm 0,0 UV-I 14 W/m 7,0 C 6,7 C 22,5 km/h (4 Bft) 100,00 %
05.04.2017 19:26 11,3 C 75 % 1017,8 hPa 0,0 l/m 16,4 km/h (3 Bft) W-SW 244 0 min 0,000 mm 0,0 UV-I 12 W/m 7,0 C 6,2 C 22,5 km/h (4 Bft) 100,00 %
05.04.2017 19:28 11,3 C 75 % 1017,8 hPa 0,0 l/m 14,2 km/h (3 Bft) SW 227 2 min 0,000 mm 0,0 UV-I 12 W/m 7,0 C 7,0 C 20,9 km/h (4 Bft) 100,00 %
05.04.2017 19:30 11,3 C 75 % 1017,8 hPa 0,0 l/m 18,1 km/h (3 Bft) W 271 0 min 0,000 mm 0,0 UV-I 11 W/m 7,0 C 5,6 C 25,7 km/h (4 Bft) 100,00 %
05.04.2017 19:32 11,3 C 75 % 1017,9 hPa 0,0 l/m 16,9 km/h (3 Bft) W-SW 252 0 min 0,000 mm 0,0 UV-I 9 W/m 7,0 C 6,0 C 24,1 km/h (4 Bft) 100,00 %
05.04.2017 19:34 11,3 C 75 % 1017,9 hPa 0,0 l/m 16,2 km/h (3 Bft) S 184 0 min 0,000 mm 0,0 UV-I 7 W/m 7,0 C 6,2 C 25,7 km/h (4 Bft) 98,21 %
05.04.2017 19:36 11,3 C 75 % 1017,9 hPa 0,0 l/m 17,0 km/h (3 Bft) W-SW 238 0 min 0,000 mm 0,0 UV-I 6 W/m 7,0 C 6,0 C 24,1 km/h (4 Bft) 100,00 %
05.04.2017 19:38 11,3 C 75 % 1017,9 hPa 0,0 l/m 15,9 km/h (3 Bft) W 260 0 min 0,000 mm 0,0 UV-I 5 W/m 7,0 C 6,4 C 24,1 km/h (4 Bft) 97,73 %
05.04.2017 19:40 11,2 C 75 % 1017,9 hPa 0,0 l/m 17,9 km/h (3 Bft) W 281 0 min 0,000 mm 0,0 UV-I 3 W/m 6,9 C 5,5 C 24,1 km/h (4 Bft) 98,00 %
05.04.2017 19:42 11,2 C 75 % 1018,0 hPa 0,0 l/m 18,8 km/h (3 Bft) SW 214 0 min 0,000 mm 0,0 UV-I 0 W/m 6,9 C 5,2 C 29,0 km/h (5 Bft) 94,00 %
05.04.2017 19:44 11,2 C 75 % 1018,0 hPa 0,0 l/m 16,8 km/h (3 Bft) S-SW 198 0 min 0,000 mm 0,0 UV-I 0 W/m 6,9 C 5,9 C 22,5 km/h (4 Bft) 95,83 %
05.04.2017 19:46 11,2 C 76 % 1018,0 hPa 0,0 l/m 17,5 km/h (3 Bft) SW 231 0 min 0,000 mm 0,0 UV-I 0 W/m 7,1 C 5,7 C 27,4 km/h (4 Bft) 95,71 %
05.04.2017 19:48 11,2 C 76 % 1017,9 hPa 0,0 l/m 20,0 km/h (4 Bft) SW 223 0 min 0,000 mm 0,0 UV-I 0 W/m 7,1 C 4,8 C 30,6 km/h (5 Bft) 100,00 %
05.04.2017 19:50 11,2 C 76 % 1017,9 hPa 0,0 l/m 18,6 km/h (3 Bft) W-SW 244 0 min 0,000 mm 0,0 UV-I 0 W/m 7,1 C 5,3 C 24,1 km/h (4 Bft) 92,00 %
05.04.2017 19:52 11,2 C 76 % 1018,0 hPa 0,0 l/m 17,7 km/h (3 Bft) SW 221 0 min 0,000 mm 0,0 UV-I 0 W/m 7,1 C 5,6 C 24,1 km/h (4 Bft) 100,00 %
05.04.2017 19:54 11,2 C 76 % 1018,0 hPa 0,0 l/m 17,4 km/h (3 Bft) SW 236 0 min 0,000 mm 0,0 UV-I 0 W/m 7,1 C 5,7 C 25,7 km/h (4 Bft) 98,11 %
05.04.2017 19:56 11,2 C 76 % 1017,9 hPa 0,0 l/m 17,3 km/h (3 Bft) S 174 0 min 0,000 mm 0,0 UV-I 0 W/m 7,1 C 5,7 C 25,7 km/h (4 Bft) 97,87 %
05.04.2017 19:58 11,2 C 76 % 1018,0 hPa 0,0 l/m 16,8 km/h (3 Bft) SW 227 0 min 0,000 mm 0,0 UV-I 0 W/m 7,1 C 5,9 C 24,1 km/h (4 Bft) 94,00 %
05.04.2017 20:00 11,2 C 76 % 1018,0 hPa 0,0 l/m 12,6 km/h (3 Bft) W-SW 240 0 min 0,050 mm 0,0 UV-I 0 W/m 7,1 C 7,6 C 20,9 km/h (4 Bft) 100,00 %
05.04.2017 20:02 11,2 C 76 % 1018,1 hPa 0,0 l/m 16,3 km/h (3 Bft) SW 216 0 min 0,000 mm 0,0 UV-I 0 W/m 7,1 C 6,1 C 25,7 km/h (4 Bft) 94,64 %
05.04.2017 20:04 11,2 C 76 % 1018,1 hPa 0,0 l/m 18,0 km/h (3 Bft) W-SW 247 0 min 0,000 mm 0,0 UV-I 0 W/m 7,1 C 5,5 C 27,4 km/h (4 Bft) 96,43 %
05.04.2017 20:06 11,2 C 76 % 1018,1 hPa 0,0 l/m 18,3 km/h (3 Bft) W-SW 254 0 min 0,000 mm 0,0 UV-I 0 W/m 7,1 C 5,4 C 27,4 km/h (4 Bft) 95,74 %
05.04.2017 20:08 11,2 C 76 % 1018,2 hPa 0,0 l/m 21,0 km/h (4 Bft) SW 217 0 min 0,000 mm 0,0 UV-I 0 W/m 7,1 C 4,5 C 29,0 km/h (5 Bft) 92,11 %
05.04.2017 20:10 11,2 C 75 % 1018,2 hPa 0,0 l/m 18,3 km/h (3 Bft) W-SW 238 0 min 0,000 mm 0,0 UV-I 0 W/m 6,9 C 5,4 C 29,0 km/h (5 Bft) 94,00 %
05.04.2017 20:12 11,2 C 76 % 1018,2 hPa 0,0 l/m 16,9 km/h (3 Bft) W-SW 248 0 min 0,000 mm 0,0 UV-I 0 W/m 7,1 C 5,9 C 24,1 km/h (4 Bft) 95,12 %
05.04.2017 20:14 11,2 C 76 % 1018,1 hPa 0,0 l/m 18,5 km/h (3 Bft) SW 219 0 min 0,000 mm 0,0 UV-I 0 W/m 7,1 C 5,3 C 29,0 km/h (5 Bft) 96,61 %
05.04.2017 20:16 11,1 C 76 % 1018,2 hPa 0,0 l/m 16,7 km/h (3 Bft) SW 227 0 min 0,000 mm 0,0 UV-I 0 W/m 7,0 C 5,8 C 29,0 km/h (5 Bft) 95,12 %
05.04.2017 20:18 11,1 C 76 % 1018,1 hPa 0,0 l/m 14,5 km/h (3 Bft) S-SW 208 0 min 0,000 mm 0,0 UV-I 0 W/m 7,0 C 6,7 C 25,7 km/h (4 Bft) 94,34 %
05.04.2017 20:20 11,1 C 76 % 1018,2 hPa 0,0 l/m 12,9 km/h (3 Bft) S-SW 204 0 min 0,000 mm 0,0 UV-I 0 W/m 7,0 C 7,4 C 19,3 km/h (3 Bft) 95,12 %
05.04.2017 20:22 11,1 C 76 % 1018,1 hPa 0,0 l/m 18,4 km/h (3 Bft) SW 227 0 min 0,000 mm 0,0 UV-I 0 W/m 7,0 C 5,2 C 27,4 km/h (4 Bft) 95,12 %
05.04.2017 20:24 11,1 C 76 % 1018,2 hPa 0,0 l/m 13,2 km/h (3 Bft) SW 223 0 min 0,000 mm 0,0 UV-I 0 W/m 7,0 C 7,2 C 19,3 km/h (3 Bft) 96,00 %
05.04.2017 20:26 11,1 C 76 % 1018,1 hPa 0,0 l/m 15,9 km/h (3 Bft) W-SW 242 0 min 0,000 mm 0,0 UV-I 0 W/m 7,0 C 6,1 C 27,4 km/h (4 Bft) 95,74 %
05.04.2017 20:28 11,1 C 76 % 1018,1 hPa 0,0 l/m 17,6 km/h (3 Bft) W-SW 242 0 min 0,000 mm 0,0 UV-I 0 W/m 7,0 C 5,5 C 25,7 km/h (4 Bft) 88,10 %
05.04.2017 20:30 11,1 C 76 % 1018,2 hPa 0,0 l/m 16,9 km/h (3 Bft) SW 224 0 min 0,000 mm 0,0 UV-I 0 W/m 7,0 C 5,7 C 25,7 km/h (4 Bft) 94,23 %
05.04.2017 20:32 11,1 C 76 % 1018,2 hPa 0,0 l/m 18,6 km/h (3 Bft) SW 224 0 min 0,000 mm 0,0 UV-I 0 W/m 7,0 C 5,2 C 25,7 km/h (4 Bft) 94,00 %
05.04.2017 20:34 11,1 C 76 % 1018,2 hPa 0,0 l/m 21,3 km/h (4 Bft) SW 232 0 min 0,000 mm 0,0 UV-I 0 W/m 7,0 C 4,3 C 27,4 km/h (4 Bft) 91,11 %
05.04.2017 20:36 11,1 C 76 % 1018,2 hPa 0,0 l/m 16,9 km/h (3 Bft) W-SW 245 0 min 0,000 mm 0,0 UV-I 0 W/m 7,0 C 5,7 C 30,6 km/h (5 Bft) 90,38 %
05.04.2017 20:38 11,1 C 76 % 1018,2 hPa 0,0 l/m 16,9 km/h (3 Bft) W-SW 240 0 min 0,000 mm 0,0 UV-I 0 W/m 7,0 C 5,7 C 24,1 km/h (4 Bft) 93,33 %
05.04.2017 20:40 11,1 C 76 % 1018,2 hPa 0,0 l/m 18,7 km/h (3 Bft) SW 217 0 min 0,000 mm 0,0 UV-I 0 W/m 7,0 C 5,1 C 27,4 km/h (4 Bft) 92,68 %
05.04.2017 20:43 11,1 C 75 % 1018,2 hPa 0,0 l/m 17,0 km/h (3 Bft) W 267 0 min 0,000 mm 0,0 UV-I 0 W/m 6,8 C 5,7 C 24,1 km/h (4 Bft) 90,41 %
05.04.2017 20:44 11,1 C 75 % 1018,2 hPa 0,0 l/m 18,9 km/h (3 Bft) SW 236 0 min 0,000 mm 0,0 UV-I 0 W/m 6,8 C 5,1 C 29,0 km/h (5 Bft) 92,59 %
05.04.2017 20:46 11,1 C 75 % 1018,2 hPa 0,0 l/m 16,1 km/h (3 Bft) SW 221 0 min 0,000 mm 0,0 UV-I 0 W/m 6,8 C 6,0 C 24,1 km/h (4 Bft) 95,74 %
05.04.2017 20:48 11,1 C 75 % 1018,2 hPa 0,0 l/m 16,7 km/h (3 Bft) SW 235 0 min 0,000 mm 0,0 UV-I 0 W/m 6,8 C 5,8 C 29,0 km/h (5 Bft) 93,18 %
05.04.2017 20:50 11,1 C 75 % 1018,2 hPa 0,0 l/m 19,6 km/h (3 Bft) W-SW 237 0 min 0,000 mm 0,0 UV-I 0 W/m 6,8 C 4,8 C 29,0 km/h (5 Bft) 92,68 %
05.04.2017 20:53 11,1 C 75 % 1018,2 hPa 0,0 l/m 19,4 km/h (3 Bft) SW 219 0 min 0,000 mm 0,0 UV-I 0 W/m 6,8 C 4,9 C 29,0 km/h (5 Bft) 89,87 %
05.04.2017 20:54 11,1 C 75 % 1018,2 hPa 0,0 l/m 15,6 km/h (3 Bft) SW 220 0 min 0,000 mm 0,0 UV-I 0 W/m 6,8 C 6,2 C 20,9 km/h (4 Bft) 93,33 %
05.04.2017 20:56 11,1 C 75 % 1018,2 hPa 0,0 l/m 17,3 km/h (3 Bft) W-SW 257 0 min 0,000 mm 0,0 UV-I 0 W/m 6,8 C 5,6 C 32,2 km/h (5 Bft) 95,74 %
05.04.2017 20:58 11,1 C 75 % 1018,2 hPa 0,0 l/m 14,6 km/h (3 Bft) W-SW 242 0 min 0,000 mm 0,0 UV-I 0 W/m 6,8 C 6,6 C 20,9 km/h (4 Bft) 94,34 %
05.04.2017 21:00 11,1 C 75 % 1018,2 hPa 0,0 l/m 21,8 km/h (4 Bft) S-SW 207 0 min 0,000 mm 0,0 UV-I 0 W/m 6,8 C 4,2 C 32,2 km/h (5 Bft) 89,47 %
05.04.2017 21:03 11,1 C 75 % 1018,2 hPa 0,0 l/m 18,3 km/h (3 Bft) S-SW 211 0 min 0,051 mm 0,0 UV-I 0 W/m 6,8 C 5,3 C 32,2 km/h (5 Bft) 91,86 %
05.04.2017 21:04 11,1 C 75 % 1018,2 hPa 0,0 l/m 17,8 km/h (3 Bft) SW 222 0 min 0,000 mm 0,0 UV-I 0 W/m 6,8 C 5,4 C 24,1 km/h (4 Bft) 92,86 %
05.04.2017 21:06 11,0 C 75 % 1018,2 hPa 0,0 l/m 17,1 km/h (3 Bft) S-SW 213 0 min 0,000 mm 0,0 UV-I 0 W/m 6,7 C 5,5 C 24,1 km/h (4 Bft) 90,57 %
05.04.2017 21:08 11,0 C 75 % 1018,2 hPa 0,0 l/m 21,1 km/h (4 Bft) SW 220 0 min 0,000 mm 0,0 UV-I 0 W/m 6,7 C 4,2 C 29,0 km/h (5 Bft) 100,00 %
05.04.2017 21:10 11,0 C 75 % 1018,2 hPa 0,0 l/m 16,3 km/h (3 Bft) SW 233 0 min 0,000 mm 0,0 UV-I 0 W/m 6,7 C 5,8 C 25,7 km/h (4 Bft) 97,92 %
05.04.2017 21:12 11,0 C 75 % 1018,2 hPa 0,0 l/m 19,5 km/h (3 Bft) W-SW 240 0 min 0,000 mm 0,0 UV-I 0 W/m 6,7 C 4,7 C 30,6 km/h (5 Bft) 97,14 %
05.04.2017 21:14 11,0 C 75 % 1018,2 hPa 0,0 l/m 16,9 km/h (3 Bft) W-SW 244 0 min 0,000 mm 0,0 UV-I 0 W/m 6,7 C 5,6 C 22,5 km/h (4 Bft) 96,43 %
05.04.2017 21:16 11,0 C 75 % 1018,2 hPa 0,0 l/m 16,9 km/h (3 Bft) SW 214 0 min 0,000 mm 0,0 UV-I 0 W/m 6,7 C 5,6 C 27,4 km/h (4 Bft) 97,87 %
05.04.2017 21:18 11,0 C 75 % 1018,1 hPa 0,0 l/m 20,8 km/h (4 Bft) SW 232 0 min 0,000 mm 0,0 UV-I 0 W/m 6,7 C 4,3 C 29,0 km/h (5 Bft) 98,21 %
05.04.2017 21:20 11,0 C 75 % 1018,2 hPa 0,0 l/m 19,7 km/h (3 Bft) W-SW 242 0 min 0,000 mm 0,0 UV-I 0 W/m 6,7 C 4,7 C 25,7 km/h (4 Bft) 100,00 %
05.04.2017 21:22 11,0 C 75 % 1018,2 hPa 0,0 l/m 22,0 km/h (4 Bft) SW 223 0 min 0,000 mm 0,0 UV-I 0 W/m 6,7 C 4,0 C 30,6 km/h (5 Bft) 97,73 %
05.04.2017 21:24 10,9 C 75 % 1018,2 hPa 0,0 l/m 23,3 km/h (4 Bft) SW 232 0 min 0,000 mm 0,0 UV-I 0 W/m 6,6 C 3,5 C 33,8 km/h (5 Bft) 95,74 %
05.04.2017 21:26 10,9 C 75 % 1018,2 hPa 0,0 l/m 20,0 km/h (4 Bft) W-SW 238 0 min 0,000 mm 0,0 UV-I 0 W/m 6,6 C 4,4 C 30,6 km/h (5 Bft) 96,00 %
05.04.2017 21:28 10,9 C 75 % 1018,2 hPa 0,0 l/m 21,6 km/h (4 Bft) SW 230 0 min 0,000 mm 0,0 UV-I 0 W/m 6,6 C 4,0 C 25,7 km/h (4 Bft) 97,73 %
05.04.2017 21:30 10,9 C 75 % 1018,1 hPa 0,0 l/m 20,0 km/h (4 Bft) SW 227 0 min 0,000 mm 0,0 UV-I 0 W/m 6,6 C 4,4 C 27,4 km/h (4 Bft) 98,11 %
05.04.2017 21:32 10,9 C 75 % 1018,1 hPa 0,0 l/m 15,7 km/h (3 Bft) SW 226 0 min 0,000 mm 0,0 UV-I 0 W/m 6,6 C 5,9 C 24,1 km/h (4 Bft) 98,00 %
05.04.2017 21:34 10,9 C 76 % 1018,2 hPa 0,0 l/m 14,9 km/h (3 Bft) S-SW 198 0 min 0,000 mm 0,0 UV-I 0 W/m 6,8 C 6,3 C 29,0 km/h (5 Bft) 94,74 %
05.04.2017 21:36 10,8 C 75 % 1018,2 hPa 0,0 l/m 19,4 km/h (3 Bft) W-SW 242 0 min 0,000 mm 0,0 UV-I 0 W/m 6,5 C 4,5 C 29,0 km/h (5 Bft) 97,73 %
05.04.2017 21:38 10,8 C 76 % 1018,1 hPa 0,0 l/m 18,5 km/h (3 Bft) SW 214 0 min 0,000 mm 0,0 UV-I 0 W/m 6,7 C 4,8 C 27,4 km/h (4 Bft) 94,64 %
05.04.2017 21:40 10,8 C 76 % 1018,2 hPa 0,0 l/m 17,2 km/h (3 Bft) SW 234 0 min 0,000 mm 0,0 UV-I 0 W/m 6,7 C 5,3 C 24,1 km/h (4 Bft) 97,87 %
05.04.2017 21:42 10,8 C 76 % 1018,1 hPa 0,0 l/m 15,7 km/h (3 Bft) SW 217 0 min 0,000 mm 0,0 UV-I 0 W/m 6,7 C 5,8 C 29,0 km/h (5 Bft) 97,56 %
05.04.2017 21:44 10,8 C 76 % 1018,1 hPa 0,0 l/m 17,8 km/h (3 Bft) W-SW 244 0 min 0,000 mm 0,0 UV-I 0 W/m 6,7 C 5,0 C 25,7 km/h (4 Bft) 100,00 %
05.04.2017 21:46 10,8 C 76 % 1018,1 hPa 0,0 l/m 16,7 km/h (3 Bft) SW 218 0 min 0,000 mm 0,0 UV-I 0 W/m 6,7 C 5,4 C 29,0 km/h (5 Bft) 95,12 %
05.04.2017 21:48 10,8 C 76 % 1018,0 hPa 0,0 l/m 15,9 km/h (3 Bft) W-SW 238 0 min 0,000 mm 0,0 UV-I 0 W/m 6,7 C 5,7 C 24,1 km/h (4 Bft) 97,78 %
05.04.2017 21:50 10,7 C 76 % 1018,0 hPa 0,0 l/m 16,3 km/h (3 Bft) SW 235 0 min 0,000 mm 0,0 UV-I 0 W/m 6,6 C 5,5 C 22,5 km/h (4 Bft) 98,08 %
05.04.2017 21:52 10,7 C 76 % 1018,0 hPa 0,0 l/m 15,6 km/h (3 Bft) SW 228 0 min 0,000 mm 0,0 UV-I 0 W/m 6,6 C 5,7 C 22,5 km/h (4 Bft) 97,78 %
05.04.2017 21:54 10,7 C 76 % 1018,0 hPa 0,0 l/m 17,1 km/h (3 Bft) W-SW 244 0 min 0,000 mm 0,0 UV-I 0 W/m 6,6 C 5,2 C 29,0 km/h (5 Bft) 98,08 %
05.04.2017 21:56 10,7 C 76 % 1018,0 hPa 0,0 l/m 12,9 km/h (3 Bft) SW 215 0 min 0,000 mm 0,0 UV-I 0 W/m 6,6 C 6,9 C 20,9 km/h (4 Bft) 95,35 %
05.04.2017 21:58 10,7 C 76 % 1018,0 hPa 0,0 l/m 12,8 km/h (3 Bft) W-SW 255 0 min 0,000 mm 0,0 UV-I 0 W/m 6,6 C 6,9 C 20,9 km/h (4 Bft) 100,00 %
05.04.2017 22:00 10,7 C 76 % 1018,0 hPa 0,0 l/m 12,4 km/h (3 Bft) W-SW 244 0 min 0,000 mm 0,0 UV-I 0 W/m 6,6 C 7,1 C 20,9 km/h (4 Bft) 100,00 %
05.04.2017 22:02 10,7 C 77 % 1017,9 hPa 0,0 l/m 15,5 km/h (3 Bft) SW 236 0 min 0,051 mm 0,0 UV-I 0 W/m 6,8 C 5,8 C 22,5 km/h (4 Bft) 100,00 %
05.04.2017 22:04 10,7 C 76 % 1018,0 hPa 0,0 l/m 11,8 km/h (2 Bft) SW 236 0 min 0,000 mm 0,0 UV-I 0 W/m 6,6 C 7,4 C 17,7 km/h (3 Bft) 98,11 %
05.04.2017 22:06 10,6 C 77 % 1018,0 hPa 0,0 l/m 13,4 km/h (3 Bft) S-SW 196 0 min 0,000 mm 0,0 UV-I 0 W/m 6,7 C 6,5 C 19,3 km/h (3 Bft) 95,74 %
05.04.2017 22:08 10,6 C 77 % 1017,9 hPa 0,0 l/m 15,4 km/h (3 Bft) W-SW 238 0 min 0,000 mm 0,0 UV-I 0 W/m 6,7 C 5,7 C 20,9 km/h (4 Bft) 97,56 %
05.04.2017 22:10 10,6 C 76 % 1017,9 hPa 0,0 l/m 16,2 km/h (3 Bft) SW 236 0 min 0,000 mm 0,0 UV-I 0 W/m 6,5 C 5,4 C 25,7 km/h (4 Bft) 100,00 %
05.04.2017 22:12 10,6 C 77 % 1017,9 hPa 0,0 l/m 14,0 km/h (3 Bft) W-SW 238 0 min 0,000 mm 0,0 UV-I 0 W/m 6,7 C 6,3 C 20,9 km/h (4 Bft) 98,11 %
05.04.2017 22:14 10,6 C 77 % 1017,9 hPa 0,0 l/m 17,1 km/h (3 Bft) W-SW 243 0 min 0,000 mm 0,0 UV-I 0 W/m 6,7 C 5,0 C 22,5 km/h (4 Bft) 95,45 %
05.04.2017 22:16 10,6 C 76 % 1017,9 hPa 0,0 l/m 15,9 km/h (3 Bft) W-SW 240 0 min 0,000 mm 0,0 UV-I 0 W/m 6,5 C 5,5 C 20,9 km/h (4 Bft) 97,56 %
05.04.2017 22:18 10,6 C 76 % 1017,9 hPa 0,0 l/m 15,5 km/h (3 Bft) W-SW 253 0 min 0,000 mm 0,0 UV-I 0 W/m 6,5 C 5,7 C 20,9 km/h (4 Bft) 97,73 %
05.04.2017 22:20 10,6 C 76 % 1018,0 hPa 0,0 l/m 15,0 km/h (3 Bft) W 263 0 min 0,000 mm 0,0 UV-I 0 W/m 6,5 C 5,9 C 27,4 km/h (4 Bft) 96,61 %
05.04.2017 22:22 10,6 C 76 % 1018,0 hPa 0,0 l/m 14,8 km/h (3 Bft) W-SW 255 0 min 0,000 mm 0,0 UV-I 0 W/m 6,5 C 5,9 C 22,5 km/h (4 Bft) 100,00 %
05.04.2017 22:24 10,6 C 76 % 1018,0 hPa 0,0 l/m 13,8 km/h (3 Bft) SW 236 0 min 0,000 mm 0,0 UV-I 0 W/m 6,5 C 6,4 C 20,9 km/h (4 Bft) 98,00 %
05.04.2017 22:26 10,6 C 77 % 1018,0 hPa 0,0 l/m 14,3 km/h (3 Bft) SW 218 0 min 0,000 mm 0,0 UV-I 0 W/m 6,7 C 6,2 C 20,9 km/h (4 Bft) 98,00 %
05.04.2017 22:28 10,5 C 77 % 1018,0 hPa 0,0 l/m 10,6 km/h (2 Bft) W-SW 249 0 min 0,000 mm 0,0 UV-I 0 W/m 6,6 C 7,8 C 16,1 km/h (3 Bft) 100,00 %
05.04.2017 22:30 10,5 C 77 % 1018,0 hPa 0,0 l/m 14,3 km/h (3 Bft) SW 230 0 min 0,000 mm 0,0 UV-I 0 W/m 6,6 C 6,0 C 20,9 km/h (4 Bft) 95,24 %
05.04.2017 22:32 10,5 C 77 % 1018,0 hPa 0,0 l/m 12,8 km/h (3 Bft) W 271 0 min 0,000 mm 0,0 UV-I 0 W/m 6,6 C 6,7 C 19,3 km/h (3 Bft) 96,23 %
05.04.2017 22:34 10,5 C 77 % 1018,0 hPa 0,0 l/m 13,6 km/h (3 Bft) SW 236 0 min 0,000 mm 0,0 UV-I 0 W/m 6,6 C 6,3 C 22,5 km/h (4 Bft) 98,11 %
05.04.2017 22:36 10,5 C 77 % 1018,0 hPa 0,0 l/m 12,5 km/h (3 Bft) SW 219 0 min 0,000 mm 0,0 UV-I 0 W/m 6,6 C 6,8 C 20,9 km/h (4 Bft) 93,62 %
05.04.2017 22:38 10,5 C 77 % 1018,0 hPa 0,0 l/m 13,5 km/h (3 Bft) W-SW 252 0 min 0,000 mm 0,0 UV-I 0 W/m 6,6 C 6,4 C 22,5 km/h (4 Bft) 95,74 %
05.04.2017 22:40 10,5 C 77 % 1018,0 hPa 0,0 l/m 11,7 km/h (2 Bft) W-SW 244 0 min 0,000 mm 0,0 UV-I 0 W/m 6,6 C 7,2 C 16,1 km/h (3 Bft) 93,62 %
05.04.2017 22:42 10,5 C 77 % 1018,0 hPa 0,0 l/m 13,4 km/h (3 Bft) SW 219 0 min 0,000 mm 0,0 UV-I 0 W/m 6,6 C 6,4 C 19,3 km/h (3 Bft) 97,67 %
05.04.2017 22:44 10,5 C 77 % 1018,0 hPa 0,0 l/m 10,6 km/h (2 Bft) SW 227 0 min 0,000 mm 0,0 UV-I 0 W/m 6,6 C 7,8 C 16,1 km/h (3 Bft) 95,12 %
05.04.2017 22:46 10,4 C 77 % 1017,9 hPa 0,0 l/m 16,3 km/h (3 Bft) SW 217 0 min 0,000 mm 0,0 UV-I 0 W/m 6,5 C 5,1 C 24,1 km/h (4 Bft) 94,34 %
05.04.2017 22:48 10,4 C 77 % 1018,0 hPa 0,0 l/m 15,4 km/h (3 Bft) SW 231 0 min 0,000 mm 0,0 UV-I 0 W/m 6,5 C 5,5 C 22,5 km/h (4 Bft) 95,12 %
05.04.2017 22:50 10,4 C 77 % 1018,0 hPa 0,0 l/m 17,3 km/h (3 Bft) W-SW 239 0 min 0,000 mm 0,0 UV-I 0 W/m 6,5 C 4,7 C 24,1 km/h (4 Bft) 92,45 %
05.04.2017 22:52 10,4 C 77 % 1017,9 hPa 0,0 l/m 13,0 km/h (3 Bft) SW 220 0 min 0,000 mm 0,0 UV-I 0 W/m 6,5 C 6,5 C 19,3 km/h (3 Bft) 95,12 %
05.04.2017 22:54 10,4 C 77 % 1017,9 hPa 0,0 l/m 13,1 km/h (3 Bft) SW 227 0 min 0,000 mm 0,0 UV-I 0 W/m 6,5 C 6,4 C 19,3 km/h (3 Bft) 95,74 %
05.04.2017 22:56 10,4 C 77 % 1017,9 hPa 0,0 l/m 12,0 km/h (2 Bft) SW 227 0 min 0,000 mm 0,0 UV-I 0 W/m 6,5 C 7,0 C 19,3 km/h (3 Bft) 98,11 %
05.04.2017 22:58 10,4 C 77 % 1017,9 hPa 0,0 l/m 14,9 km/h (3 Bft) SW 232 0 min 0,000 mm 0,0 UV-I 0 W/m 6,5 C 5,7 C 22,5 km/h (4 Bft) 97,87 %
05.04.2017 23:00 10,4 C 78 % 1018,0 hPa 0,0 l/m 12,8 km/h (3 Bft) W-SW 237 0 min 0,000 mm 0,0 UV-I 0 W/m 6,7 C 6,6 C 19,3 km/h (3 Bft) 97,37 %
05.04.2017 23:02 10,4 C 78 % 1017,9 hPa 0,0 l/m 11,7 km/h (2 Bft) W-SW 253 0 min 0,051 mm 0,0 UV-I 0 W/m 6,7 C 7,1 C 16,1 km/h (3 Bft) 96,00 %
05.04.2017 23:04 10,4 C 78 % 1017,9 hPa 0,0 l/m 13,6 km/h (3 Bft) W-SW 248 0 min 0,000 mm 0,0 UV-I 0 W/m 6,7 C 6,2 C 20,9 km/h (4 Bft) 97,87 %
05.04.2017 23:06 10,4 C 78 % 1017,9 hPa 0,0 l/m 11,6 km/h (2 Bft) SW 221 0 min 0,000 mm 0,0 UV-I 0 W/m 6,7 C 7,2 C 16,1 km/h (3 Bft) 92,45 %
05.04.2017 23:08 10,3 C 78 % 1017,9 hPa 0,0 l/m 11,6 km/h (2 Bft) SW 214 0 min 0,000 mm 0,0 UV-I 0 W/m 6,6 C 7,1 C 19,3 km/h (3 Bft) 93,62 %
05.04.2017 23:10 10,3 C 78 % 1017,9 hPa 0,0 l/m 12,8 km/h (3 Bft) SW 223 0 min 0,000 mm 0,0 UV-I 0 W/m 6,6 C 6,5 C 19,3 km/h (3 Bft) 100,00 %
05.04.2017 23:12 10,3 C 78 % 1017,9 hPa 0,0 l/m 13,5 km/h (3 Bft) W-SW 247 0 min 0,000 mm 0,0 UV-I 0 W/m 6,6 C 6,1 C 19,3 km/h (3 Bft) 95,74 %
05.04.2017 23:14 10,3 C 79 % 1017,9 hPa 0,0 l/m 12,0 km/h (2 Bft) W-SW 242 0 min 0,000 mm 0,0 UV-I 0 W/m 6,8 C 6,9 C 16,1 km/h (3 Bft) 100,00 %
05.04.2017 23:16 10,3 C 79 % 1018,0 hPa 0,0 l/m 10,4 km/h (2 Bft) W-SW 245 0 min 0,000 mm 0,0 UV-I 0 W/m 6,8 C 7,7 C 14,5 km/h (3 Bft) 97,87 %
05.04.2017 23:18 10,3 C 79 % 1017,9 hPa 0,0 l/m 12,6 km/h (3 Bft) S-SW 209 0 min 0,000 mm 0,0 UV-I 0 W/m 6,8 C 6,6 C 19,3 km/h (3 Bft) 93,62 %
05.04.2017 23:20 10,3 C 79 % 1017,9 hPa 0,0 l/m 12,2 km/h (2 Bft) W 266 0 min 0,000 mm 0,0 UV-I 0 W/m 6,8 C 6,8 C 19,3 km/h (3 Bft) 100,00 %
05.04.2017 23:22 10,3 C 79 % 1018,0 hPa 0,0 l/m 11,7 km/h (2 Bft) W-SW 253 0 min 0,000 mm 0,0 UV-I 0 W/m 6,8 C 7,0 C 19,3 km/h (3 Bft) 95,12 %
05.04.2017 23:24 10,3 C 79 % 1017,9 hPa 0,0 l/m 11,6 km/h (2 Bft) SW 231 0 min 0,000 mm 0,0 UV-I 0 W/m 6,8 C 7,1 C 17,7 km/h (3 Bft) 100,00 %
05.04.2017 23:26 10,3 C 79 % 1017,9 hPa 0,0 l/m 13,0 km/h (3 Bft) W-SW 252 0 min 0,000 mm 0,0 UV-I 0 W/m 6,8 C 6,4 C 17,7 km/h (3 Bft) 97,87 %
05.04.2017 23:28 10,3 C 79 % 1017,9 hPa 0,0 l/m 11,8 km/h (2 Bft) W 265 0 min 0,000 mm 0,0 UV-I 0 W/m 6,8 C 7,0 C 16,1 km/h (3 Bft) 98,21 %
05.04.2017 23:30 10,3 C 78 % 1017,9 hPa 0,0 l/m 11,1 km/h (2 Bft) W-SW 251 0 min 0,000 mm 0,0 UV-I 0 W/m 6,6 C 7,3 C 16,1 km/h (3 Bft) 100,00 %
05.04.2017 23:32 10,3 C 78 % 1017,9 hPa 0,0 l/m 11,4 km/h (2 Bft) W 270 0 min 0,000 mm 0,0 UV-I 0 W/m 6,6 C 7,2 C 20,9 km/h (4 Bft) 97,87 %
05.04.2017 23:34 10,3 C 78 % 1017,9 hPa 0,0 l/m 12,0 km/h (2 Bft) W-SW 237 0 min 0,000 mm 0,0 UV-I 0 W/m 6,6 C 6,9 C 17,7 km/h (3 Bft) 100,00 %
05.04.2017 23:36 10,3 C 79 % 1017,9 hPa 0,0 l/m 10,4 km/h (2 Bft) W-SW 254 0 min 0,000 mm 0,0 UV-I 0 W/m 6,8 C 7,7 C 16,1 km/h (3 Bft) 97,56 %
05.04.2017 23:38 10,3 C 79 % 1017,9 hPa 0,0 l/m 10,3 km/h (2 Bft) SW 236 0 min 0,000 mm 0,0 UV-I 0 W/m 6,8 C 7,8 C 16,1 km/h (3 Bft) 98,11 %
05.04.2017 23:40 10,3 C 78 % 1017,9 hPa 0,0 l/m 12,5 km/h (3 Bft) W-SW 257 0 min 0,000 mm 0,0 UV-I 0 W/m 6,6 C 6,6 C 17,7 km/h (3 Bft) 97,87 %
05.04.2017 23:42 10,3 C 78 % 1017,9 hPa 0,0 l/m 14,8 km/h (3 Bft) W 261 0 min 0,000 mm 0,0 UV-I 0 W/m 6,6 C 5,6 C 20,9 km/h (4 Bft) 100,00 %
05.04.2017 23:44 10,3 C 78 % 1018,0 hPa 0,0 l/m 9,0 km/h (2 Bft) W 262 0 min 0,000 mm 0,0 UV-I 0 W/m 6,6 C 8,5 C 14,5 km/h (3 Bft) 97,87 %
05.04.2017 23:46 10,4 C 78 % 1018,0 hPa 0,0 l/m 12,9 km/h (3 Bft) W-SW 250 0 min 0,000 mm 0,0 UV-I 0 W/m 6,7 C 6,5 C 19,3 km/h (3 Bft) 100,00 %
05.04.2017 23:48 10,4 C 77 % 1018,0 hPa 0,0 l/m 15,0 km/h (3 Bft) W-SW 251 0 min 0,000 mm 0,0 UV-I 0 W/m 6,5 C 5,6 C 24,1 km/h (4 Bft) 100,00 %
05.04.2017 23:50 10,4 C 77 % 1018,0 hPa 0,0 l/m 13,7 km/h (3 Bft) W-NW 291 0 min 0,000 mm 0,0 UV-I 0 W/m 6,5 C 6,2 C 20,9 km/h (4 Bft) 100,00 %
05.04.2017 23:52 10,4 C 77 % 1017,9 hPa 0,0 l/m 9,8 km/h (2 Bft) W-NW 290 0 min 0,000 mm 0,0 UV-I 0 W/m 6,5 C 8,2 C 16,1 km/h (3 Bft) 100,00 %
05.04.2017 23:54 10,4 C 77 % 1017,9 hPa 0,0 l/m 11,2 km/h (2 Bft) W 271 0 min 0,000 mm 0,0 UV-I 0 W/m 6,5 C 7,4 C 20,9 km/h (4 Bft) 97,87 %
05.04.2017 23:56 10,4 C 77 % 1017,9 hPa 0,0 l/m 15,3 km/h (3 Bft) W 265 0 min 0,000 mm 0,0 UV-I 0 W/m 6,5 C 5,5 C 20,9 km/h (4 Bft) 97,96 %
05.04.2017 23:58 10,4 C 77 % 1017,9 hPa 0,0 l/m 12,0 km/h (2 Bft) W-SW 258 0 min 0,000 mm 0,0 UV-I 0 W/m 6,5 C 7,0 C 19,3 km/h (3 Bft) 95,74 %
_ Min-Zeit 06:26 15:02 18:14 - 02:40 - - - - - - 15:04 00:14 02:40 17:18
Minimum _ 6,9 C 51 % 1017,6 hPa - 0,0 km/h (0 Bft) - - - - - - 3,5 C 2,2 C 0,0 km/h (0 Bft) 86,11 %
_ Max-Zeit 15:02 06:32 09:28 14:24 18:20 - - 06:44 13:00 12:04 12:06 13:20 14:58 18:20 00:22
Maximum _ 13,6 C 93 % 1021,6 hPa 0,2 l/m 23,6 km/h
SW (4 Bft)
- - 2 min 0,229 mm 2,6 UV-I 909 W/m 8,4 C 13,4 C 33,8 km/h
SW (5 Bft)
100,00 %
Durchschnitt _ 9,9 C 81 % 1019,8 hPa #0,2 l/m 10,1 km/h (2 Bft) W-SW - #2:08 h #1,829 mm 1,2 UV-I 199 W/m 6,7 C 7,6 C 15,7 km/h (3 Bft) 96,28 %